PWSweather.com
Personal Weather Stations
Station Observations
HVALPSUND
Hvalpsund, FarsoeDK 9640

HvalpsundFarsoeDK 9640

Lat: 56.705311, Lon: 9.203638

Elevation: 5

Station Type: Vantage Pro2

http://hvalpsundvejr.dk

High Low Average
Temperature 58.1°F14.5°C 41.9°F5.5°C 50.9°F10.5°C
Dew Point 43.6°F6.4°C 37.4°F3.0°C 40.2°F4.6°C
Winds 19.7 mph 31.7 kmh 2.5 mph 4.0 kmh 10.0 mph S16.1 kmh S
Wind Gusts 25.0 mph40.2 kmh 5.0 mph8.0 kmh 15.0 mph24.1 kmh
Humidity 88% 48% 68%
Pressure 29.86 in1011.2 mb 29.74 in1007.1 mb -
Precipitation 0.00 in0.0 mm - -
Hour Temp Dew Point Humidity Winds Wind Gusts Pressure Precip Precip Rate Daily Precip Total
12:00 AM 45.4°F7.4°C 41.5°F5.3°C 86% 14.6 mph WSW23.5 kmh WSW 18.0 mph29.0 kmh 29.74 in1007.1 mb 0.00 in0.0 mm 0.00 in0.0 mm 0.00 in0.0 mm
12:01 AM 45.4°F7.4°C 41.5°F5.3°C 86% 15.2 mph WSW24.5 kmh WSW 18.0 mph29.0 kmh 29.74 in1007.1 mb 0.00 in0.0 mm 0.00 in0.0 mm 0.00 in0.0 mm
12:02 AM 45.4°F7.4°C 41.5°F5.3°C 86% 15.6 mph WSW25.1 kmh WSW 18.0 mph29.0 kmh 29.75 in1007.5 mb 0.00 in0.0 mm 0.00 in0.0 mm 0.00 in0.0 mm
12:03 AM 45.4°F7.4°C 41.5°F5.3°C 86% 15.7 mph WSW25.3 kmh WSW 19.0 mph30.6 kmh 29.74 in1007.1 mb 0.00 in0.0 mm 0.00 in0.0 mm 0.00 in0.0 mm
12:04 AM 45.3°F7.4°C 41.4°F5.2°C 86% 17.2 mph WSW27.7 kmh WSW 19.0 mph30.6 kmh 29.75 in1007.5 mb 0.00 in0.0 mm 0.00 in0.0 mm 0.00 in0.0 mm
12:05 AM 45.3°F7.4°C 41.4°F5.2°C 86% 17.7 mph WSW28.5 kmh WSW 20.0 mph32.2 kmh 29.75 in1007.5 mb 0.00 in0.0 mm 0.00 in0.0 mm 0.00 in0.0 mm
12:06 AM 45.4°F7.4°C 41.5°F5.3°C 86% 12.7 mph WSW20.4 kmh WSW 20.0 mph32.2 kmh 29.75 in1007.5 mb 0.00 in0.0 mm 0.00 in0.0 mm 0.00 in0.0 mm
12:07 AM 45.5°F7.5°C 41.6°F5.3°C 86% 13.9 mph WSW22.4 kmh WSW 17.0 mph27.4 kmh 29.75 in1007.5 mb 0.00 in0.0 mm 0.00 in0.0 mm 0.00 in0.0 mm
12:08 AM 45.4°F7.4°C 41.5°F5.3°C 86% 14.9 mph WSW24.0 kmh WSW 17.0 mph27.4 kmh 29.75 in1007.5 mb 0.00 in0.0 mm 0.00 in0.0 mm 0.00 in0.0 mm
12:09 AM 45.4°F7.4°C 41.5°F5.3°C 86% 16.1 mph WSW25.9 kmh WSW 18.0 mph29.0 kmh 29.75 in1007.5 mb 0.00 in0.0 mm 0.00 in0.0 mm 0.00 in0.0 mm
12:10 AM 45.4°F7.4°C 41.5°F5.3°C 86% 16.3 mph WSW26.2 kmh WSW 19.0 mph30.6 kmh 29.75 in1007.5 mb 0.00 in0.0 mm 0.00 in0.0 mm 0.00 in0.0 mm
12:11 AM 45.3°F7.4°C 41.4°F5.2°C 86% 17.4 mph WSW28.0 kmh WSW 21.0 mph33.8 kmh 29.75 in1007.5 mb 0.00 in0.0 mm 0.00 in0.0 mm 0.00 in0.0 mm
12:12 AM 45.3°F7.4°C 41.1°F5.1°C 85% 13.9 mph WSW22.4 kmh WSW 21.0 mph33.8 kmh 29.75 in1007.5 mb 0.00 in0.0 mm 0.00 in0.0 mm 0.00 in0.0 mm
12:13 AM 45.3°F7.4°C 41.4°F5.2°C 86% 12.7 mph WSW20.4 kmh WSW 15.0 mph24.1 kmh 29.75 in1007.5 mb 0.00 in0.0 mm 0.00 in0.0 mm 0.00 in0.0 mm
12:14 AM 45.4°F7.4°C 41.5°F5.3°C 86% 12.6 mph WSW20.3 kmh WSW 16.0 mph25.7 kmh 29.75 in1007.5 mb 0.00 in0.0 mm 0.00 in0.0 mm 0.00 in0.0 mm
12:15 AM 45.5°F7.5°C 41.9°F5.5°C 87% 13.3 mph WSW21.4 kmh WSW 16.0 mph25.7 kmh 29.75 in1007.5 mb 0.00 in0.0 mm 0.00 in0.0 mm 0.00 in0.0 mm
12:16 AM 45.5°F7.5°C 41.9°F5.5°C 87% 13.2 mph WSW21.2 kmh WSW 16.0 mph25.7 kmh 29.75 in1007.5 mb 0.00 in0.0 mm 0.00 in0.0 mm 0.00 in0.0 mm
12:17 AM 45.5°F7.5°C 41.6°F5.3°C 86% 13.7 mph WSW22.0 kmh WSW 17.0 mph27.4 kmh 29.75 in1007.5 mb 0.00 in0.0 mm 0.00 in0.0 mm 0.00 in0.0 mm
12:18 AM 45.4°F7.4°C 41.5°F5.3°C 86% 17.3 mph WSW27.8 kmh WSW 19.0 mph30.6 kmh 29.75 in1007.5 mb 0.00 in0.0 mm 0.00 in0.0 mm 0.00 in0.0 mm
12:19 AM 45.4°F7.4°C 41.5°F5.3°C 86% 14.5 mph WSW23.3 kmh WSW 19.0 mph30.6 kmh 29.75 in1007.5 mb 0.00 in0.0 mm 0.00 in0.0 mm 0.00 in0.0 mm
12:20 AM 45.4°F7.4°C 41.5°F5.3°C 86% 14.2 mph WSW22.9 kmh WSW 18.0 mph29.0 kmh 29.75 in1007.5 mb 0.00 in0.0 mm 0.00 in0.0 mm 0.00 in0.0 mm
12:21 AM 45.3°F7.4°C 41.4°F5.2°C 86% 14.5 mph WSW23.3 kmh WSW 18.0 mph29.0 kmh 29.75 in1007.5 mb 0.00 in0.0 mm 0.00 in0.0 mm 0.00 in0.0 mm
12:22 AM 45.4°F7.4°C 41.5°F5.3°C 86% 13.7 mph WSW22.0 kmh WSW 16.0 mph25.7 kmh 29.75 in1007.5 mb 0.00 in0.0 mm 0.00 in0.0 mm 0.00 in0.0 mm
12:23 AM 45.4°F7.4°C 41.5°F5.3°C 86% 13.9 mph WSW22.4 kmh WSW 16.0 mph25.7 kmh 29.75 in1007.5 mb 0.00 in0.0 mm 0.00 in0.0 mm 0.00 in0.0 mm
12:24 AM 45.5°F7.5°C 41.6°F5.3°C 86% 12.7 mph WSW20.4 kmh WSW 16.0 mph25.7 kmh 29.75 in1007.5 mb 0.00 in0.0 mm 0.00 in0.0 mm 0.00 in0.0 mm
12:25 AM 45.5°F7.5°C 41.6°F5.3°C 86% 14.3 mph WSW23.0 kmh WSW 16.0 mph25.7 kmh 29.75 in1007.5 mb 0.00 in0.0 mm 0.00 in0.0 mm 0.00 in0.0 mm
12:26 AM 45.5°F7.5°C 41.6°F5.3°C 86% 15.1 mph WSW24.3 kmh WSW 16.0 mph25.7 kmh 29.75 in1007.5 mb 0.00 in0.0 mm 0.00 in0.0 mm 0.00 in0.0 mm
12:27 AM 45.4°F7.4°C 41.5°F5.3°C 86% 15.0 mph WSW24.1 kmh WSW 19.0 mph30.6 kmh 29.75 in1007.5 mb 0.00 in0.0 mm 0.00 in0.0 mm 0.00 in0.0 mm
12:28 AM 45.4°F7.4°C 41.5°F5.3°C 86% 13.5 mph WSW21.7 kmh WSW 19.0 mph30.6 kmh 29.75 in1007.5 mb 0.00 in0.0 mm 0.00 in0.0 mm 0.00 in0.0 mm
12:29 AM 45.5°F7.5°C 41.9°F5.5°C 87% 12.6 mph WSW20.3 kmh WSW 16.0 mph25.7 kmh 29.75 in1007.5 mb 0.00 in0.0 mm 0.00 in0.0 mm 0.00 in0.0 mm
12:30 AM 45.6°F7.6°C 42.0°F5.6°C 87% 15.0 mph WSW24.1 kmh WSW 18.0 mph29.0 kmh 29.75 in1007.5 mb 0.00 in0.0 mm 0.00 in0.0 mm 0.00 in0.0 mm
12:31 AM 45.5°F7.5°C 41.6°F5.3°C 86% 15.7 mph WSW25.3 kmh WSW 19.0 mph30.6 kmh 29.76 in1007.8 mb 0.00 in0.0 mm 0.00 in0.0 mm 0.00 in0.0 mm
12:32 AM 45.5°F7.5°C 41.6°F5.3°C 86% 13.9 mph WSW22.4 kmh WSW 19.0 mph30.6 kmh 29.75 in1007.5 mb 0.00 in0.0 mm 0.00 in0.0 mm 0.00 in0.0 mm
12:33 AM 45.5°F7.5°C 41.6°F5.3°C 86% 13.4 mph WSW21.6 kmh WSW 15.0 mph24.1 kmh 29.75 in1007.5 mb 0.00 in0.0 mm 0.00 in0.0 mm 0.00 in0.0 mm
12:34 AM 45.5°F7.5°C 41.6°F5.3°C 86% 14.0 mph WSW22.5 kmh WSW 15.0 mph24.1 kmh 29.76 in1007.8 mb 0.00 in0.0 mm 0.00 in0.0 mm 0.00 in0.0 mm
12:35 AM 45.5°F7.5°C 41.6°F5.3°C 86% 15.3 mph WSW24.6 kmh WSW 19.0 mph30.6 kmh 29.76 in1007.8 mb 0.00 in0.0 mm 0.00 in0.0 mm 0.00 in0.0 mm
12:36 AM 45.5°F7.5°C 41.6°F5.3°C 86% 16.9 mph WSW27.2 kmh WSW 19.0 mph30.6 kmh 29.76 in1007.8 mb 0.00 in0.0 mm 0.00 in0.0 mm 0.00 in0.0 mm
12:37 AM 45.4°F7.4°C 41.5°F5.3°C 86% 15.6 mph WSW25.1 kmh WSW 19.0 mph30.6 kmh 29.76 in1007.8 mb 0.00 in0.0 mm 0.00 in0.0 mm 0.00 in0.0 mm
12:38 AM 45.4°F7.4°C 41.5°F5.3°C 86% 16.5 mph WSW26.6 kmh WSW 20.0 mph32.2 kmh 29.76 in1007.8 mb 0.00 in0.0 mm 0.00 in0.0 mm 0.00 in0.0 mm
12:39 AM 45.5°F7.5°C 41.6°F5.3°C 86% 16.0 mph WSW25.7 kmh WSW 20.0 mph32.2 kmh 29.76 in1007.8 mb 0.00 in0.0 mm 0.00 in0.0 mm 0.00 in0.0 mm
12:40 AM 45.5°F7.5°C 41.6°F5.3°C 86% 16.8 mph WSW27.0 kmh WSW 20.0 mph32.2 kmh 29.76 in1007.8 mb 0.00 in0.0 mm 0.00 in0.0 mm 0.00 in0.0 mm
12:41 AM 45.5°F7.5°C 41.6°F5.3°C 86% 15.8 mph WSW25.4 kmh WSW 20.0 mph32.2 kmh 29.76 in1007.8 mb 0.00 in0.0 mm 0.00 in0.0 mm 0.00 in0.0 mm
12:42 AM 45.6°F7.6°C 42.0°F5.6°C 87% 14.6 mph WSW23.5 kmh WSW 20.0 mph32.2 kmh 29.76 in1007.8 mb 0.00 in0.0 mm 0.00 in0.0 mm 0.00 in0.0 mm
12:43 AM 45.7°F7.6°C 42.1°F5.6°C 87% 19.7 mph WSW31.7 kmh WSW 21.0 mph33.8 kmh 29.76 in1007.8 mb 0.00 in0.0 mm 0.00 in0.0 mm 0.00 in0.0 mm
12:44 AM 45.6°F7.6°C 41.7°F5.4°C 86% 16.8 mph WSW27.0 kmh WSW 21.0 mph33.8 kmh 29.76 in1007.8 mb 0.00 in0.0 mm 0.00 in0.0 mm 0.00 in0.0 mm
12:45 AM 45.6°F7.6°C 41.7°F5.4°C 86% 17.3 mph WSW27.8 kmh WSW 19.0 mph30.6 kmh 29.76 in1007.8 mb 0.00 in0.0 mm 0.00 in0.0 mm 0.00 in0.0 mm
12:46 AM 45.7°F7.6°C 42.1°F5.6°C 87% 18.1 mph WSW29.1 kmh WSW 21.0 mph33.8 kmh 29.76 in1007.8 mb 0.00 in0.0 mm 0.00 in0.0 mm 0.00 in0.0 mm
12:47 AM 45.6°F7.6°C 41.7°F5.4°C 86% 18.4 mph WSW29.6 kmh WSW 22.0 mph35.4 kmh 29.76 in1007.8 mb 0.00 in0.0 mm 0.00 in0.0 mm 0.00 in0.0 mm
12:48 AM 45.6°F7.6°C 41.7°F5.4°C 86% 18.6 mph WSW29.9 kmh WSW 22.0 mph35.4 kmh 29.76 in1007.8 mb 0.00 in0.0 mm 0.00 in0.0 mm 0.00 in0.0 mm
12:49 AM 45.5°F7.5°C 41.6°F5.3°C 86% 17.0 mph WSW27.4 kmh WSW 21.0 mph33.8 kmh 29.76 in1007.8 mb 0.00 in0.0 mm 0.00 in0.0 mm 0.00 in0.0 mm
12:50 AM 45.6°F7.6°C 42.0°F5.6°C 87% 16.1 mph WSW25.9 kmh WSW 20.0 mph32.2 kmh 29.77 in1008.1 mb 0.00 in0.0 mm 0.00 in0.0 mm 0.00 in0.0 mm
12:51 AM 45.6°F7.6°C 42.0°F5.6°C 87% 15.7 mph WSW25.3 kmh WSW 19.0 mph30.6 kmh 29.76 in1007.8 mb 0.00 in0.0 mm 0.00 in0.0 mm 0.00 in0.0 mm
12:52 AM 45.6°F7.6°C 42.0°F5.6°C 87% 17.5 mph WSW28.2 kmh WSW 21.0 mph33.8 kmh 29.76 in1007.8 mb 0.00 in0.0 mm 0.00 in0.0 mm 0.00 in0.0 mm
12:53 AM 45.6°F7.6°C 42.0°F5.6°C 87% 18.9 mph WSW30.4 kmh WSW 21.0 mph33.8 kmh 29.77 in1008.1 mb 0.00 in0.0 mm 0.00 in0.0 mm 0.00 in0.0 mm
12:54 AM 45.5°F7.5°C 41.6°F5.3°C 86% 16.9 mph WSW27.2 kmh WSW 21.0 mph33.8 kmh 29.77 in1008.1 mb 0.00 in0.0 mm 0.00 in0.0 mm 0.00 in0.0 mm
12:55 AM 45.6°F7.6°C 42.0°F5.6°C 87% 15.8 mph WSW25.4 kmh WSW 21.0 mph33.8 kmh 29.77 in1008.1 mb 0.00 in0.0 mm 0.00 in0.0 mm 0.00 in0.0 mm
12:56 AM 45.6°F7.6°C 42.0°F5.6°C 87% 18.5 mph WSW29.8 kmh WSW 21.0 mph33.8 kmh 29.77 in1008.1 mb 0.00 in0.0 mm 0.00 in0.0 mm 0.00 in0.0 mm
12:57 AM 45.5°F7.5°C 41.6°F5.3°C 86% 18.5 mph WSW29.8 kmh WSW 21.0 mph33.8 kmh 29.77 in1008.1 mb 0.00 in0.0 mm 0.00 in0.0 mm 0.00 in0.0 mm
12:58 AM 45.4°F7.4°C 41.5°F5.3°C 86% 17.5 mph WSW28.2 kmh WSW 20.0 mph32.2 kmh 29.77 in1008.1 mb 0.00 in0.0 mm 0.00 in0.0 mm 0.00 in0.0 mm
12:59 AM 45.5°F7.5°C 41.9°F5.5°C 87% 17.3 mph WSW27.8 kmh WSW 19.0 mph30.6 kmh 29.77 in1008.1 mb 0.00 in0.0 mm 0.00 in0.0 mm 0.00 in0.0 mm
01:00 AM 45.5°F7.5°C 41.9°F5.5°C 87% 16.1 mph WSW25.9 kmh WSW 19.0 mph30.6 kmh 29.77 in1008.1 mb 0.00 in0.0 mm 0.00 in0.0 mm 0.00 in0.0 mm
01:01 AM 45.5°F7.5°C 41.9°F5.5°C 87% 13.9 mph WSW22.4 kmh WSW 19.0 mph30.6 kmh 29.77 in1008.1 mb 0.00 in0.0 mm 0.00 in0.0 mm 0.00 in0.0 mm
01:02 AM 45.5°F7.5°C 41.9°F5.5°C 87% 12.9 mph WSW20.8 kmh WSW 16.0 mph25.7 kmh 29.77 in1008.1 mb 0.00 in0.0 mm 0.00 in0.0 mm 0.00 in0.0 mm
01:03 AM 45.6°F7.6°C 42.0°F5.6°C 87% 13.1 mph WSW21.1 kmh WSW 15.0 mph24.1 kmh 29.77 in1008.1 mb 0.00 in0.0 mm 0.00 in0.0 mm 0.00 in0.0 mm
01:04 AM 45.5°F7.5°C 41.9°F5.5°C 87% 13.8 mph WSW22.2 kmh WSW 16.0 mph25.7 kmh 29.77 in1008.1 mb 0.00 in0.0 mm 0.00 in0.0 mm 0.00 in0.0 mm
01:05 AM 45.6°F7.6°C 42.0°F5.6°C 87% 12.6 mph WSW20.3 kmh WSW 16.0 mph25.7 kmh 29.77 in1008.1 mb 0.00 in0.0 mm 0.00 in0.0 mm 0.00 in0.0 mm
01:06 AM 45.6°F7.6°C 42.0°F5.6°C 87% 16.0 mph WSW25.7 kmh WSW 19.0 mph30.6 kmh 29.77 in1008.1 mb 0.00 in0.0 mm 0.00 in0.0 mm 0.00 in0.0 mm
01:07 AM 45.5°F7.5°C 41.9°F5.5°C 87% 15.6 mph WSW25.1 kmh WSW 19.0 mph30.6 kmh 29.77 in1008.1 mb 0.00 in0.0 mm 0.00 in0.0 mm 0.00 in0.0 mm
01:08 AM 45.5°F7.5°C 41.9°F5.5°C 87% 16.1 mph WSW25.9 kmh WSW 19.0 mph30.6 kmh 29.77 in1008.1 mb 0.00 in0.0 mm 0.00 in0.0 mm 0.00 in0.0 mm
01:09 AM 45.6°F7.6°C 42.0°F5.6°C 87% 15.2 mph WSW24.5 kmh WSW 18.0 mph29.0 kmh 29.77 in1008.1 mb 0.00 in0.0 mm 0.00 in0.0 mm 0.00 in0.0 mm
01:10 AM 45.6°F7.6°C 42.0°F5.6°C 87% 17.3 mph WSW27.8 kmh WSW 19.0 mph30.6 kmh 29.77 in1008.1 mb 0.00 in0.0 mm 0.00 in0.0 mm 0.00 in0.0 mm
01:11 AM 45.5°F7.5°C 41.6°F5.3°C 86% 15.8 mph WSW25.4 kmh WSW 19.0 mph30.6 kmh 29.77 in1008.1 mb 0.00 in0.0 mm 0.00 in0.0 mm 0.00 in0.0 mm
01:12 AM 45.5°F7.5°C 41.9°F5.5°C 87% 14.6 mph WSW23.5 kmh WSW 19.0 mph30.6 kmh 29.77 in1008.1 mb 0.00 in0.0 mm 0.00 in0.0 mm 0.00 in0.0 mm
01:13 AM 45.5°F7.5°C 41.9°F5.5°C 87% 15.4 mph WSW24.8 kmh WSW 18.0 mph29.0 kmh 29.77 in1008.1 mb 0.00 in0.0 mm 0.00 in0.0 mm 0.00 in0.0 mm
01:14 AM 45.5°F7.5°C 41.6°F5.3°C 86% 16.9 mph WSW27.2 kmh WSW 19.0 mph30.6 kmh 29.77 in1008.1 mb 0.00 in0.0 mm 0.00 in0.0 mm 0.00 in0.0 mm
01:15 AM 45.4°F7.4°C 41.5°F5.3°C 86% 14.7 mph WSW23.7 kmh WSW 19.0 mph30.6 kmh 29.77 in1008.1 mb 0.00 in0.0 mm 0.00 in0.0 mm 0.00 in0.0 mm
01:16 AM 45.5°F7.5°C 41.6°F5.3°C 86% 16.0 mph WSW25.7 kmh WSW 19.0 mph30.6 kmh 29.77 in1008.1 mb 0.00 in0.0 mm 0.00 in0.0 mm 0.00 in0.0 mm
01:17 AM 45.4°F7.4°C 41.5°F5.3°C 86% 14.5 mph WSW23.3 kmh WSW 19.0 mph30.6 kmh 29.77 in1008.1 mb 0.00 in0.0 mm 0.00 in0.0 mm 0.00 in0.0 mm
01:18 AM 45.5°F7.5°C 41.9°F5.5°C 87% 13.8 mph WSW22.2 kmh WSW 17.0 mph27.4 kmh 29.77 in1008.1 mb 0.00 in0.0 mm 0.00 in0.0 mm 0.00 in0.0 mm
01:19 AM 45.5°F7.5°C 41.6°F5.3°C 86% 13.5 mph WSW21.7 kmh WSW 16.0 mph25.7 kmh 29.77 in1008.1 mb 0.00 in0.0 mm 0.00 in0.0 mm 0.00 in0.0 mm
01:20 AM 45.5°F7.5°C 41.9°F5.5°C 87% 11.4 mph WSW18.3 kmh WSW 16.0 mph25.7 kmh 29.77 in1008.1 mb 0.00 in0.0 mm 0.00 in0.0 mm 0.00 in0.0 mm
01:21 AM 45.6°F7.6°C 42.0°F5.6°C 87% 13.5 mph WSW21.7 kmh WSW 15.0 mph24.1 kmh 29.77 in1008.1 mb 0.00 in0.0 mm 0.00 in0.0 mm 0.00 in0.0 mm
01:22 AM 45.6°F7.6°C 42.0°F5.6°C 87% 12.2 mph WSW19.6 kmh WSW 15.0 mph24.1 kmh 29.77 in1008.1 mb 0.00 in0.0 mm 0.00 in0.0 mm 0.00 in0.0 mm
01:23 AM 45.5°F7.5°C 41.9°F5.5°C 87% 13.2 mph WSW21.2 kmh WSW 15.0 mph24.1 kmh 29.77 in1008.1 mb 0.00 in0.0 mm 0.00 in0.0 mm 0.00 in0.0 mm
01:24 AM 45.5°F7.5°C 41.6°F5.3°C 86% 14.5 mph WSW23.3 kmh WSW 17.0 mph27.4 kmh 29.77 in1008.1 mb 0.00 in0.0 mm 0.00 in0.0 mm 0.00 in0.0 mm
01:25 AM 45.5°F7.5°C 41.6°F5.3°C 86% 14.9 mph WSW24.0 kmh WSW 18.0 mph29.0 kmh 29.77 in1008.1 mb 0.00 in0.0 mm 0.00 in0.0 mm 0.00 in0.0 mm
01:26 AM 45.4°F7.4°C 41.5°F5.3°C 86% 15.5 mph WSW24.9 kmh WSW 18.0 mph29.0 kmh 29.77 in1008.1 mb 0.00 in0.0 mm 0.00 in0.0 mm 0.00 in0.0 mm
01:27 AM 45.3°F7.4°C 41.4°F5.2°C 86% 13.0 mph WSW20.9 kmh WSW 18.0 mph29.0 kmh 29.77 in1008.1 mb 0.00 in0.0 mm 0.00 in0.0 mm 0.00 in0.0 mm
01:28 AM 45.4°F7.4°C 41.5°F5.3°C 86% 15.0 mph WSW24.1 kmh WSW 16.0 mph25.7 kmh 29.77 in1008.1 mb 0.00 in0.0 mm 0.00 in0.0 mm 0.00 in0.0 mm
01:29 AM 45.4°F7.4°C 41.5°F5.3°C 86% 15.9 mph WSW25.6 kmh WSW 18.0 mph29.0 kmh 29.77 in1008.1 mb 0.00 in0.0 mm 0.00 in0.0 mm 0.00 in0.0 mm
01:30 AM 45.3°F7.4°C 41.4°F5.2°C 86% 14.3 mph WSW23.0 kmh WSW 18.0 mph29.0 kmh 29.78 in1008.5 mb 0.00 in0.0 mm 0.00 in0.0 mm 0.00 in0.0 mm
01:31 AM 45.3°F7.4°C 41.4°F5.2°C 86% 13.0 mph SW20.9 kmh SW 16.0 mph25.7 kmh 29.77 in1008.1 mb 0.00 in0.0 mm 0.00 in0.0 mm 0.00 in0.0 mm
01:32 AM 45.3°F7.4°C 41.4°F5.2°C 86% 12.0 mph SW19.3 kmh SW 17.0 mph27.4 kmh 29.78 in1008.5 mb 0.00 in0.0 mm 0.00 in0.0 mm 0.00 in0.0 mm
01:33 AM 45.4°F7.4°C 41.5°F5.3°C 86% 14.1 mph SW22.7 kmh SW 17.0 mph27.4 kmh 29.78 in1008.5 mb 0.00 in0.0 mm 0.00 in0.0 mm 0.00 in0.0 mm
01:34 AM 45.4°F7.4°C 41.5°F5.3°C 86% 12.4 mph WSW20.0 kmh WSW 16.0 mph25.7 kmh 29.78 in1008.5 mb 0.00 in0.0 mm 0.00 in0.0 mm 0.00 in0.0 mm
01:35 AM 45.3°F7.4°C 41.4°F5.2°C 86% 12.9 mph SW20.8 kmh SW 15.0 mph24.1 kmh 29.78 in1008.5 mb 0.00 in0.0 mm 0.00 in0.0 mm 0.00 in0.0 mm
01:36 AM 45.2°F7.3°C 41.3°F5.2°C 86% 16.5 mph SW26.6 kmh SW 20.0 mph32.2 kmh 29.78 in1008.5 mb 0.00 in0.0 mm 0.00 in0.0 mm 0.00 in0.0 mm
01:37 AM 45.2°F7.3°C 41.0°F5.0°C 85% 14.6 mph WSW23.5 kmh WSW 20.0 mph32.2 kmh 29.78 in1008.5 mb 0.00 in0.0 mm 0.00 in0.0 mm 0.00 in0.0 mm
01:38 AM 45.3°F7.4°C 41.4°F5.2°C 86% 11.8 mph WSW19.0 kmh WSW 17.0 mph27.4 kmh 29.78 in1008.5 mb 0.00 in0.0 mm 0.00 in0.0 mm 0.00 in0.0 mm
01:39 AM 45.2°F7.3°C 41.3°F5.2°C 86% 14.1 mph SW22.7 kmh SW 17.0 mph27.4 kmh 29.78 in1008.5 mb 0.00 in0.0 mm 0.00 in0.0 mm 0.00 in0.0 mm
01:40 AM 45.2°F7.3°C 41.0°F5.0°C 85% 13.5 mph WSW21.7 kmh WSW 17.0 mph27.4 kmh 29.78 in1008.5 mb 0.00 in0.0 mm 0.00 in0.0 mm 0.00 in0.0 mm
01:41 AM 45.2°F7.3°C 41.0°F5.0°C 85% 11.7 mph WSW18.8 kmh WSW 15.0 mph24.1 kmh 29.78 in1008.5 mb 0.00 in0.0 mm 0.00 in0.0 mm 0.00 in0.0 mm
01:42 AM 45.1°F7.3°C 40.9°F4.9°C 85% 12.5 mph SW20.1 kmh SW 14.0 mph22.5 kmh 29.78 in1008.5 mb 0.00 in0.0 mm 0.00 in0.0 mm 0.00 in0.0 mm
01:43 AM 45.1°F7.3°C 40.6°F4.8°C 84% 14.3 mph SW23.0 kmh SW 16.0 mph25.7 kmh 29.78 in1008.5 mb 0.00 in0.0 mm 0.00 in0.0 mm 0.00 in0.0 mm
01:44 AM 45.1°F7.3°C 40.9°F4.9°C 85% 12.2 mph WSW19.6 kmh WSW 16.0 mph25.7 kmh 29.78 in1008.5 mb 0.00 in0.0 mm 0.00 in0.0 mm 0.00 in0.0 mm
01:45 AM 45.1°F7.3°C 40.6°F4.8°C 84% 13.5 mph WSW21.7 kmh WSW 15.0 mph24.1 kmh 29.78 in1008.5 mb 0.00 in0.0 mm 0.00 in0.0 mm 0.00 in0.0 mm
01:46 AM 45.1°F7.3°C 40.6°F4.8°C 84% 12.8 mph WSW20.6 kmh WSW 15.0 mph24.1 kmh 29.78 in1008.5 mb 0.00 in0.0 mm 0.00 in0.0 mm 0.00 in0.0 mm
01:47 AM 45.1°F7.3°C 40.6°F4.8°C 84% 12.5 mph SW20.1 kmh SW 16.0 mph25.7 kmh 29.78 in1008.5 mb 0.00 in0.0 mm 0.00 in0.0 mm 0.00 in0.0 mm
01:48 AM 45.1°F7.3°C 40.6°F4.8°C 84% 11.6 mph WSW18.7 kmh WSW 16.0 mph25.7 kmh 29.78 in1008.5 mb 0.00 in0.0 mm 0.00 in0.0 mm 0.00 in0.0 mm
01:49 AM 45.2°F7.3°C 40.7°F4.8°C 84% 13.1 mph WSW21.1 kmh WSW 15.0 mph24.1 kmh 29.78 in1008.5 mb 0.00 in0.0 mm 0.00 in0.0 mm 0.00 in0.0 mm
01:50 AM 45.2°F7.3°C 40.7°F4.8°C 84% 11.5 mph WSW18.5 kmh WSW 15.0 mph24.1 kmh 29.78 in1008.5 mb 0.00 in0.0 mm 0.00 in0.0 mm 0.00 in0.0 mm
01:51 AM 45.2°F7.3°C 40.7°F4.8°C 84% 13.2 mph SW21.2 kmh SW 16.0 mph25.7 kmh 29.78 in1008.5 mb 0.00 in0.0 mm 0.00 in0.0 mm 0.00 in0.0 mm
01:52 AM 45.2°F7.3°C 40.3°F4.6°C 83% 12.0 mph WSW19.3 kmh WSW 16.0 mph25.7 kmh 29.78 in1008.5 mb 0.00 in0.0 mm 0.00 in0.0 mm 0.00 in0.0 mm
01:53 AM 45.2°F7.3°C 40.7°F4.8°C 84% 12.5 mph WSW20.1 kmh WSW 14.0 mph22.5 kmh 29.78 in1008.5 mb 0.00 in0.0 mm 0.00 in0.0 mm 0.00 in0.0 mm
01:54 AM 45.2°F7.3°C 40.3°F4.6°C 83% 10.8 mph SW17.4 kmh SW 14.0 mph22.5 kmh 29.78 in1008.5 mb 0.00 in0.0 mm 0.00 in0.0 mm 0.00 in0.0 mm
01:55 AM 45.2°F7.3°C 40.7°F4.8°C 84% 13.0 mph SW20.9 kmh SW 15.0 mph24.1 kmh 29.78 in1008.5 mb 0.00 in0.0 mm 0.00 in0.0 mm 0.00 in0.0 mm
01:56 AM 45.2°F7.3°C 40.3°F4.6°C 83% 13.1 mph WSW21.1 kmh WSW 15.0 mph24.1 kmh 29.78 in1008.5 mb 0.00 in0.0 mm 0.00 in0.0 mm 0.00 in0.0 mm
01:57 AM 45.2°F7.3°C 40.7°F4.8°C 84% 14.3 mph WSW23.0 kmh WSW 17.0 mph27.4 kmh 29.78 in1008.5 mb 0.00 in0.0 mm 0.00 in0.0 mm 0.00 in0.0 mm
01:58 AM 45.1°F7.3°C 40.3°F4.6°C 83% 14.3 mph WSW23.0 kmh WSW 17.0 mph27.4 kmh 29.78 in1008.5 mb 0.00 in0.0 mm 0.00 in0.0 mm 0.00 in0.0 mm
01:59 AM 45.1°F7.3°C 40.3°F4.6°C 83% 16.3 mph SW26.2 kmh SW 18.0 mph29.0 kmh 29.78 in1008.5 mb 0.00 in0.0 mm 0.00 in0.0 mm 0.00 in0.0 mm
02:00 AM 45.1°F7.3°C 39.9°F4.4°C 82% 15.0 mph SW24.1 kmh SW 18.0 mph29.0 kmh 29.78 in1008.5 mb 0.00 in0.0 mm 0.00 in0.0 mm 0.00 in0.0 mm
02:01 AM 45.1°F7.3°C 39.9°F4.4°C 82% 14.5 mph WSW23.3 kmh WSW 17.0 mph27.4 kmh 29.78 in1008.5 mb 0.00 in0.0 mm 0.00 in0.0 mm 0.00 in0.0 mm
02:02 AM 45.1°F7.3°C 40.3°F4.6°C 83% 13.8 mph WSW22.2 kmh WSW 17.0 mph27.4 kmh 29.78 in1008.5 mb 0.00 in0.0 mm 0.00 in0.0 mm 0.00 in0.0 mm
02:03 AM 45.0°F7.2°C 39.8°F4.3°C 82% 13.6 mph WSW21.9 kmh WSW 16.0 mph25.7 kmh 29.78 in1008.5 mb 0.00 in0.0 mm 0.00 in0.0 mm 0.00 in0.0 mm
02:04 AM 45.1°F7.3°C 39.9°F4.4°C 82% 14.3 mph WSW23.0 kmh WSW 17.0 mph27.4 kmh 29.78 in1008.5 mb 0.00 in0.0 mm 0.00 in0.0 mm 0.00 in0.0 mm
02:05 AM 45.1°F7.3°C 39.9°F4.4°C 82% 14.7 mph WSW23.7 kmh WSW 17.0 mph27.4 kmh 29.78 in1008.5 mb 0.00 in0.0 mm 0.00 in0.0 mm 0.00 in0.0 mm
02:06 AM 45.1°F7.3°C 39.6°F4.2°C 81% 14.4 mph WSW23.2 kmh WSW 16.0 mph25.7 kmh 29.78 in1008.5 mb 0.00 in0.0 mm 0.00 in0.0 mm 0.00 in0.0 mm
02:07 AM 45.1°F7.3°C 39.9°F4.4°C 82% 13.1 mph WSW21.1 kmh WSW 17.0 mph27.4 kmh 29.78 in1008.5 mb 0.00 in0.0 mm 0.00 in0.0 mm 0.00 in0.0 mm
02:08 AM 45.2°F7.3°C 40.0°F4.4°C 82% 11.6 mph WSW18.7 kmh WSW 17.0 mph27.4 kmh 29.78 in1008.5 mb 0.00 in0.0 mm 0.00 in0.0 mm 0.00 in0.0 mm
02:09 AM 45.2°F7.3°C 40.0°F4.4°C 82% 12.6 mph WSW20.3 kmh WSW 15.0 mph24.1 kmh 29.78 in1008.5 mb 0.00 in0.0 mm 0.00 in0.0 mm 0.00 in0.0 mm
02:10 AM 45.2°F7.3°C 40.0°F4.4°C 82% 13.9 mph WSW22.4 kmh WSW 16.0 mph25.7 kmh 29.78 in1008.5 mb 0.00 in0.0 mm 0.00 in0.0 mm 0.00 in0.0 mm
02:11 AM 45.1°F7.3°C 39.6°F4.2°C 81% 14.2 mph WSW22.9 kmh WSW 16.0 mph25.7 kmh 29.78 in1008.5 mb 0.00 in0.0 mm 0.00 in0.0 mm 0.00 in0.0 mm
02:12 AM 45.1°F7.3°C 39.9°F4.4°C 82% 12.3 mph WSW19.8 kmh WSW 15.0 mph24.1 kmh 29.78 in1008.5 mb 0.00 in0.0 mm 0.00 in0.0 mm 0.00 in0.0 mm
02:13 AM 45.1°F7.3°C 39.9°F4.4°C 82% 10.9 mph WSW17.5 kmh WSW 14.0 mph22.5 kmh 29.79 in1008.8 mb 0.00 in0.0 mm 0.00 in0.0 mm 0.00 in0.0 mm
02:14 AM 45.1°F7.3°C 39.9°F4.4°C 82% 11.5 mph WSW18.5 kmh WSW 13.0 mph20.9 kmh 29.78 in1008.5 mb 0.00 in0.0 mm 0.00 in0.0 mm 0.00 in0.0 mm
02:15 AM 45.0°F7.2°C 39.8°F4.3°C 82% 12.6 mph WSW20.3 kmh WSW 15.0 mph24.1 kmh 29.79 in1008.8 mb 0.00 in0.0 mm 0.00 in0.0 mm 0.00 in0.0 mm
02:16 AM 45.1°F7.3°C 39.9°F4.4°C 82% 9.9 mph SW15.9 kmh SW 15.0 mph24.1 kmh 29.79 in1008.8 mb 0.00 in0.0 mm 0.00 in0.0 mm 0.00 in0.0 mm
02:17 AM 45.0°F7.2°C 39.8°F4.3°C 82% 12.7 mph WSW20.4 kmh WSW 15.0 mph24.1 kmh 29.79 in1008.8 mb 0.00 in0.0 mm 0.00 in0.0 mm 0.00 in0.0 mm
02:18 AM 45.1°F7.3°C 39.9°F4.4°C 82% 10.5 mph WSW16.9 kmh WSW 15.0 mph24.1 kmh 29.79 in1008.8 mb 0.00 in0.0 mm 0.00 in0.0 mm 0.00 in0.0 mm
02:19 AM 45.0°F7.2°C 39.8°F4.3°C 82% 10.4 mph WSW16.7 kmh WSW 14.0 mph22.5 kmh 29.79 in1008.8 mb 0.00 in0.0 mm 0.00 in0.0 mm 0.00 in0.0 mm
02:20 AM 45.1°F7.3°C 39.9°F4.4°C 82% 12.9 mph WSW20.8 kmh WSW 14.0 mph22.5 kmh 29.79 in1008.8 mb 0.00 in0.0 mm 0.00 in0.0 mm 0.00 in0.0 mm
02:21 AM 45.0°F7.2°C 39.8°F4.3°C 82% 11.1 mph WSW17.9 kmh WSW 14.0 mph22.5 kmh 29.79 in1008.8 mb 0.00 in0.0 mm 0.00 in0.0 mm 0.00 in0.0 mm
02:22 AM 45.1°F7.3°C 39.9°F4.4°C 82% 8.5 mph SW13.7 kmh SW 12.0 mph19.3 kmh 29.79 in1008.8 mb 0.00 in0.0 mm 0.00 in0.0 mm 0.00 in0.0 mm
02:23 AM 44.9°F7.2°C 39.7°F4.3°C 82% 11.0 mph SW17.7 kmh SW 14.0 mph22.5 kmh 29.79 in1008.8 mb 0.00 in0.0 mm 0.00 in0.0 mm 0.00 in0.0 mm
02:24 AM 45.0°F7.2°C 39.8°F4.3°C 82% 12.5 mph WSW20.1 kmh WSW 16.0 mph25.7 kmh 29.79 in1008.8 mb 0.00 in0.0 mm 0.00 in0.0 mm 0.00 in0.0 mm
02:25 AM 45.0°F7.2°C 39.8°F4.3°C 82% 11.9 mph SW19.2 kmh SW 16.0 mph25.7 kmh 29.79 in1008.8 mb 0.00 in0.0 mm 0.00 in0.0 mm 0.00 in0.0 mm
02:26 AM 45.0°F7.2°C 39.8°F4.3°C 82% 12.0 mph SW19.3 kmh SW 15.0 mph24.1 kmh 29.79 in1008.8 mb 0.00 in0.0 mm 0.00 in0.0 mm 0.00 in0.0 mm
02:27 AM 44.9°F7.2°C 39.7°F4.3°C 82% 11.0 mph SW17.7 kmh SW 15.0 mph24.1 kmh 29.79 in1008.8 mb 0.00 in0.0 mm 0.00 in0.0 mm 0.00 in0.0 mm
02:28 AM 44.9°F7.2°C 39.7°F4.3°C 82% 11.0 mph SW17.7 kmh SW 15.0 mph24.1 kmh 29.79 in1008.8 mb 0.00 in0.0 mm 0.00 in0.0 mm 0.00 in0.0 mm
02:29 AM 44.8°F7.1°C 39.6°F4.2°C 82% 12.7 mph SW20.4 kmh SW 16.0 mph25.7 kmh 29.79 in1008.8 mb 0.00 in0.0 mm 0.00 in0.0 mm 0.00 in0.0 mm
02:30 AM 44.7°F7.1°C 39.5°F4.2°C 82% 11.6 mph SW18.7 kmh SW 16.0 mph25.7 kmh 29.79 in1008.8 mb 0.00 in0.0 mm 0.00 in0.0 mm 0.00 in0.0 mm
02:31 AM 44.7°F7.1°C 39.5°F4.2°C 82% 10.8 mph SW17.4 kmh SW 14.0 mph22.5 kmh 29.79 in1008.8 mb 0.00 in0.0 mm 0.00 in0.0 mm 0.00 in0.0 mm
02:32 AM 44.7°F7.1°C 39.9°F4.4°C 83% 11.8 mph SW19.0 kmh SW 14.0 mph22.5 kmh 29.79 in1008.8 mb 0.00 in0.0 mm 0.00 in0.0 mm 0.00 in0.0 mm
02:33 AM 44.6°F7.0°C 39.8°F4.3°C 83% 9.0 mph SW14.5 kmh SW 14.0 mph22.5 kmh 29.79 in1008.8 mb 0.00 in0.0 mm 0.00 in0.0 mm 0.00 in0.0 mm
02:34 AM 44.5°F6.9°C 39.4°F4.1°C 82% 10.2 mph SW16.4 kmh SW 13.0 mph20.9 kmh 29.79 in1008.8 mb 0.00 in0.0 mm 0.00 in0.0 mm 0.00 in0.0 mm
02:35 AM 44.5°F6.9°C 39.4°F4.1°C 82% 8.9 mph SW14.3 kmh SW 13.0 mph20.9 kmh 29.79 in1008.8 mb 0.00 in0.0 mm 0.00 in0.0 mm 0.00 in0.0 mm
02:36 AM 44.4°F6.9°C 39.6°F4.2°C 83% 9.9 mph SW15.9 kmh SW 12.0 mph19.3 kmh 29.79 in1008.8 mb 0.00 in0.0 mm 0.00 in0.0 mm 0.00 in0.0 mm
02:37 AM 44.4°F6.9°C 39.3°F4.1°C 82% 8.5 mph SW13.7 kmh SW 12.0 mph19.3 kmh 29.79 in1008.8 mb 0.00 in0.0 mm 0.00 in0.0 mm 0.00 in0.0 mm
02:38 AM 44.3°F6.8°C 39.5°F4.2°C 83% 11.5 mph SW18.5 kmh SW 14.0 mph22.5 kmh 29.79 in1008.8 mb 0.00 in0.0 mm 0.00 in0.0 mm 0.00 in0.0 mm
02:39 AM 44.3°F6.8°C 39.5°F4.2°C 83% 11.3 mph SW18.2 kmh SW 14.0 mph22.5 kmh 29.79 in1008.8 mb 0.00 in0.0 mm 0.00 in0.0 mm 0.00 in0.0 mm
02:40 AM 44.3°F6.8°C 39.5°F4.2°C 83% 12.6 mph SW20.3 kmh SW 14.0 mph22.5 kmh 29.79 in1008.8 mb 0.00 in0.0 mm 0.00 in0.0 mm 0.00 in0.0 mm
02:41 AM 44.3°F6.8°C 39.5°F4.2°C 83% 11.4 mph SW18.3 kmh SW 14.0 mph22.5 kmh 29.79 in1008.8 mb 0.00 in0.0 mm 0.00 in0.0 mm 0.00 in0.0 mm
02:42 AM 44.2°F6.8°C 39.4°F4.1°C 83% 11.7 mph SW18.8 kmh SW 14.0 mph22.5 kmh 29.79 in1008.8 mb 0.00 in0.0 mm 0.00 in0.0 mm 0.00 in0.0 mm
02:43 AM 44.2°F6.8°C 39.4°F4.1°C 83% 11.3 mph SW18.2 kmh SW 14.0 mph22.5 kmh 29.79 in1008.8 mb 0.00 in0.0 mm 0.00 in0.0 mm 0.00 in0.0 mm
02:44 AM 44.2°F6.8°C 39.4°F4.1°C 83% 9.9 mph SW15.9 kmh SW 14.0 mph22.5 kmh 29.79 in1008.8 mb 0.00 in0.0 mm 0.00 in0.0 mm 0.00 in0.0 mm
02:45 AM 44.2°F6.8°C 39.4°F4.1°C 83% 8.3 mph SW13.4 kmh SW 12.0 mph19.3 kmh 29.80 in1009.1 mb 0.00 in0.0 mm 0.00 in0.0 mm 0.00 in0.0 mm
02:46 AM 44.1°F6.7°C 39.3°F4.1°C 83% 8.5 mph SW13.7 kmh SW 12.0 mph19.3 kmh 29.80 in1009.1 mb 0.00 in0.0 mm 0.00 in0.0 mm 0.00 in0.0 mm
02:47 AM 44.1°F6.7°C 39.3°F4.1°C 83% 10.4 mph SW16.7 kmh SW 12.0 mph19.3 kmh 29.80 in1009.1 mb 0.00 in0.0 mm 0.00 in0.0 mm 0.00 in0.0 mm
02:48 AM 44.0°F6.7°C 39.2°F4.0°C 83% 8.3 mph SW13.4 kmh SW 12.0 mph19.3 kmh 29.80 in1009.1 mb 0.00 in0.0 mm 0.00 in0.0 mm 0.00 in0.0 mm
02:49 AM 44.0°F6.7°C 39.2°F4.0°C 83% 9.3 mph SW15.0 kmh SW 11.0 mph17.7 kmh 29.80 in1009.1 mb 0.00 in0.0 mm 0.00 in0.0 mm 0.00 in0.0 mm
02:50 AM 44.0°F6.7°C 39.2°F4.0°C 83% 8.8 mph SW14.2 kmh SW 11.0 mph17.7 kmh 29.80 in1009.1 mb 0.00 in0.0 mm 0.00 in0.0 mm 0.00 in0.0 mm
02:51 AM 44.0°F6.7°C 39.2°F4.0°C 83% 9.5 mph SW15.3 kmh SW 13.0 mph20.9 kmh 29.80 in1009.1 mb 0.00 in0.0 mm 0.00 in0.0 mm 0.00 in0.0 mm
02:52 AM 43.9°F6.6°C 39.1°F3.9°C 83% 10.3 mph SSW16.6 kmh SSW 14.0 mph22.5 kmh 29.80 in1009.1 mb 0.00 in0.0 mm 0.00 in0.0 mm 0.00 in0.0 mm
02:53 AM 43.9°F6.6°C 39.4°F4.1°C 84% 7.9 mph SW12.7 kmh SW 13.0 mph20.9 kmh 29.80 in1009.1 mb 0.00 in0.0 mm 0.00 in0.0 mm 0.00 in0.0 mm
02:54 AM 43.8°F6.6°C 39.3°F4.1°C 84% 9.5 mph SW15.3 kmh SW 13.0 mph20.9 kmh 29.80 in1009.1 mb 0.00 in0.0 mm 0.00 in0.0 mm 0.00 in0.0 mm
02:55 AM 43.8°F6.6°C 39.3°F4.1°C 84% 7.8 mph SW12.6 kmh SW 13.0 mph20.9 kmh 29.80 in1009.1 mb 0.00 in0.0 mm 0.00 in0.0 mm 0.00 in0.0 mm
02:56 AM 43.8°F6.6°C 39.3°F4.1°C 84% 9.2 mph SW14.8 kmh SW 12.0 mph19.3 kmh 29.80 in1009.1 mb 0.00 in0.0 mm 0.00 in0.0 mm 0.00 in0.0 mm
02:57 AM 43.8°F6.6°C 39.3°F4.1°C 84% 7.7 mph SW12.4 kmh SW 12.0 mph19.3 kmh 29.80 in1009.1 mb 0.00 in0.0 mm 0.00 in0.0 mm 0.00 in0.0 mm
02:58 AM 43.7°F6.5°C 39.2°F4.0°C 84% 8.7 mph SW14.0 kmh SW 12.0 mph19.3 kmh 29.80 in1009.1 mb 0.00 in0.0 mm 0.00 in0.0 mm 0.00 in0.0 mm
02:59 AM 43.6°F6.4°C 39.1°F3.9°C 84% 8.2 mph SW13.2 kmh SW 11.0 mph17.7 kmh 29.80 in1009.1 mb 0.00 in0.0 mm 0.00 in0.0 mm 0.00 in0.0 mm
03:00 AM 43.6°F6.4°C 39.1°F3.9°C 84% 7.8 mph SW12.6 kmh SW 11.0 mph17.7 kmh 29.80 in1009.1 mb 0.00 in0.0 mm 0.00 in0.0 mm 0.00 in0.0 mm
03:01 AM 43.6°F6.4°C 39.1°F3.9°C 84% 7.7 mph SW12.4 kmh SW 11.0 mph17.7 kmh 29.80 in1009.1 mb 0.00 in0.0 mm 0.00 in0.0 mm 0.00 in0.0 mm
03:02 AM 43.6°F6.4°C 39.1°F3.9°C 84% 7.6 mph SW12.2 kmh SW 11.0 mph17.7 kmh 29.80 in1009.1 mb 0.00 in0.0 mm 0.00 in0.0 mm 0.00 in0.0 mm
03:03 AM 43.6°F6.4°C 39.4°F4.1°C 85% 6.6 mph SW10.6 kmh SW 10.0 mph16.1 kmh 29.80 in1009.1 mb 0.00 in0.0 mm 0.00 in0.0 mm 0.00 in0.0 mm
03:04 AM 43.5°F6.4°C 39.3°F4.1°C 85% 6.9 mph SW11.1 kmh SW 9.0 mph14.5 kmh 29.80 in1009.1 mb 0.00 in0.0 mm 0.00 in0.0 mm 0.00 in0.0 mm
03:05 AM 43.4°F6.3°C 39.2°F4.0°C 85% 7.7 mph SW12.4 kmh SW 10.0 mph16.1 kmh 29.80 in1009.1 mb 0.00 in0.0 mm 0.00 in0.0 mm 0.00 in0.0 mm
03:06 AM 43.4°F6.3°C 39.2°F4.0°C 85% 7.3 mph SW11.7 kmh SW 10.0 mph16.1 kmh 29.80 in1009.1 mb 0.00 in0.0 mm 0.00 in0.0 mm 0.00 in0.0 mm
03:07 AM 43.4°F6.3°C 39.2°F4.0°C 85% 6.9 mph SW11.1 kmh SW 10.0 mph16.1 kmh 29.80 in1009.1 mb 0.00 in0.0 mm 0.00 in0.0 mm 0.00 in0.0 mm
03:08 AM 43.4°F6.3°C 39.2°F4.0°C 85% 5.9 mph SW9.5 kmh SW 9.0 mph14.5 kmh 29.80 in1009.1 mb 0.00 in0.0 mm 0.00 in0.0 mm 0.00 in0.0 mm
03:09 AM 43.3°F6.3°C 39.1°F3.9°C 85% 8.6 mph SW13.8 kmh SW 11.0 mph17.7 kmh 29.80 in1009.1 mb 0.00 in0.0 mm 0.00 in0.0 mm 0.00 in0.0 mm
03:10 AM 43.3°F6.3°C 39.1°F3.9°C 85% 6.9 mph SW11.1 kmh SW 11.0 mph17.7 kmh 29.80 in1009.1 mb 0.00 in0.0 mm 0.00 in0.0 mm 0.00 in0.0 mm
03:11 AM 43.3°F6.3°C 39.1°F3.9°C 85% 7.3 mph SW11.7 kmh SW 11.0 mph17.7 kmh 29.80 in1009.1 mb 0.00 in0.0 mm 0.00 in0.0 mm 0.00 in0.0 mm
03:12 AM 43.2°F6.2°C 39.0°F3.9°C 85% 10.4 mph SW16.7 kmh SW 14.0 mph22.5 kmh 29.80 in1009.1 mb 0.00 in0.0 mm 0.00 in0.0 mm 0.00 in0.0 mm
03:13 AM 43.3°F6.3°C 39.1°F3.9°C 85% 9.4 mph SW15.1 kmh SW 14.0 mph22.5 kmh 29.80 in1009.1 mb 0.00 in0.0 mm 0.00 in0.0 mm 0.00 in0.0 mm
03:14 AM 43.3°F6.3°C 39.1°F3.9°C 85% 8.4 mph SW13.5 kmh SW 12.0 mph19.3 kmh 29.80 in1009.1 mb 0.00 in0.0 mm 0.00 in0.0 mm 0.00 in0.0 mm
03:15 AM 43.3°F6.3°C 39.1°F3.9°C 85% 7.4 mph SW11.9 kmh SW 11.0 mph17.7 kmh 29.80 in1009.1 mb 0.00 in0.0 mm 0.00 in0.0 mm 0.00 in0.0 mm
03:16 AM 43.3°F6.3°C 39.1°F3.9°C 85% 5.3 mph SSW8.5 kmh SSW 9.0 mph14.5 kmh 29.80 in1009.1 mb 0.00 in0.0 mm 0.00 in0.0 mm 0.00 in0.0 mm
03:17 AM 43.3°F6.3°C 39.1°F3.9°C 85% 6.8 mph SW10.9 kmh SW 9.0 mph14.5 kmh 29.80 in1009.1 mb 0.00 in0.0 mm 0.00 in0.0 mm 0.00 in0.0 mm
03:18 AM 43.3°F6.3°C 39.1°F3.9°C 85% 7.1 mph SW11.4 kmh SW 10.0 mph16.1 kmh 29.80 in1009.1 mb 0.00 in0.0 mm 0.00 in0.0 mm 0.00 in0.0 mm
03:19 AM 43.3°F6.3°C 39.1°F3.9°C 85% 8.0 mph SW12.9 kmh SW 10.0 mph16.1 kmh 29.80 in1009.1 mb 0.00 in0.0 mm 0.00 in0.0 mm 0.00 in0.0 mm
03:20 AM 43.3°F6.3°C 39.1°F3.9°C 85% 7.3 mph SSW11.7 kmh SSW 10.0 mph16.1 kmh 29.80 in1009.1 mb 0.00 in0.0 mm 0.00 in0.0 mm 0.00 in0.0 mm
03:21 AM 43.3°F6.3°C 39.1°F3.9°C 85% 8.2 mph SW13.2 kmh SW 11.0 mph17.7 kmh 29.80 in1009.1 mb 0.00 in0.0 mm 0.00 in0.0 mm 0.00 in0.0 mm
03:22 AM 43.3°F6.3°C 39.1°F3.9°C 85% 7.3 mph SSW11.7 kmh SSW 11.0 mph17.7 kmh 29.80 in1009.1 mb 0.00 in0.0 mm 0.00 in0.0 mm 0.00 in0.0 mm
03:23 AM 43.3°F6.3°C 39.1°F3.9°C 85% 6.0 mph SSW9.7 kmh SSW 10.0 mph16.1 kmh 29.80 in1009.1 mb 0.00 in0.0 mm 0.00 in0.0 mm 0.00 in0.0 mm
03:24 AM 43.2°F6.2°C 39.0°F3.9°C 85% 7.0 mph SSW11.3 kmh SSW 9.0 mph14.5 kmh 29.80 in1009.1 mb 0.00 in0.0 mm 0.00 in0.0 mm 0.00 in0.0 mm
03:25 AM 43.2°F6.2°C 39.0°F3.9°C 85% 6.0 mph SSW9.7 kmh SSW 9.0 mph14.5 kmh 29.80 in1009.1 mb 0.00 in0.0 mm 0.00 in0.0 mm 0.00 in0.0 mm
03:26 AM 43.1°F6.2°C 38.9°F3.8°C 85% 8.0 mph SSW12.9 kmh SSW 10.0 mph16.1 kmh 29.80 in1009.1 mb 0.00 in0.0 mm 0.00 in0.0 mm 0.00 in0.0 mm
03:27 AM 43.1°F6.2°C 38.9°F3.8°C 85% 7.0 mph SSW11.3 kmh SSW 10.0 mph16.1 kmh 29.80 in1009.1 mb 0.00 in0.0 mm 0.00 in0.0 mm 0.00 in0.0 mm
03:28 AM 43.1°F6.2°C 39.2°F4.0°C 86% 8.7 mph SSW14.0 kmh SSW 10.0 mph16.1 kmh 29.80 in1009.1 mb 0.00 in0.0 mm 0.00 in0.0 mm 0.00 in0.0 mm
03:29 AM 43.1°F6.2°C 39.2°F4.0°C 86% 8.2 mph SW13.2 kmh SW 10.0 mph16.1 kmh 29.80 in1009.1 mb 0.00 in0.0 mm 0.00 in0.0 mm 0.00 in0.0 mm
03:30 AM 43.0°F6.1°C 39.1°F3.9°C 86% 8.2 mph SSW13.2 kmh SSW 10.0 mph16.1 kmh 29.80 in1009.1 mb 0.00 in0.0 mm 0.00 in0.0 mm 0.00 in0.0 mm
03:31 AM 43.0°F6.1°C 39.1°F3.9°C 86% 8.3 mph SSW13.4 kmh SSW 10.0 mph16.1 kmh 29.80 in1009.1 mb 0.00 in0.0 mm 0.00 in0.0 mm 0.00 in0.0 mm
03:32 AM 43.0°F6.1°C 39.1°F3.9°C 86% 8.5 mph SSW13.7 kmh SSW 12.0 mph19.3 kmh 29.80 in1009.1 mb 0.00 in0.0 mm 0.00 in0.0 mm 0.00 in0.0 mm
03:33 AM 42.9°F6.1°C 39.0°F3.9°C 86% 8.3 mph SSW13.4 kmh SSW 12.0 mph19.3 kmh 29.80 in1009.1 mb 0.00 in0.0 mm 0.00 in0.0 mm 0.00 in0.0 mm
03:34 AM 42.9°F6.1°C 39.0°F3.9°C 86% 8.3 mph SW13.4 kmh SW 11.0 mph17.7 kmh 29.80 in1009.1 mb 0.00 in0.0 mm 0.00 in0.0 mm 0.00 in0.0 mm
03:35 AM 42.9°F6.1°C 39.0°F3.9°C 86% 8.5 mph SSW13.7 kmh SSW 11.0 mph17.7 kmh 29.80 in1009.1 mb 0.00 in0.0 mm 0.00 in0.0 mm 0.00 in0.0 mm
03:36 AM 43.0°F6.1°C 39.1°F3.9°C 86% 9.0 mph SSW14.5 kmh SSW 12.0 mph19.3 kmh 29.80 in1009.1 mb 0.00 in0.0 mm 0.00 in0.0 mm 0.00 in0.0 mm
03:37 AM 42.9°F6.1°C 39.0°F3.9°C 86% 8.5 mph SW13.7 kmh SW 12.0 mph19.3 kmh 29.80 in1009.1 mb 0.00 in0.0 mm 0.00 in0.0 mm 0.00 in0.0 mm
03:38 AM 42.9°F6.1°C 39.0°F3.9°C 86% 9.3 mph SW15.0 kmh SW 14.0 mph22.5 kmh 29.80 in1009.1 mb 0.00 in0.0 mm 0.00 in0.0 mm 0.00 in0.0 mm
03:39 AM 42.9°F6.1°C 39.0°F3.9°C 86% 8.9 mph SSW14.3 kmh SSW 14.0 mph22.5 kmh 29.80 in1009.1 mb 0.00 in0.0 mm 0.00 in0.0 mm 0.00 in0.0 mm
03:40 AM 42.8°F6.0°C 38.9°F3.8°C 86% 8.5 mph SSW13.7 kmh SSW 12.0 mph19.3 kmh 29.81 in1009.5 mb 0.00 in0.0 mm 0.00 in0.0 mm 0.00 in0.0 mm
03:41 AM 42.8°F6.0°C 38.9°F3.8°C 86% 10.7 mph SSW17.2 kmh SSW 13.0 mph20.9 kmh 29.81 in1009.5 mb 0.00 in0.0 mm 0.00 in0.0 mm 0.00 in0.0 mm
03:42 AM 42.8°F6.0°C 38.9°F3.8°C 86% 8.9 mph SSW14.3 kmh SSW 13.0 mph20.9 kmh 29.81 in1009.5 mb 0.00 in0.0 mm 0.00 in0.0 mm 0.00 in0.0 mm
03:43 AM 42.8°F6.0°C 38.9°F3.8°C 86% 9.3 mph SSW15.0 kmh SSW 13.0 mph20.9 kmh 29.81 in1009.5 mb 0.00 in0.0 mm 0.00 in0.0 mm 0.00 in0.0 mm
03:44 AM 42.7°F5.9°C 38.8°F3.8°C 86% 8.3 mph SSW13.4 kmh SSW 13.0 mph20.9 kmh 29.81 in1009.5 mb 0.00 in0.0 mm 0.00 in0.0 mm 0.00 in0.0 mm
03:45 AM 42.8°F6.0°C 38.9°F3.8°C 86% 9.9 mph SSW15.9 kmh SSW 13.0 mph20.9 kmh 29.81 in1009.5 mb 0.00 in0.0 mm 0.00 in0.0 mm 0.00 in0.0 mm
03:46 AM 42.7°F5.9°C 38.8°F3.8°C 86% 8.7 mph SSW14.0 kmh SSW 13.0 mph20.9 kmh 29.81 in1009.5 mb 0.00 in0.0 mm 0.00 in0.0 mm 0.00 in0.0 mm
03:47 AM 42.7°F5.9°C 38.8°F3.8°C 86% 7.6 mph SSW12.2 kmh SSW 11.0 mph17.7 kmh 29.81 in1009.5 mb 0.00 in0.0 mm 0.00 in0.0 mm 0.00 in0.0 mm
03:48 AM 42.7°F5.9°C 38.8°F3.8°C 86% 6.0 mph SSW9.7 kmh SSW 11.0 mph17.7 kmh 29.80 in1009.1 mb 0.00 in0.0 mm 0.00 in0.0 mm 0.00 in0.0 mm
03:49 AM 42.6°F5.9°C 38.7°F3.7°C 86% 8.1 mph SSW13.0 kmh SSW 10.0 mph16.1 kmh 29.81 in1009.5 mb 0.00 in0.0 mm 0.00 in0.0 mm 0.00 in0.0 mm
03:50 AM 42.6°F5.9°C 38.7°F3.7°C 86% 7.7 mph SSW12.4 kmh SSW 10.0 mph16.1 kmh 29.81 in1009.5 mb 0.00 in0.0 mm 0.00 in0.0 mm 0.00 in0.0 mm
03:51 AM 42.6°F5.9°C 38.7°F3.7°C 86% 7.3 mph SSW11.7 kmh SSW 10.0 mph16.1 kmh 29.80 in1009.1 mb 0.00 in0.0 mm 0.00 in0.0 mm 0.00 in0.0 mm
03:52 AM 42.5°F5.8°C 38.6°F3.7°C 86% 6.7 mph SSW10.8 kmh SSW 10.0 mph16.1 kmh 29.80 in1009.1 mb 0.00 in0.0 mm 0.00 in0.0 mm 0.00 in0.0 mm
03:53 AM 42.5°F5.8°C 38.6°F3.7°C 86% 6.9 mph SSW11.1 kmh SSW 10.0 mph16.1 kmh 29.80 in1009.1 mb 0.00 in0.0 mm 0.00 in0.0 mm 0.00 in0.0 mm
03:54 AM 42.5°F5.8°C 38.6°F3.7°C 86% 6.5 mph SSW10.5 kmh SSW 10.0 mph16.1 kmh 29.80 in1009.1 mb 0.00 in0.0 mm 0.00 in0.0 mm 0.00 in0.0 mm
03:55 AM 42.4°F5.8°C 38.5°F3.6°C 86% 8.0 mph SSW12.9 kmh SSW 9.0 mph14.5 kmh 29.80 in1009.1 mb 0.00 in0.0 mm 0.00 in0.0 mm 0.00 in0.0 mm
03:56 AM 42.5°F5.8°C 38.9°F3.8°C 87% 7.2 mph SSW11.6 kmh SSW 11.0 mph17.7 kmh 29.80 in1009.1 mb 0.00 in0.0 mm 0.00 in0.0 mm 0.00 in0.0 mm
03:57 AM 42.4°F5.8°C 38.8°F3.8°C 87% 8.1 mph S13.0 kmh S 11.0 mph17.7 kmh 29.80 in1009.1 mb 0.00 in0.0 mm 0.00 in0.0 mm 0.00 in0.0 mm
03:58 AM 42.4°F5.8°C 38.8°F3.8°C 87% 6.4 mph SSW10.3 kmh SSW 9.0 mph14.5 kmh 29.80 in1009.1 mb 0.00 in0.0 mm 0.00 in0.0 mm 0.00 in0.0 mm
03:59 AM 42.4°F5.8°C 38.8°F3.8°C 87% 7.2 mph SSW11.6 kmh SSW 10.0 mph16.1 kmh 29.80 in1009.1 mb 0.00 in0.0 mm 0.00 in0.0 mm 0.00 in0.0 mm
04:00 AM 42.3°F5.7°C 38.7°F3.7°C 87% 7.4 mph SSW11.9 kmh SSW 11.0 mph17.7 kmh 29.80 in1009.1 mb 0.00 in0.0 mm 0.00 in0.0 mm 0.00 in0.0 mm
04:01 AM 42.3°F5.7°C 38.7°F3.7°C 87% 6.9 mph SSW11.1 kmh SSW 11.0 mph17.7 kmh 29.80 in1009.1 mb 0.00 in0.0 mm 0.00 in0.0 mm 0.00 in0.0 mm
04:02 AM 42.3°F5.7°C 38.7°F3.7°C 87% 7.5 mph SSW12.1 kmh SSW 10.0 mph16.1 kmh 29.80 in1009.1 mb 0.00 in0.0 mm 0.00 in0.0 mm 0.00 in0.0 mm
04:03 AM 42.3°F5.7°C 38.7°F3.7°C 87% 7.3 mph SSW11.7 kmh SSW 12.0 mph19.3 kmh 29.80 in1009.1 mb 0.00 in0.0 mm 0.00 in0.0 mm 0.00 in0.0 mm
04:04 AM 42.3°F5.7°C 38.7°F3.7°C 87% 7.5 mph S12.1 kmh S 12.0 mph19.3 kmh 29.80 in1009.1 mb 0.00 in0.0 mm 0.00 in0.0 mm 0.00 in0.0 mm
04:05 AM 42.2°F5.7°C 38.6°F3.7°C 87% 7.5 mph S12.1 kmh S 11.0 mph17.7 kmh 29.80 in1009.1 mb 0.00 in0.0 mm 0.00 in0.0 mm 0.00 in0.0 mm
04:06 AM 42.2°F5.7°C 38.6°F3.7°C 87% 5.8 mph S9.3 kmh S 10.0 mph16.1 kmh 29.80 in1009.1 mb 0.00 in0.0 mm 0.00 in0.0 mm 0.00 in0.0 mm
04:07 AM 42.2°F5.7°C 38.6°F3.7°C 87% 5.6 mph S9.0 kmh S 8.0 mph12.9 kmh 29.80 in1009.1 mb 0.00 in0.0 mm 0.00 in0.0 mm 0.00 in0.0 mm
04:08 AM 42.1°F5.6°C 38.5°F3.6°C 87% 6.8 mph S10.9 kmh S 10.0 mph16.1 kmh 29.80 in1009.1 mb 0.00 in0.0 mm 0.00 in0.0 mm 0.00 in0.0 mm
04:09 AM 42.1°F5.6°C 38.5°F3.6°C 87% 6.8 mph S10.9 kmh S 10.0 mph16.1 kmh 29.80 in1009.1 mb 0.00 in0.0 mm 0.00 in0.0 mm 0.00 in0.0 mm
04:10 AM 42.1°F5.6°C 38.5°F3.6°C 87% 7.0 mph S11.3 kmh S 11.0 mph17.7 kmh 29.80 in1009.1 mb 0.00 in0.0 mm 0.00 in0.0 mm 0.00 in0.0 mm
04:11 AM 42.1°F5.6°C 38.5°F3.6°C 87% 7.7 mph S12.4 kmh S 11.0 mph17.7 kmh 29.80 in1009.1 mb 0.00 in0.0 mm 0.00 in0.0 mm 0.00 in0.0 mm
04:12 AM 42.0°F5.6°C 38.4°F3.6°C 87% 7.6 mph S12.2 kmh S 11.0 mph17.7 kmh 29.80 in1009.1 mb 0.00 in0.0 mm 0.00 in0.0 mm 0.00 in0.0 mm
04:13 AM 42.0°F5.6°C 38.4°F3.6°C 87% 7.2 mph S11.6 kmh S 11.0 mph17.7 kmh 29.80 in1009.1 mb 0.00 in0.0 mm 0.00 in0.0 mm 0.00 in0.0 mm
04:14 AM 42.0°F5.6°C 38.7°F3.7°C 88% 8.8 mph S14.2 kmh S 11.0 mph17.7 kmh 29.80 in1009.1 mb 0.00 in0.0 mm 0.00 in0.0 mm 0.00 in0.0 mm
04:15 AM 42.0°F5.6°C 38.7°F3.7°C 88% 7.2 mph SSW11.6 kmh SSW 11.0 mph17.7 kmh 29.80 in1009.1 mb 0.00 in0.0 mm 0.00 in0.0 mm 0.00 in0.0 mm
04:16 AM 42.0°F5.6°C 38.7°F3.7°C 88% 6.5 mph SSW10.5 kmh SSW 10.0 mph16.1 kmh 29.80 in1009.1 mb 0.00 in0.0 mm 0.00 in0.0 mm 0.00 in0.0 mm
04:17 AM 42.0°F5.6°C 38.7°F3.7°C 88% 9.2 mph SSW14.8 kmh SSW 12.0 mph19.3 kmh 29.80 in1009.1 mb 0.00 in0.0 mm 0.00 in0.0 mm 0.00 in0.0 mm
04:18 AM 42.0°F5.6°C 38.7°F3.7°C 88% 8.2 mph SSW13.2 kmh SSW 12.0 mph19.3 kmh 29.80 in1009.1 mb 0.00 in0.0 mm 0.00 in0.0 mm 0.00 in0.0 mm
04:19 AM 42.0°F5.6°C 38.7°F3.7°C 88% 7.7 mph SSW12.4 kmh SSW 10.0 mph16.1 kmh 29.80 in1009.1 mb 0.00 in0.0 mm 0.00 in0.0 mm 0.00 in0.0 mm
04:20 AM 42.0°F5.6°C 38.7°F3.7°C 88% 7.3 mph SSW11.7 kmh SSW 11.0 mph17.7 kmh 29.80 in1009.1 mb 0.00 in0.0 mm 0.00 in0.0 mm 0.00 in0.0 mm
04:21 AM 42.0°F5.6°C 38.7°F3.7°C 88% 10.1 mph S16.3 kmh S 15.0 mph24.1 kmh 29.80 in1009.1 mb 0.00 in0.0 mm 0.00 in0.0 mm 0.00 in0.0 mm
04:22 AM 41.9°F5.5°C 38.6°F3.7°C 88% 7.8 mph S12.6 kmh S 15.0 mph24.1 kmh 29.80 in1009.1 mb 0.00 in0.0 mm 0.00 in0.0 mm 0.00 in0.0 mm
04:23 AM 42.0°F5.6°C 38.7°F3.7°C 88% 7.9 mph SSW12.7 kmh SSW 10.0 mph16.1 kmh 29.80 in1009.1 mb 0.00 in0.0 mm 0.00 in0.0 mm 0.00 in0.0 mm
04:24 AM 42.0°F5.6°C 38.7°F3.7°C 88% 7.4 mph SSW11.9 kmh SSW 10.0 mph16.1 kmh 29.80 in1009.1 mb 0.00 in0.0 mm 0.00 in0.0 mm 0.00 in0.0 mm
04:25 AM 42.1°F5.6°C 38.8°F3.8°C 88% 7.6 mph SSW12.2 kmh SSW 11.0 mph17.7 kmh 29.80 in1009.1 mb 0.00 in0.0 mm 0.00 in0.0 mm 0.00 in0.0 mm
04:26 AM 42.0°F5.6°C 38.7°F3.7°C 88% 8.6 mph SSW13.8 kmh SSW 11.0 mph17.7 kmh 29.80 in1009.1 mb 0.00 in0.0 mm 0.00 in0.0 mm 0.00 in0.0 mm
04:27 AM 42.0°F5.6°C 38.7°F3.7°C 88% 7.6 mph SSW12.2 kmh SSW 11.0 mph17.7 kmh 29.80 in1009.1 mb 0.00 in0.0 mm 0.00 in0.0 mm 0.00 in0.0 mm
04:28 AM 42.0°F5.6°C 38.7°F3.7°C 88% 7.5 mph S12.1 kmh S 10.0 mph16.1 kmh 29.80 in1009.1 mb 0.00 in0.0 mm 0.00 in0.0 mm 0.00 in0.0 mm
04:29 AM 42.1°F5.6°C 38.8°F3.8°C 88% 6.3 mph SSW10.1 kmh SSW 10.0 mph16.1 kmh 29.80 in1009.1 mb 0.00 in0.0 mm 0.00 in0.0 mm 0.00 in0.0 mm
04:30 AM 42.0°F5.6°C 38.7°F3.7°C 88% 8.6 mph SSW13.8 kmh SSW 11.0 mph17.7 kmh 29.80 in1009.1 mb 0.00 in0.0 mm 0.00 in0.0 mm 0.00 in0.0 mm
04:31 AM 42.0°F5.6°C 38.7°F3.7°C 88% 7.7 mph SSW12.4 kmh SSW 12.0 mph19.3 kmh 29.80 in1009.1 mb 0.00 in0.0 mm 0.00 in0.0 mm 0.00 in0.0 mm
04:32 AM 42.1°F5.6°C 38.8°F3.8°C 88% 7.2 mph SSW11.6 kmh SSW 12.0 mph19.3 kmh 29.80 in1009.1 mb 0.00 in0.0 mm 0.00 in0.0 mm 0.00 in0.0 mm
04:33 AM 42.1°F5.6°C 38.8°F3.8°C 88% 6.3 mph SSW10.1 kmh SSW 10.0 mph16.1 kmh 29.80 in1009.1 mb 0.00 in0.0 mm 0.00 in0.0 mm 0.00 in0.0 mm
04:34 AM 42.1°F5.6°C 38.8°F3.8°C 88% 6.6 mph S10.6 kmh S 10.0 mph16.1 kmh 29.80 in1009.1 mb 0.00 in0.0 mm 0.00 in0.0 mm 0.00 in0.0 mm
04:35 AM 42.1°F5.6°C 38.8°F3.8°C 88% 7.4 mph SSW11.9 kmh SSW 10.0 mph16.1 kmh 29.80 in1009.1 mb 0.00 in0.0 mm 0.00 in0.0 mm 0.00 in0.0 mm
04:36 AM 42.1°F5.6°C 38.8°F3.8°C 88% 7.4 mph SSW11.9 kmh SSW 10.0 mph16.1 kmh 29.80 in1009.1 mb 0.00 in0.0 mm 0.00 in0.0 mm 0.00 in0.0 mm
04:37 AM 42.1°F5.6°C 38.8°F3.8°C 88% 7.9 mph SSW12.7 kmh SSW 10.0 mph16.1 kmh 29.80 in1009.1 mb 0.00 in0.0 mm 0.00 in0.0 mm 0.00 in0.0 mm
04:38 AM 42.1°F5.6°C 38.8°F3.8°C 88% 7.7 mph S12.4 kmh S 10.0 mph16.1 kmh 29.80 in1009.1 mb 0.00 in0.0 mm 0.00 in0.0 mm 0.00 in0.0 mm
04:39 AM 42.1°F5.6°C 38.8°F3.8°C 88% 6.3 mph SSW10.1 kmh SSW 10.0 mph16.1 kmh 29.80 in1009.1 mb 0.00 in0.0 mm 0.00 in0.0 mm 0.00 in0.0 mm
04:40 AM 42.1°F5.6°C 38.8°F3.8°C 88% 7.5 mph SSW12.1 kmh SSW 10.0 mph16.1 kmh 29.81 in1009.5 mb 0.00 in0.0 mm 0.00 in0.0 mm 0.00 in0.0 mm
04:41 AM 42.1°F5.6°C 38.8°F3.8°C 88% 8.9 mph SSW14.3 kmh SSW 11.0 mph17.7 kmh 29.80 in1009.1 mb 0.00 in0.0 mm 0.00 in0.0 mm 0.00 in0.0 mm
04:42 AM 42.0°F5.6°C 38.7°F3.7°C 88% 8.3 mph SSW13.4 kmh SSW 11.0 mph17.7 kmh 29.81 in1009.5 mb 0.00 in0.0 mm 0.00 in0.0 mm 0.00 in0.0 mm
04:43 AM 42.1°F5.6°C 38.8°F3.8°C 88% 8.6 mph S13.8 kmh S 11.0 mph17.7 kmh 29.80 in1009.1 mb 0.00 in0.0 mm 0.00 in0.0 mm 0.00 in0.0 mm
04:44 AM 42.0°F5.6°C 38.7°F3.7°C 88% 6.8 mph S10.9 kmh S 10.0 mph16.1 kmh 29.81 in1009.5 mb 0.00 in0.0 mm 0.00 in0.0 mm 0.00 in0.0 mm
04:45 AM 42.0°F5.6°C 38.7°F3.7°C 88% 6.9 mph SSW11.1 kmh SSW 8.0 mph12.9 kmh 29.81 in1009.5 mb 0.00 in0.0 mm 0.00 in0.0 mm 0.00 in0.0 mm
04:46 AM 42.0°F5.6°C 38.7°F3.7°C 88% 7.4 mph SSW11.9 kmh SSW 12.0 mph19.3 kmh 29.81 in1009.5 mb 0.00 in0.0 mm 0.00 in0.0 mm 0.00 in0.0 mm
04:47 AM 42.0°F5.6°C 38.7°F3.7°C 88% 5.8 mph S9.3 kmh S 12.0 mph19.3 kmh 29.81 in1009.5 mb 0.00 in0.0 mm 0.00 in0.0 mm 0.00 in0.0 mm
04:48 AM 42.0°F5.6°C 38.7°F3.7°C 88% 6.6 mph S10.6 kmh S 9.0 mph14.5 kmh 29.81 in1009.5 mb 0.00 in0.0 mm 0.00 in0.0 mm 0.00 in0.0 mm
04:49 AM 42.0°F5.6°C 38.7°F3.7°C 88% 5.8 mph SSW9.3 kmh SSW 9.0 mph14.5 kmh 29.80 in1009.1 mb 0.00 in0.0 mm 0.00 in0.0 mm 0.00 in0.0 mm
04:50 AM 42.0°F5.6°C 38.7°F3.7°C 88% 7.0 mph S11.3 kmh S 9.0 mph14.5 kmh 29.81 in1009.5 mb 0.00 in0.0 mm 0.00 in0.0 mm 0.00 in0.0 mm
04:51 AM 41.9°F5.5°C 38.6°F3.7°C 88% 8.3 mph S13.4 kmh S 13.0 mph20.9 kmh 29.81 in1009.5 mb 0.00 in0.0 mm 0.00 in0.0 mm 0.00 in0.0 mm
04:52 AM 42.0°F5.6°C 38.7°F3.7°C 88% 8.1 mph S13.0 kmh S 13.0 mph20.9 kmh 29.81 in1009.5 mb 0.00 in0.0 mm 0.00 in0.0 mm 0.00 in0.0 mm
04:53 AM 42.0°F5.6°C 38.7°F3.7°C 88% 7.9 mph SSW12.7 kmh SSW 11.0 mph17.7 kmh 29.81 in1009.5 mb 0.00 in0.0 mm 0.00 in0.0 mm 0.00 in0.0 mm
04:54 AM 42.0°F5.6°C 38.7°F3.7°C 88% 8.5 mph S13.7 kmh S 13.0 mph20.9 kmh 29.81 in1009.5 mb 0.00 in0.0 mm 0.00 in0.0 mm 0.00 in0.0 mm
04:55 AM 42.0°F5.6°C 38.7°F3.7°C 88% 5.5 mph S8.9 kmh S 13.0 mph20.9 kmh 29.81 in1009.5 mb 0.00 in0.0 mm 0.00 in0.0 mm 0.00 in0.0 mm
04:56 AM 42.0°F5.6°C 38.7°F3.7°C 88% 6.6 mph S10.6 kmh S 10.0 mph16.1 kmh 29.81 in1009.5 mb 0.00 in0.0 mm 0.00 in0.0 mm 0.00 in0.0 mm
04:57 AM 42.0°F5.6°C 38.7°F3.7°C 88% 8.7 mph S14.0 kmh S 13.0 mph20.9 kmh 29.81 in1009.5 mb 0.00 in0.0 mm 0.00 in0.0 mm 0.00 in0.0 mm
04:58 AM 42.0°F5.6°C 38.7°F3.7°C 88% 6.9 mph S11.1 kmh S 13.0 mph20.9 kmh 29.81 in1009.5 mb 0.00 in0.0 mm 0.00 in0.0 mm 0.00 in0.0 mm
04:59 AM 42.0°F5.6°C 38.7°F3.7°C 88% 8.0 mph S12.9 kmh S 11.0 mph17.7 kmh 29.81 in1009.5 mb 0.00 in0.0 mm 0.00 in0.0 mm 0.00 in0.0 mm
05:00 AM 41.9°F5.5°C 38.6°F3.7°C 88% 9.2 mph S14.8 kmh S 12.0 mph19.3 kmh 29.81 in1009.5 mb 0.00 in0.0 mm 0.00 in0.0 mm 0.00 in0.0 mm
05:01 AM 42.0°F5.6°C 38.7°F3.7°C 88% 7.2 mph SSW11.6 kmh SSW 12.0 mph19.3 kmh 29.81 in1009.5 mb 0.00 in0.0 mm 0.00 in0.0 mm 0.00 in0.0 mm
05:02 AM 41.9°F5.5°C 38.6°F3.7°C 88% 9.2 mph SSW14.8 kmh SSW 12.0 mph19.3 kmh 29.81 in1009.5 mb 0.00 in0.0 mm 0.00 in0.0 mm 0.00 in0.0 mm
05:03 AM 42.0°F5.6°C 38.7°F3.7°C 88% 8.8 mph S14.2 kmh S 12.0 mph19.3 kmh 29.81 in1009.5 mb 0.00 in0.0 mm 0.00 in0.0 mm 0.00 in0.0 mm
05:04 AM 42.0°F5.6°C 38.7°F3.7°C 88% 7.7 mph S12.4 kmh S 12.0 mph19.3 kmh 29.81 in1009.5 mb 0.00 in0.0 mm 0.00 in0.0 mm 0.00 in0.0 mm
05:05 AM 41.9°F5.5°C 38.6°F3.7°C 88% 7.2 mph S11.6 kmh S 10.0 mph16.1 kmh 29.81 in1009.5 mb 0.00 in0.0 mm 0.00 in0.0 mm 0.00 in0.0 mm
05:06 AM 42.0°F5.6°C 38.7°F3.7°C 88% 6.3 mph S10.1 kmh S 10.0 mph16.1 kmh 29.81 in1009.5 mb 0.00 in0.0 mm 0.00 in0.0 mm 0.00 in0.0 mm
05:07 AM 42.0°F5.6°C 38.7°F3.7°C 88% 9.4 mph S15.1 kmh S 12.0 mph19.3 kmh 29.81 in1009.5 mb 0.00 in0.0 mm 0.00 in0.0 mm 0.00 in0.0 mm
05:08 AM 42.0°F5.6°C 38.7°F3.7°C 88% 8.1 mph S13.0 kmh S 12.0 mph19.3 kmh 29.81 in1009.5 mb 0.00 in0.0 mm 0.00 in0.0 mm 0.00 in0.0 mm
05:09 AM 42.0°F5.6°C 38.7°F3.7°C 88% 6.4 mph SSW10.3 kmh SSW 11.0 mph17.7 kmh 29.81 in1009.5 mb 0.00 in0.0 mm 0.00 in0.0 mm 0.00 in0.0 mm
05:10 AM 42.0°F5.6°C 38.7°F3.7°C 88% 6.1 mph SSW9.8 kmh SSW 9.0 mph14.5 kmh 29.81 in1009.5 mb 0.00 in0.0 mm 0.00 in0.0 mm 0.00 in0.0 mm
05:11 AM 42.0°F5.6°C 38.7°F3.7°C 88% 7.6 mph S12.2 kmh S 10.0 mph16.1 kmh 29.81 in1009.5 mb 0.00 in0.0 mm 0.00 in0.0 mm 0.00 in0.0 mm
05:12 AM 42.0°F5.6°C 38.7°F3.7°C 88% 6.5 mph SSW10.5 kmh SSW 10.0 mph16.1 kmh 29.81 in1009.5 mb 0.00 in0.0 mm 0.00 in0.0 mm 0.00 in0.0 mm
05:13 AM 42.0°F5.6°C 38.7°F3.7°C 88% 6.2 mph S10.0 kmh S 9.0 mph14.5 kmh 29.81 in1009.5 mb 0.00 in0.0 mm 0.00 in0.0 mm 0.00 in0.0 mm
05:14 AM 41.9°F5.5°C 38.6°F3.7°C 88% 6.9 mph S11.1 kmh S 11.0 mph17.7 kmh 29.81 in1009.5 mb 0.00 in0.0 mm 0.00 in0.0 mm 0.00 in0.0 mm
05:15 AM 42.0°F5.6°C 38.7°F3.7°C 88% 7.8 mph SSW12.6 kmh SSW 11.0 mph17.7 kmh 29.81 in1009.5 mb 0.00 in0.0 mm 0.00 in0.0 mm 0.00 in0.0 mm
05:16 AM 42.0°F5.6°C 38.7°F3.7°C 88% 7.9 mph S12.7 kmh S 11.0 mph17.7 kmh 29.82 in1009.8 mb 0.00 in0.0 mm 0.00 in0.0 mm 0.00 in0.0 mm
05:17 AM 42.0°F5.6°C 38.7°F3.7°C 88% 6.4 mph SSW10.3 kmh SSW 10.0 mph16.1 kmh 29.82 in1009.8 mb 0.00 in0.0 mm 0.00 in0.0 mm 0.00 in0.0 mm
05:18 AM 42.0°F5.6°C 38.7°F3.7°C 88% 7.6 mph SSW12.2 kmh SSW 10.0 mph16.1 kmh 29.82 in1009.8 mb 0.00 in0.0 mm 0.00 in0.0 mm 0.00 in0.0 mm
05:19 AM 42.0°F5.6°C 38.7°F3.7°C 88% 8.6 mph SSW13.8 kmh SSW 12.0 mph19.3 kmh 29.82 in1009.8 mb 0.00 in0.0 mm 0.00 in0.0 mm 0.00 in0.0 mm
05:20 AM 42.0°F5.6°C 38.7°F3.7°C 88% 9.5 mph SSW15.3 kmh SSW 14.0 mph22.5 kmh 29.82 in1009.8 mb 0.00 in0.0 mm 0.00 in0.0 mm 0.00 in0.0 mm
05:21 AM 42.0°F5.6°C 38.7°F3.7°C 88% 8.1 mph SSW13.0 kmh SSW 14.0 mph22.5 kmh 29.82 in1009.8 mb 0.00 in0.0 mm 0.00 in0.0 mm 0.00 in0.0 mm
05:22 AM 41.9°F5.5°C 38.6°F3.7°C 88% 9.3 mph SSW15.0 kmh SSW 12.0 mph19.3 kmh 29.82 in1009.8 mb 0.00 in0.0 mm 0.00 in0.0 mm 0.00 in0.0 mm
05:23 AM 42.0°F5.6°C 38.7°F3.7°C 88% 9.8 mph S15.8 kmh S 13.0 mph20.9 kmh 29.82 in1009.8 mb 0.00 in0.0 mm 0.00 in0.0 mm 0.00 in0.0 mm
05:24 AM 42.0°F5.6°C 38.7°F3.7°C 88% 7.4 mph SSW11.9 kmh SSW 13.0 mph20.9 kmh 29.82 in1009.8 mb 0.00 in0.0 mm 0.00 in0.0 mm 0.00 in0.0 mm
05:25 AM 42.0°F5.6°C 38.7°F3.7°C 88% 6.9 mph SSW11.1 kmh SSW 10.0 mph16.1 kmh 29.82 in1009.8 mb 0.00 in0.0 mm 0.00 in0.0 mm 0.00 in0.0 mm
05:26 AM 42.0°F5.6°C 38.7°F3.7°C 88% 6.8 mph SSW10.9 kmh SSW 11.0 mph17.7 kmh 29.82 in1009.8 mb 0.00 in0.0 mm 0.00 in0.0 mm 0.00 in0.0 mm
05:27 AM 42.0°F5.6°C 38.7°F3.7°C 88% 7.8 mph SSW12.6 kmh SSW 11.0 mph17.7 kmh 29.82 in1009.8 mb 0.00 in0.0 mm 0.00 in0.0 mm 0.00 in0.0 mm
05:28 AM 42.1°F5.6°C 38.8°F3.8°C 88% 7.7 mph S12.4 kmh S 11.0 mph17.7 kmh 29.82 in1009.8 mb 0.00 in0.0 mm 0.00 in0.0 mm 0.00 in0.0 mm
05:29 AM 42.0°F5.6°C 38.7°F3.7°C 88% 8.9 mph SSW14.3 kmh SSW 11.0 mph17.7 kmh 29.82 in1009.8 mb 0.00 in0.0 mm 0.00 in0.0 mm 0.00 in0.0 mm
05:30 AM 42.1°F5.6°C 38.8°F3.8°C 88% 8.5 mph SSW13.7 kmh SSW 11.0 mph17.7 kmh 29.82 in1009.8 mb 0.00 in0.0 mm 0.00 in0.0 mm 0.00 in0.0 mm
05:31 AM 42.1°F5.6°C 38.8°F3.8°C 88% 7.5 mph SSW12.1 kmh SSW 11.0 mph17.7 kmh 29.82 in1009.8 mb 0.00 in0.0 mm 0.00 in0.0 mm 0.00 in0.0 mm
05:32 AM 42.1°F5.6°C 38.5°F3.6°C 87% 8.2 mph S13.2 kmh S 12.0 mph19.3 kmh 29.82 in1009.8 mb 0.00 in0.0 mm 0.00 in0.0 mm 0.00 in0.0 mm
05:33 AM 42.1°F5.6°C 38.5°F3.6°C 87% 7.7 mph SSW12.4 kmh SSW 12.0 mph19.3 kmh 29.82 in1009.8 mb 0.00 in0.0 mm 0.00 in0.0 mm 0.00 in0.0 mm
05:34 AM 42.1°F5.6°C 38.5°F3.6°C 87% 9.9 mph SSW15.9 kmh SSW 12.0 mph19.3 kmh 29.82 in1009.8 mb 0.00 in0.0 mm 0.00 in0.0 mm 0.00 in0.0 mm
05:35 AM 42.1°F5.6°C 38.5°F3.6°C 87% 7.1 mph S11.4 kmh S 12.0 mph19.3 kmh 29.82 in1009.8 mb 0.00 in0.0 mm 0.00 in0.0 mm 0.00 in0.0 mm
05:36 AM 42.2°F5.7°C 38.6°F3.7°C 87% 9.1 mph S14.6 kmh S 12.0 mph19.3 kmh 29.82 in1009.8 mb 0.00 in0.0 mm 0.00 in0.0 mm 0.00 in0.0 mm
05:37 AM 42.2°F5.7°C 38.6°F3.7°C 87% 7.4 mph SSW11.9 kmh SSW 12.0 mph19.3 kmh 29.82 in1009.8 mb 0.00 in0.0 mm 0.00 in0.0 mm 0.00 in0.0 mm
05:38 AM 42.2°F5.7°C 38.6°F3.7°C 87% 7.7 mph S12.4 kmh S 11.0 mph17.7 kmh 29.82 in1009.8 mb 0.00 in0.0 mm 0.00 in0.0 mm 0.00 in0.0 mm
05:39 AM 42.2°F5.7°C 38.6°F3.7°C 87% 9.0 mph SSW14.5 kmh SSW 11.0 mph17.7 kmh 29.82 in1009.8 mb 0.00 in0.0 mm 0.00 in0.0 mm 0.00 in0.0 mm
05:40 AM 42.2°F5.7°C 38.6°F3.7°C 87% 8.9 mph SSW14.3 kmh SSW 12.0 mph19.3 kmh 29.82 in1009.8 mb 0.00 in0.0 mm 0.00 in0.0 mm 0.00 in0.0 mm
05:41 AM 42.2°F5.7°C 38.6°F3.7°C 87% 6.9 mph SSW11.1 kmh SSW 12.0 mph19.3 kmh 29.82 in1009.8 mb 0.00 in0.0 mm 0.00 in0.0 mm 0.00 in0.0 mm
05:42 AM 42.2°F5.7°C 38.6°F3.7°C 87% 9.1 mph SSW14.6 kmh SSW 13.0 mph20.9 kmh 29.82 in1009.8 mb 0.00 in0.0 mm 0.00 in0.0 mm 0.00 in0.0 mm
05:43 AM 42.2°F5.7°C 38.3°F3.5°C 86% 10.0 mph SSW16.1 kmh SSW 13.0 mph20.9 kmh 29.82 in1009.8 mb 0.00 in0.0 mm 0.00 in0.0 mm 0.00 in0.0 mm
05:44 AM 42.2°F5.7°C 38.3°F3.5°C 86% 8.9 mph S14.3 kmh S 13.0 mph20.9 kmh 29.82 in1009.8 mb 0.00 in0.0 mm 0.00 in0.0 mm 0.00 in0.0 mm
05:45 AM 42.3°F5.7°C 38.4°F3.6°C 86% 7.0 mph S11.3 kmh S 12.0 mph19.3 kmh 29.82 in1009.8 mb 0.00 in0.0 mm 0.00 in0.0 mm 0.00 in0.0 mm
05:46 AM 42.3°F5.7°C 38.4°F3.6°C 86% 7.0 mph SSW11.3 kmh SSW 11.0 mph17.7 kmh 29.82 in1009.8 mb 0.00 in0.0 mm 0.00 in0.0 mm 0.00 in0.0 mm
05:47 AM 42.4°F5.8°C 38.5°F3.6°C 86% 7.6 mph SSW12.2 kmh SSW 11.0 mph17.7 kmh 29.82 in1009.8 mb 0.00 in0.0 mm 0.00 in0.0 mm 0.00 in0.0 mm
05:48 AM 42.4°F5.8°C 38.5°F3.6°C 86% 8.2 mph SW13.2 kmh SW 10.0 mph16.1 kmh 29.82 in1009.8 mb 0.00 in0.0 mm 0.00 in0.0 mm 0.00 in0.0 mm
05:49 AM 42.4°F5.8°C 38.2°F3.4°C 85% 9.2 mph SSW14.8 kmh SSW 12.0 mph19.3 kmh 29.82 in1009.8 mb 0.00 in0.0 mm 0.00 in0.0 mm 0.00 in0.0 mm
05:50 AM 42.4°F5.8°C 38.2°F3.4°C 85% 9.5 mph SSW15.3 kmh SSW 13.0 mph20.9 kmh 29.82 in1009.8 mb 0.00 in0.0 mm 0.00 in0.0 mm 0.00 in0.0 mm
05:51 AM 42.5°F5.8°C 38.3°F3.5°C 85% 9.9 mph SSW15.9 kmh SSW 13.0 mph20.9 kmh 29.82 in1009.8 mb 0.00 in0.0 mm 0.00 in0.0 mm 0.00 in0.0 mm
05:52 AM 42.6°F5.9°C 38.4°F3.6°C 85% 9.9 mph SW15.9 kmh SW 16.0 mph25.7 kmh 29.82 in1009.8 mb 0.00 in0.0 mm 0.00 in0.0 mm 0.00 in0.0 mm
05:53 AM 42.6°F5.9°C 38.4°F3.6°C 85% 6.7 mph SW10.8 kmh SW 16.0 mph25.7 kmh 29.82 in1009.8 mb 0.00 in0.0 mm 0.00 in0.0 mm 0.00 in0.0 mm
05:54 AM 42.6°F5.9°C 38.4°F3.6°C 85% 7.6 mph SSW12.2 kmh SSW 11.0 mph17.7 kmh 29.82 in1009.8 mb 0.00 in0.0 mm 0.00 in0.0 mm 0.00 in0.0 mm
05:55 AM 42.7°F5.9°C 38.2°F3.4°C 84% 7.8 mph SSW12.6 kmh SSW 11.0 mph17.7 kmh 29.82 in1009.8 mb 0.00 in0.0 mm 0.00 in0.0 mm 0.00 in0.0 mm
05:56 AM 42.7°F5.9°C 38.2°F3.4°C 84% 7.6 mph SSW12.2 kmh SSW 11.0 mph17.7 kmh 29.82 in1009.8 mb 0.00 in0.0 mm 0.00 in0.0 mm 0.00 in0.0 mm
05:57 AM 42.8°F6.0°C 38.3°F3.5°C 84% 11.1 mph SSW17.9 kmh SSW 14.0 mph22.5 kmh 29.82 in1009.8 mb 0.00 in0.0 mm 0.00 in0.0 mm 0.00 in0.0 mm
05:58 AM 42.8°F6.0°C 38.3°F3.5°C 84% 10.3 mph SSW16.6 kmh SSW 14.0 mph22.5 kmh 29.82 in1009.8 mb 0.00 in0.0 mm 0.00 in0.0 mm 0.00 in0.0 mm
05:59 AM 42.9°F6.1°C 38.4°F3.6°C 84% 9.8 mph SSW15.8 kmh SSW 14.0 mph22.5 kmh 29.82 in1009.8 mb 0.00 in0.0 mm 0.00 in0.0 mm 0.00 in0.0 mm
06:00 AM 42.9°F6.1°C 38.4°F3.6°C 84% 9.0 mph SSW14.5 kmh SSW 14.0 mph22.5 kmh 29.82 in1009.8 mb 0.00 in0.0 mm 0.00 in0.0 mm 0.00 in0.0 mm
06:01 AM 43.0°F6.1°C 38.5°F3.6°C 84% 6.0 mph SSW9.7 kmh SSW 11.0 mph17.7 kmh 29.82 in1009.8 mb 0.00 in0.0 mm 0.00 in0.0 mm 0.00 in0.0 mm
06:02 AM 43.0°F6.1°C 38.2°F3.4°C 83% 9.4 mph SW15.1 kmh SW 12.0 mph19.3 kmh 29.82 in1009.8 mb 0.00 in0.0 mm 0.00 in0.0 mm 0.00 in0.0 mm
06:03 AM 43.1°F6.2°C 38.3°F3.5°C 83% 7.5 mph SSW12.1 kmh SSW 12.0 mph19.3 kmh 29.82 in1009.8 mb 0.00 in0.0 mm 0.00 in0.0 mm 0.00 in0.0 mm
06:04 AM 43.1°F6.2°C 38.3°F3.5°C 83% 9.4 mph SW15.1 kmh SW 12.0 mph19.3 kmh 29.82 in1009.8 mb 0.00 in0.0 mm 0.00 in0.0 mm 0.00 in0.0 mm
06:05 AM 43.1°F6.2°C 38.3°F3.5°C 83% 8.3 mph SW13.4 kmh SW 12.0 mph19.3 kmh 29.82 in1009.8 mb 0.00 in0.0 mm 0.00 in0.0 mm 0.00 in0.0 mm
06:06 AM 43.1°F6.2°C 38.3°F3.5°C 83% 9.4 mph SW15.1 kmh SW 13.0 mph20.9 kmh 29.82 in1009.8 mb 0.00 in0.0 mm 0.00 in0.0 mm 0.00 in0.0 mm
06:07 AM 43.2°F6.2°C 38.4°F3.6°C 83% 9.9 mph SW15.9 kmh SW 15.0 mph24.1 kmh 29.82 in1009.8 mb 0.00 in0.0 mm 0.00 in0.0 mm 0.00 in0.0 mm
06:08 AM 43.3°F6.3°C 38.5°F3.6°C 83% 10.1 mph SSW16.3 kmh SSW 15.0 mph24.1 kmh 29.82 in1009.8 mb 0.00 in0.0 mm 0.00 in0.0 mm 0.00 in0.0 mm
06:09 AM 43.3°F6.3°C 38.5°F3.6°C 83% 7.4 mph SSW11.9 kmh SSW 15.0 mph24.1 kmh 29.82 in1009.8 mb 0.00 in0.0 mm 0.00 in0.0 mm 0.00 in0.0 mm
06:10 AM 43.3°F6.3°C 38.5°F3.6°C 83% 8.1 mph SSW13.0 kmh SSW 11.0 mph17.7 kmh 29.83 in1010.2 mb 0.00 in0.0 mm 0.00 in0.0 mm 0.00 in0.0 mm
06:11 AM 43.4°F6.3°C 38.6°F3.7°C 83% 8.9 mph SSW14.3 kmh SSW 11.0 mph17.7 kmh 29.82 in1009.8 mb 0.00 in0.0 mm 0.00 in0.0 mm 0.00 in0.0 mm
06:12 AM 43.4°F6.3°C 38.6°F3.7°C 83% 8.3 mph SSW13.4 kmh SSW 12.0 mph19.3 kmh 29.82 in1009.8 mb 0.00 in0.0 mm 0.00 in0.0 mm 0.00 in0.0 mm
06:13 AM 43.4°F6.3°C 38.6°F3.7°C 83% 7.7 mph SSW12.4 kmh SSW 12.0 mph19.3 kmh 29.82 in1009.8 mb 0.00 in0.0 mm 0.00 in0.0 mm 0.00 in0.0 mm
06:14 AM 43.4°F6.3°C 38.6°F3.7°C 83% 7.3 mph SSW11.7 kmh SSW 11.0 mph17.7 kmh 29.82 in1009.8 mb 0.00 in0.0 mm 0.00 in0.0 mm 0.00 in0.0 mm
06:15 AM 43.5°F6.4°C 38.7°F3.7°C 83% 10.0 mph SSW16.1 kmh SSW 13.0 mph20.9 kmh 29.82 in1009.8 mb 0.00 in0.0 mm 0.00 in0.0 mm 0.00 in0.0 mm
06:16 AM 43.6°F6.4°C 38.5°F3.6°C 82% 8.6 mph SSW13.8 kmh SSW 15.0 mph24.1 kmh 29.82 in1009.8 mb 0.00 in0.0 mm 0.00 in0.0 mm 0.00 in0.0 mm
06:17 AM 43.6°F6.4°C 38.5°F3.6°C 82% 9.5 mph SSW15.3 kmh SSW 16.0 mph25.7 kmh 29.82 in1009.8 mb 0.00 in0.0 mm 0.00 in0.0 mm 0.00 in0.0 mm
06:18 AM 43.7°F6.5°C 38.6°F3.7°C 82% 10.8 mph SSW17.4 kmh SSW 16.0 mph25.7 kmh 29.82 in1009.8 mb 0.00 in0.0 mm 0.00 in0.0 mm 0.00 in0.0 mm
06:19 AM 43.6°F6.4°C 38.5°F3.6°C 82% 9.5 mph SSW15.3 kmh SSW 13.0 mph20.9 kmh 29.82 in1009.8 mb 0.00 in0.0 mm 0.00 in0.0 mm 0.00 in0.0 mm
06:20 AM 43.7°F6.5°C 38.6°F3.7°C 82% 8.3 mph SSW13.4 kmh SSW 13.0 mph20.9 kmh 29.82 in1009.8 mb 0.00 in0.0 mm 0.00 in0.0 mm 0.00 in0.0 mm
06:21 AM 43.7°F6.5°C 38.6°F3.7°C 82% 11.0 mph SSW17.7 kmh SSW 14.0 mph22.5 kmh 29.82 in1009.8 mb 0.00 in0.0 mm 0.00 in0.0 mm 0.00 in0.0 mm
06:22 AM 43.8°F6.6°C 38.7°F3.7°C 82% 10.3 mph SSW16.6 kmh SSW 14.0 mph22.5 kmh 29.83 in1010.2 mb 0.00 in0.0 mm 0.00 in0.0 mm 0.00 in0.0 mm
06:23 AM 43.8°F6.6°C 38.7°F3.7°C 82% 11.7 mph SSW18.8 kmh SSW 15.0 mph24.1 kmh 29.82 in1009.8 mb 0.00 in0.0 mm 0.00 in0.0 mm 0.00 in0.0 mm
06:24 AM 43.9°F6.6°C 38.5°F3.6°C 81% 9.3 mph SSW15.0 kmh SSW 15.0 mph24.1 kmh 29.83 in1010.2 mb 0.00 in0.0 mm 0.00 in0.0 mm 0.00 in0.0 mm
06:25 AM 43.9°F6.6°C 38.8°F3.8°C 82% 9.7 mph SSW15.6 kmh SSW 15.0 mph24.1 kmh 29.82 in1009.8 mb 0.00 in0.0 mm 0.00 in0.0 mm 0.00 in0.0 mm
06:26 AM 43.9°F6.6°C 38.5°F3.6°C 81% 11.3 mph SSW18.2 kmh SSW 15.0 mph24.1 kmh 29.83 in1010.2 mb 0.00 in0.0 mm 0.00 in0.0 mm 0.00 in0.0 mm
06:27 AM 44.0°F6.7°C 38.6°F3.7°C 81% 9.6 mph SSW15.4 kmh SSW 15.0 mph24.1 kmh 29.83 in1010.2 mb 0.00 in0.0 mm 0.00 in0.0 mm 0.00 in0.0 mm
06:28 AM 44.0°F6.7°C 38.6°F3.7°C 81% 8.7 mph SSW14.0 kmh SSW 14.0 mph22.5 kmh 29.83 in1010.2 mb 0.00 in0.0 mm 0.00 in0.0 mm 0.00 in0.0 mm
06:29 AM 44.0°F6.7°C 38.6°F3.7°C 81% 8.9 mph SSW14.3 kmh SSW 14.0 mph22.5 kmh 29.83 in1010.2 mb 0.00 in0.0 mm 0.00 in0.0 mm 0.00 in0.0 mm
06:30 AM 44.1°F6.7°C 38.6°F3.7°C 81% 8.9 mph SW14.3 kmh SW 12.0 mph19.3 kmh 29.83 in1010.2 mb 0.00 in0.0 mm 0.00 in0.0 mm 0.00 in0.0 mm
06:31 AM 44.1°F6.7°C 38.6°F3.7°C 81% 8.2 mph SW13.2 kmh SW 13.0 mph20.9 kmh 29.83 in1010.2 mb 0.00 in0.0 mm 0.00 in0.0 mm 0.00 in0.0 mm
06:32 AM 44.1°F6.7°C 38.6°F3.7°C 81% 7.9 mph SW12.7 kmh SW 14.0 mph22.5 kmh 29.83 in1010.2 mb 0.00 in0.0 mm 0.00 in0.0 mm 0.00 in0.0 mm
06:33 AM 44.2°F6.8°C 38.7°F3.7°C 81% 10.3 mph SSW16.6 kmh SSW 14.0 mph22.5 kmh 29.83 in1010.2 mb 0.00 in0.0 mm 0.00 in0.0 mm 0.00 in0.0 mm
06:34 AM 44.2°F6.8°C 38.7°F3.7°C 81% 9.7 mph SSW15.6 kmh SSW 14.0 mph22.5 kmh 29.83 in1010.2 mb 0.00 in0.0 mm 0.00 in0.0 mm 0.00 in0.0 mm
06:35 AM 44.2°F6.8°C 38.4°F3.6°C 80% 8.4 mph SW13.5 kmh SW 14.0 mph22.5 kmh 29.82 in1009.8 mb 0.00 in0.0 mm 0.00 in0.0 mm 0.00 in0.0 mm
06:36 AM 44.4°F6.9°C 38.9°F3.8°C 81% 8.5 mph SW13.7 kmh SW 11.0 mph17.7 kmh 29.83 in1010.2 mb 0.00 in0.0 mm 0.00 in0.0 mm 0.00 in0.0 mm
06:37 AM 44.3°F6.8°C 38.5°F3.6°C 80% 11.5 mph SSW18.5 kmh SSW 20.0 mph32.2 kmh 29.83 in1010.2 mb 0.00 in0.0 mm 0.00 in0.0 mm 0.00 in0.0 mm
06:38 AM 44.4°F6.9°C 38.6°F3.7°C 80% 11.0 mph SW17.7 kmh SW 20.0 mph32.2 kmh 29.82 in1009.8 mb 0.00 in0.0 mm 0.00 in0.0 mm 0.00 in0.0 mm
06:39 AM 44.5°F6.9°C 38.7°F3.7°C 80% 9.4 mph SSW15.1 kmh SSW 13.0 mph20.9 kmh 29.83 in1010.2 mb 0.00 in0.0 mm 0.00 in0.0 mm 0.00 in0.0 mm
06:40 AM 44.5°F6.9°C 38.7°F3.7°C 80% 10.8 mph SW17.4 kmh SW 14.0 mph22.5 kmh 29.83 in1010.2 mb 0.00 in0.0 mm 0.00 in0.0 mm 0.00 in0.0 mm
06:41 AM 44.6°F7.0°C 38.8°F3.8°C 80% 11.3 mph SSW18.2 kmh SSW 15.0 mph24.1 kmh 29.83 in1010.2 mb 0.00 in0.0 mm 0.00 in0.0 mm 0.00 in0.0 mm
06:42 AM 44.6°F7.0°C 38.5°F3.6°C 79% 11.2 mph SSW18.0 kmh SSW 15.0 mph24.1 kmh 29.82 in1009.8 mb 0.00 in0.0 mm 0.00 in0.0 mm 0.00 in0.0 mm
06:43 AM 44.7°F7.1°C 38.6°F3.7°C 79% 8.8 mph SSW14.2 kmh SSW 14.0 mph22.5 kmh 29.82 in1009.8 mb 0.00 in0.0 mm 0.00 in0.0 mm 0.00 in0.0 mm
06:44 AM 44.7°F7.1°C 38.6°F3.7°C 79% 7.0 mph SW11.3 kmh SW 11.0 mph17.7 kmh 29.82 in1009.8 mb 0.00 in0.0 mm 0.00 in0.0 mm 0.00 in0.0 mm
06:45 AM 44.8°F7.1°C 38.7°F3.7°C 79% 9.3 mph SW15.0 kmh SW 12.0 mph19.3 kmh 29.82 in1009.8 mb 0.00 in0.0 mm 0.00 in0.0 mm 0.00 in0.0 mm
06:46 AM 44.8°F7.1°C 38.7°F3.7°C 79% 10.8 mph SW17.4 kmh SW 13.0 mph20.9 kmh 29.82 in1009.8 mb 0.00 in0.0 mm 0.00 in0.0 mm 0.00 in0.0 mm
06:47 AM 44.9°F7.2°C 38.5°F3.6°C 78% 8.8 mph SW14.2 kmh SW 13.0 mph20.9 kmh 29.82 in1009.8 mb 0.00 in0.0 mm 0.00 in0.0 mm 0.00 in0.0 mm
06:48 AM 44.9°F7.2°C 38.5°F3.6°C 78% 11.6 mph SW18.7 kmh SW 14.0 mph22.5 kmh 29.82 in1009.8 mb 0.00 in0.0 mm 0.00 in0.0 mm 0.00 in0.0 mm
06:49 AM 45.0°F7.2°C 38.6°F3.7°C 78% 10.0 mph SW16.1 kmh SW 14.0 mph22.5 kmh 29.82 in1009.8 mb 0.00 in0.0 mm 0.00 in0.0 mm 0.00 in0.0 mm
06:50 AM 45.0°F7.2°C 38.6°F3.7°C 78% 7.4 mph SW11.9 kmh SW 13.0 mph20.9 kmh 29.82 in1009.8 mb 0.00 in0.0 mm 0.00 in0.0 mm 0.00 in0.0 mm
06:51 AM 45.1°F7.3°C 38.7°F3.7°C 78% 7.6 mph SW12.2 kmh SW 11.0 mph17.7 kmh 29.82 in1009.8 mb 0.00 in0.0 mm 0.00 in0.0 mm 0.00 in0.0 mm
06:52 AM 45.2°F7.3°C 38.8°F3.8°C 78% 8.0 mph SW12.9 kmh SW 11.0 mph17.7 kmh 29.82 in1009.8 mb 0.00 in0.0 mm 0.00 in0.0 mm 0.00 in0.0 mm
06:53 AM 45.3°F7.4°C 39.2°F4.0°C 79% 8.2 mph SW13.2 kmh SW 11.0 mph17.7 kmh 29.82 in1009.8 mb 0.00 in0.0 mm 0.00 in0.0 mm 0.00 in0.0 mm
06:54 AM 45.3°F7.4°C 38.9°F3.8°C 78% 9.8 mph SW15.8 kmh SW 13.0 mph20.9 kmh 29.82 in1009.8 mb 0.00 in0.0 mm 0.00 in0.0 mm 0.00 in0.0 mm
06:55 AM 45.3°F7.4°C 38.9°F3.8°C 78% 10.2 mph SW16.4 kmh SW 13.0 mph20.9 kmh 29.82 in1009.8 mb 0.00 in0.0 mm 0.00 in0.0 mm 0.00 in0.0 mm
06:56 AM 45.3°F7.4°C 38.5°F3.6°C 77% 11.0 mph SW17.7 kmh SW 14.0 mph22.5 kmh 29.82 in1009.8 mb 0.00 in0.0 mm 0.00 in0.0 mm 0.00 in0.0 mm
06:57 AM 45.4°F7.4°C 38.6°F3.7°C 77% 8.9 mph SW14.3 kmh SW 14.0 mph22.5 kmh 29.83 in1010.2 mb 0.00 in0.0 mm 0.00 in0.0 mm 0.00 in0.0 mm
06:58 AM 45.4°F7.4°C 38.9°F3.8°C 78% 7.9 mph SW12.7 kmh SW 11.0 mph17.7 kmh 29.83 in1010.2 mb 0.00 in0.0 mm 0.00 in0.0 mm 0.00 in0.0 mm
06:59 AM 45.5°F7.5°C 38.7°F3.7°C 77% 11.5 mph SSW18.5 kmh SSW 17.0 mph27.4 kmh 29.83 in1010.2 mb 0.00 in0.0 mm 0.00 in0.0 mm 0.00 in0.0 mm
07:00 AM 45.4°F7.4°C 38.6°F3.7°C 77% 10.7 mph SW17.2 kmh SW 17.0 mph27.4 kmh 29.83 in1010.2 mb 0.00 in0.0 mm 0.00 in0.0 mm 0.00 in0.0 mm
07:01 AM 45.5°F7.5°C 38.7°F3.7°C 77% 9.8 mph SW15.8 kmh SW 16.0 mph25.7 kmh 29.83 in1010.2 mb 0.00 in0.0 mm 0.00 in0.0 mm 0.00 in0.0 mm
07:02 AM 45.5°F7.5°C 39.0°F3.9°C 78% 7.1 mph SSW11.4 kmh SSW 12.0 mph19.3 kmh 29.83 in1010.2 mb 0.00 in0.0 mm 0.00 in0.0 mm 0.00 in0.0 mm
07:03 AM 45.6°F7.6°C 39.1°F3.9°C 78% 9.5 mph SSW15.3 kmh SSW 14.0 mph22.5 kmh 29.83 in1010.2 mb 0.00 in0.0 mm 0.00 in0.0 mm 0.00 in0.0 mm
07:04 AM 45.6°F7.6°C 38.8°F3.8°C 77% 10.4 mph SSW16.7 kmh SSW 14.0 mph22.5 kmh 29.83 in1010.2 mb 0.00 in0.0 mm 0.00 in0.0 mm 0.00 in0.0 mm
07:05 AM 45.6°F7.6°C 38.8°F3.8°C 77% 8.3 mph SW13.4 kmh SW 13.0 mph20.9 kmh 29.83 in1010.2 mb 0.00 in0.0 mm 0.00 in0.0 mm 0.00 in0.0 mm
07:06 AM 45.6°F7.6°C 38.8°F3.8°C 77% 8.9 mph SW14.3 kmh SW 12.0 mph19.3 kmh 29.83 in1010.2 mb 0.00 in0.0 mm 0.00 in0.0 mm 0.00 in0.0 mm
07:07 AM 45.7°F7.6°C 38.9°F3.8°C 77% 10.3 mph SSW16.6 kmh SSW 13.0 mph20.9 kmh 29.83 in1010.2 mb 0.00 in0.0 mm 0.00 in0.0 mm 0.00 in0.0 mm
07:08 AM 45.8°F7.7°C 39.0°F3.9°C 77% 8.3 mph SSW13.4 kmh SSW 13.0 mph20.9 kmh 29.83 in1010.2 mb 0.00 in0.0 mm 0.00 in0.0 mm 0.00 in0.0 mm
07:09 AM 45.9°F7.7°C 39.1°F3.9°C 77% 8.5 mph SW13.7 kmh SW 12.0 mph19.3 kmh 29.83 in1010.2 mb 0.00 in0.0 mm 0.00 in0.0 mm 0.00 in0.0 mm
07:10 AM 46.0°F7.8°C 39.2°F4.0°C 77% 8.5 mph SSW13.7 kmh SSW 17.0 mph27.4 kmh 29.83 in1010.2 mb 0.00 in0.0 mm 0.00 in0.0 mm 0.00 in0.0 mm
07:11 AM 46.1°F7.8°C 39.3°F4.1°C 77% 7.4 mph SSW11.9 kmh SSW 17.0 mph27.4 kmh 29.83 in1010.2 mb 0.00 in0.0 mm 0.00 in0.0 mm 0.00 in0.0 mm
07:12 AM 46.1°F7.8°C 39.3°F4.1°C 77% 8.3 mph SSW13.4 kmh SSW 11.0 mph17.7 kmh 29.84 in1010.5 mb 0.00 in0.0 mm 0.00 in0.0 mm 0.00 in0.0 mm
07:13 AM 46.2°F7.9°C 39.1°F3.9°C 76% 7.2 mph SSW11.6 kmh SSW 11.0 mph17.7 kmh 29.84 in1010.5 mb 0.00 in0.0 mm 0.00 in0.0 mm 0.00 in0.0 mm
07:14 AM 46.2°F7.9°C 39.1°F3.9°C 76% 9.9 mph SSW15.9 kmh SSW 13.0 mph20.9 kmh 29.84 in1010.5 mb 0.00 in0.0 mm 0.00 in0.0 mm 0.00 in0.0 mm
07:15 AM 46.3°F7.9°C 39.2°F4.0°C 76% 10.8 mph SSW17.4 kmh SSW 15.0 mph24.1 kmh 29.84 in1010.5 mb 0.00 in0.0 mm 0.00 in0.0 mm 0.00 in0.0 mm
07:16 AM 46.3°F7.9°C 39.2°F4.0°C 76% 11.8 mph SSW19.0 kmh SSW 15.0 mph24.1 kmh 29.84 in1010.5 mb 0.00 in0.0 mm 0.00 in0.0 mm 0.00 in0.0 mm
07:17 AM 46.3°F7.9°C 39.2°F4.0°C 76% 7.8 mph SSW12.6 kmh SSW 15.0 mph24.1 kmh 29.84 in1010.5 mb 0.00 in0.0 mm 0.00 in0.0 mm 0.00 in0.0 mm
07:18 AM 46.4°F8.0°C 39.6°F4.2°C 77% 7.8 mph SSW12.6 kmh SSW 12.0 mph19.3 kmh 29.84 in1010.5 mb 0.00 in0.0 mm 0.00 in0.0 mm 0.00 in0.0 mm
07:19 AM 46.4°F8.0°C 39.3°F4.1°C 76% 9.1 mph SSW14.6 kmh SSW 13.0 mph20.9 kmh 29.84 in1010.5 mb 0.00 in0.0 mm 0.00 in0.0 mm 0.00 in0.0 mm
07:20 AM 46.4°F8.0°C 39.3°F4.1°C 76% 11.4 mph SSW18.3 kmh SSW 15.0 mph24.1 kmh 29.84 in1010.5 mb 0.00 in0.0 mm 0.00 in0.0 mm 0.00 in0.0 mm
07:21 AM 46.4°F8.0°C 38.9°F3.8°C 75% 10.0 mph SSW16.1 kmh SSW 15.0 mph24.1 kmh 29.84 in1010.5 mb 0.00 in0.0 mm 0.00 in0.0 mm 0.00 in0.0 mm
07:22 AM 46.5°F8.1°C 39.3°F4.1°C 76% 10.1 mph SSW16.3 kmh SSW 15.0 mph24.1 kmh 29.84 in1010.5 mb 0.00 in0.0 mm 0.00 in0.0 mm 0.00 in0.0 mm
07:23 AM 46.5°F8.1°C 39.3°F4.1°C 76% 8.9 mph S14.3 kmh S 15.0 mph24.1 kmh 29.84 in1010.5 mb 0.00 in0.0 mm 0.00 in0.0 mm 0.00 in0.0 mm
07:24 AM 46.6°F8.1°C 39.4°F4.1°C 76% 10.5 mph SSW16.9 kmh SSW 14.0 mph22.5 kmh 29.84 in1010.5 mb 0.00 in0.0 mm 0.00 in0.0 mm 0.00 in0.0 mm
07:25 AM 46.6°F8.1°C 39.1°F3.9°C 75% 8.4 mph SSW13.5 kmh SSW 14.0 mph22.5 kmh 29.84 in1010.5 mb 0.00 in0.0 mm 0.00 in0.0 mm 0.00 in0.0 mm
07:26 AM 46.7°F8.2°C 39.5°F4.2°C 76% 12.5 mph S20.1 kmh S 17.0 mph27.4 kmh 29.84 in1010.5 mb 0.00 in0.0 mm 0.00 in0.0 mm 0.00 in0.0 mm
07:27 AM 46.7°F8.2°C 39.2°F4.0°C 75% 10.1 mph SSW16.3 kmh SSW 17.0 mph27.4 kmh 29.84 in1010.5 mb 0.00 in0.0 mm 0.00 in0.0 mm 0.00 in0.0 mm
07:28 AM 46.7°F8.2°C 39.5°F4.2°C 76% 9.7 mph SSW15.6 kmh SSW 15.0 mph24.1 kmh 29.84 in1010.5 mb 0.00 in0.0 mm 0.00 in0.0 mm 0.00 in0.0 mm
07:29 AM 46.8°F8.2°C 39.6°F4.2°C 76% 9.5 mph SSW15.3 kmh SSW 15.0 mph24.1 kmh 29.84 in1010.5 mb 0.00 in0.0 mm 0.00 in0.0 mm 0.00 in0.0 mm
07:30 AM 46.9°F8.3°C 39.7°F4.3°C 76% 9.0 mph SSW14.5 kmh SSW 14.0 mph22.5 kmh 29.84 in1010.5 mb 0.00 in0.0 mm 0.00 in0.0 mm 0.00 in0.0 mm
07:31 AM 46.9°F8.3°C 39.7°F4.3°C 76% 10.3 mph SSW16.6 kmh SSW 14.0 mph22.5 kmh 29.84 in1010.5 mb 0.00 in0.0 mm 0.00 in0.0 mm 0.00 in0.0 mm
07:32 AM 46.9°F8.3°C 39.4°F4.1°C 75% 11.2 mph SW18.0 kmh SW 14.0 mph22.5 kmh 29.84 in1010.5 mb 0.00 in0.0 mm 0.00 in0.0 mm 0.00 in0.0 mm
07:33 AM 47.0°F8.3°C 39.5°F4.2°C 75% 9.3 mph SSW15.0 kmh SSW 14.0 mph22.5 kmh 29.84 in1010.5 mb 0.00 in0.0 mm 0.00 in0.0 mm 0.00 in0.0 mm
07:34 AM 47.0°F8.3°C 39.8°F4.3°C 76% 11.4 mph SSW18.3 kmh SSW 15.0 mph24.1 kmh 29.84 in1010.5 mb 0.00 in0.0 mm 0.00 in0.0 mm 0.00 in0.0 mm
07:35 AM 47.0°F8.3°C 39.5°F4.2°C 75% 10.4 mph SSW16.7 kmh SSW 15.0 mph24.1 kmh 29.84 in1010.5 mb 0.00 in0.0 mm 0.00 in0.0 mm 0.00 in0.0 mm
07:36 AM 47.1°F8.4°C 39.6°F4.2°C 75% 10.2 mph S16.4 kmh S 16.0 mph25.7 kmh 29.84 in1010.5 mb 0.00 in0.0 mm 0.00 in0.0 mm 0.00 in0.0 mm
07:37 AM 47.1°F8.4°C 39.6°F4.2°C 75% 11.1 mph SW17.9 kmh SW 16.0 mph25.7 kmh 29.84 in1010.5 mb 0.00 in0.0 mm 0.00 in0.0 mm 0.00 in0.0 mm
07:38 AM 47.2°F8.4°C 39.7°F4.3°C 75% 10.9 mph SSW17.5 kmh SSW 15.0 mph24.1 kmh 29.84 in1010.5 mb 0.00 in0.0 mm 0.00 in0.0 mm 0.00 in0.0 mm
07:39 AM 47.2°F8.4°C 39.3°F4.1°C 74% 10.2 mph SW16.4 kmh SW 15.0 mph24.1 kmh 29.84 in1010.5 mb 0.00 in0.0 mm 0.00 in0.0 mm 0.00 in0.0 mm
07:40 AM 47.2°F8.4°C 39.3°F4.1°C 74% 13.7 mph SSW22.0 kmh SSW 17.0 mph27.4 kmh 29.84 in1010.5 mb 0.00 in0.0 mm 0.00 in0.0 mm 0.00 in0.0 mm
07:41 AM 47.2°F8.4°C 39.3°F4.1°C 74% 9.6 mph SSW15.4 kmh SSW 17.0 mph27.4 kmh 29.84 in1010.5 mb 0.00 in0.0 mm 0.00 in0.0 mm 0.00 in0.0 mm
07:42 AM 47.3°F8.5°C 39.4°F4.1°C 74% 12.7 mph SSW20.4 kmh SSW 19.0 mph30.6 kmh 29.84 in1010.5 mb 0.00 in0.0 mm 0.00 in0.0 mm 0.00 in0.0 mm
07:43 AM 47.4°F8.6°C 39.5°F4.2°C 74% 11.6 mph SSW18.7 kmh SSW 19.0 mph30.6 kmh 29.84 in1010.5 mb 0.00 in0.0 mm 0.00 in0.0 mm 0.00 in0.0 mm
07:44 AM 47.4°F8.6°C 39.5°F4.2°C 74% 10.7 mph SSW17.2 kmh SSW 17.0 mph27.4 kmh 29.84 in1010.5 mb 0.00 in0.0 mm 0.00 in0.0 mm 0.00 in0.0 mm
07:45 AM 47.4°F8.6°C 39.5°F4.2°C 74% 12.0 mph SSW19.3 kmh SSW 18.0 mph29.0 kmh 29.84 in1010.5 mb 0.00 in0.0 mm 0.00 in0.0 mm 0.00 in0.0 mm
07:46 AM 47.5°F8.6°C 39.6°F4.2°C 74% 13.8 mph SSW22.2 kmh SSW 19.0 mph30.6 kmh 29.84 in1010.5 mb 0.00 in0.0 mm 0.00 in0.0 mm 0.00 in0.0 mm
07:47 AM 47.5°F8.6°C 39.3°F4.1°C 73% 13.8 mph SSW22.2 kmh SSW 19.0 mph30.6 kmh 29.84 in1010.5 mb 0.00 in0.0 mm 0.00 in0.0 mm 0.00 in0.0 mm
07:48 AM 47.5°F8.6°C 39.6°F4.2°C 74% 11.0 mph SSW17.7 kmh SSW 19.0 mph30.6 kmh 29.84 in1010.5 mb 0.00 in0.0 mm 0.00 in0.0 mm 0.00 in0.0 mm
07:49 AM 47.6°F8.7°C 39.7°F4.3°C 74% 9.7 mph S15.6 kmh S 14.0 mph22.5 kmh 29.84 in1010.5 mb 0.00 in0.0 mm 0.00 in0.0 mm 0.00 in0.0 mm
07:50 AM 47.7°F8.7°C 39.8°F4.3°C 74% 13.3 mph S21.4 kmh S 16.0 mph25.7 kmh 29.84 in1010.5 mb 0.00 in0.0 mm 0.00 in0.0 mm 0.00 in0.0 mm
07:51 AM 47.7°F8.7°C 39.8°F4.3°C 74% 11.1 mph S17.9 kmh S 16.0 mph25.7 kmh 29.84 in1010.5 mb 0.00 in0.0 mm 0.00 in0.0 mm 0.00 in0.0 mm
07:52 AM 47.8°F8.8°C 39.6°F4.2°C 73% 13.7 mph SSW22.0 kmh SSW 18.0 mph29.0 kmh 29.84 in1010.5 mb 0.00 in0.0 mm 0.00 in0.0 mm 0.00 in0.0 mm
07:53 AM 47.8°F8.8°C 39.6°F4.2°C 73% 13.7 mph SW22.0 kmh SW 18.0 mph29.0 kmh 29.84 in1010.5 mb 0.00 in0.0 mm 0.00 in0.0 mm 0.00 in0.0 mm
07:54 AM 47.8°F8.8°C 39.9°F4.4°C 74% 7.9 mph S12.7 kmh S 17.0 mph27.4 kmh 29.85 in1010.8 mb 0.00 in0.0 mm 0.00 in0.0 mm 0.00 in0.0 mm
07:55 AM 47.9°F8.8°C 40.0°F4.4°C 74% 11.6 mph SSW18.7 kmh SSW 18.0 mph29.0 kmh 29.85 in1010.8 mb 0.00 in0.0 mm 0.00 in0.0 mm 0.00 in0.0 mm
07:56 AM 48.0°F8.9°C 39.8°F4.3°C 73% 10.2 mph SSW16.4 kmh SSW 18.0 mph29.0 kmh 29.85 in1010.8 mb 0.00 in0.0 mm 0.00 in0.0 mm 0.00 in0.0 mm
07:57 AM 48.1°F8.9°C 39.9°F4.4°C 73% 9.6 mph SSW15.4 kmh SSW 13.0 mph20.9 kmh 29.85 in1010.8 mb 0.00 in0.0 mm 0.00 in0.0 mm 0.00 in0.0 mm
07:58 AM 48.1°F8.9°C 39.9°F4.4°C 73% 12.7 mph SW20.4 kmh SW 16.0 mph25.7 kmh 29.85 in1010.8 mb 0.00 in0.0 mm 0.00 in0.0 mm 0.00 in0.0 mm
07:59 AM 48.2°F9.0°C 40.0°F4.4°C 73% 12.2 mph SSW19.6 kmh SSW 16.0 mph25.7 kmh 29.85 in1010.8 mb 0.00 in0.0 mm 0.00 in0.0 mm 0.00 in0.0 mm
08:00 AM 48.3°F9.1°C 40.1°F4.5°C 73% 12.0 mph SSW19.3 kmh SSW 16.0 mph25.7 kmh 29.85 in1010.8 mb 0.00 in0.0 mm 0.00 in0.0 mm 0.00 in0.0 mm
08:01 AM 48.3°F9.1°C 39.7°F4.3°C 72% 12.2 mph SSW19.6 kmh SSW 16.0 mph25.7 kmh 29.85 in1010.8 mb 0.00 in0.0 mm 0.00 in0.0 mm 0.00 in0.0 mm
08:02 AM 48.3°F9.1°C 39.7°F4.3°C 72% 8.8 mph SSW14.2 kmh SSW 16.0 mph25.7 kmh 29.85 in1010.8 mb 0.00 in0.0 mm 0.00 in0.0 mm 0.00 in0.0 mm
08:03 AM 48.5°F9.2°C 39.9°F4.4°C 72% 9.5 mph S15.3 kmh S 17.0 mph27.4 kmh 29.85 in1010.8 mb 0.00 in0.0 mm 0.00 in0.0 mm 0.00 in0.0 mm
08:04 AM 48.5°F9.2°C 39.9°F4.4°C 72% 13.3 mph SSW21.4 kmh SSW 18.0 mph29.0 kmh 29.85 in1010.8 mb 0.00 in0.0 mm 0.00 in0.0 mm 0.00 in0.0 mm
08:05 AM 48.5°F9.2°C 39.9°F4.4°C 72% 12.4 mph SSW20.0 kmh SSW 17.0 mph27.4 kmh 29.85 in1010.8 mb 0.00 in0.0 mm 0.00 in0.0 mm 0.00 in0.0 mm
08:06 AM 48.6°F9.2°C 39.6°F4.2°C 71% 11.9 mph SSW19.2 kmh SSW 17.0 mph27.4 kmh 29.85 in1010.8 mb 0.00 in0.0 mm 0.00 in0.0 mm 0.00 in0.0 mm
08:07 AM 48.6°F9.2°C 40.0°F4.4°C 72% 10.5 mph SSW16.9 kmh SSW 17.0 mph27.4 kmh 29.85 in1010.8 mb 0.00 in0.0 mm 0.00 in0.0 mm 0.00 in0.0 mm
08:08 AM 48.7°F9.3°C 40.1°F4.5°C 72% 10.0 mph SSW16.1 kmh SSW 17.0 mph27.4 kmh 29.85 in1010.8 mb 0.00 in0.0 mm 0.00 in0.0 mm 0.00 in0.0 mm
08:09 AM 48.7°F9.3°C 40.1°F4.5°C 72% 11.3 mph S18.2 kmh S 18.0 mph29.0 kmh 29.84 in1010.5 mb 0.00 in0.0 mm 0.00 in0.0 mm 0.00 in0.0 mm
08:10 AM 48.9°F9.4°C 40.3°F4.6°C 72% 10.0 mph S16.1 kmh S 20.0 mph32.2 kmh 29.85 in1010.8 mb 0.00 in0.0 mm 0.00 in0.0 mm 0.00 in0.0 mm
08:11 AM 48.9°F9.4°C 39.9°F4.4°C 71% 13.5 mph SSW21.7 kmh SSW 20.0 mph32.2 kmh 29.85 in1010.8 mb 0.00 in0.0 mm 0.00 in0.0 mm 0.00 in0.0 mm
08:12 AM 49.0°F9.4°C 40.0°F4.4°C 71% 10.4 mph SSW16.7 kmh SSW 20.0 mph32.2 kmh 29.85 in1010.8 mb 0.00 in0.0 mm 0.00 in0.0 mm 0.00 in0.0 mm
08:13 AM 49.0°F9.4°C 40.0°F4.4°C 71% 11.3 mph SSW18.2 kmh SSW 16.0 mph25.7 kmh 29.85 in1010.8 mb 0.00 in0.0 mm 0.00 in0.0 mm 0.00 in0.0 mm
08:14 AM 49.1°F9.5°C 40.1°F4.5°C 71% 12.4 mph SSW20.0 kmh SSW 18.0 mph29.0 kmh 29.85 in1010.8 mb 0.00 in0.0 mm 0.00 in0.0 mm 0.00 in0.0 mm
08:15 AM 49.1°F9.5°C 40.1°F4.5°C 71% 12.5 mph SSW20.1 kmh SSW 21.0 mph33.8 kmh 29.85 in1010.8 mb 0.00 in0.0 mm 0.00 in0.0 mm 0.00 in0.0 mm
08:16 AM 49.2°F9.6°C 39.8°F4.3°C 70% 15.4 mph SW24.8 kmh SW 21.0 mph33.8 kmh 29.85 in1010.8 mb 0.00 in0.0 mm 0.00 in0.0 mm 0.00 in0.0 mm
08:17 AM 49.2°F9.6°C 39.8°F4.3°C 70% 13.4 mph SSW21.6 kmh SSW 19.0 mph30.6 kmh 29.85 in1010.8 mb 0.00 in0.0 mm 0.00 in0.0 mm 0.00 in0.0 mm
08:18 AM 49.2°F9.6°C 39.8°F4.3°C 70% 11.8 mph SSW19.0 kmh SSW 16.0 mph25.7 kmh 29.85 in1010.8 mb 0.00 in0.0 mm 0.00 in0.0 mm 0.00 in0.0 mm
08:19 AM 49.3°F9.6°C 39.9°F4.4°C 70% 9.0 mph SSW14.5 kmh SSW 14.0 mph22.5 kmh 29.85 in1010.8 mb 0.00 in0.0 mm 0.00 in0.0 mm 0.00 in0.0 mm
08:20 AM 49.4°F9.7°C 40.4°F4.7°C 71% 11.5 mph SSW18.5 kmh SSW 17.0 mph27.4 kmh 29.85 in1010.8 mb 0.00 in0.0 mm 0.00 in0.0 mm 0.00 in0.0 mm
08:21 AM 49.5°F9.7°C 40.1°F4.5°C 70% 10.9 mph S17.5 kmh S 17.0 mph27.4 kmh 29.85 in1010.8 mb 0.00 in0.0 mm 0.00 in0.0 mm 0.00 in0.0 mm
08:22 AM 49.6°F9.8°C 40.2°F4.6°C 70% 10.6 mph SSW17.1 kmh SSW 18.0 mph29.0 kmh 29.85 in1010.8 mb 0.00 in0.0 mm 0.00 in0.0 mm 0.00 in0.0 mm
08:23 AM 49.6°F9.8°C 39.5°F4.2°C 68% 14.8 mph SW23.8 kmh SW 18.0 mph29.0 kmh 29.85 in1010.8 mb 0.00 in0.0 mm 0.00 in0.0 mm 0.00 in0.0 mm
08:24 AM 49.6°F9.8°C 39.5°F4.2°C 68% 12.2 mph SSW19.6 kmh SSW 18.0 mph29.0 kmh 29.85 in1010.8 mb 0.00 in0.0 mm 0.00 in0.0 mm 0.00 in0.0 mm
08:25 AM 49.7°F9.8°C 39.9°F4.4°C 69% 12.6 mph SW20.3 kmh SW 18.0 mph29.0 kmh 29.85 in1010.8 mb 0.00 in0.0 mm 0.00 in0.0 mm 0.00 in0.0 mm
08:26 AM 49.6°F9.8°C 39.9°F4.4°C 69% 15.6 mph SSW25.1 kmh SSW 19.0 mph30.6 kmh 29.85 in1010.8 mb 0.00 in0.0 mm 0.00 in0.0 mm 0.00 in0.0 mm
08:27 AM 49.6°F9.8°C 39.5°F4.2°C 68% 13.9 mph SSW22.4 kmh SSW 19.0 mph30.6 kmh 29.85 in1010.8 mb 0.00 in0.0 mm 0.00 in0.0 mm 0.00 in0.0 mm
08:28 AM 49.7°F9.8°C 39.9°F4.4°C 69% 12.4 mph SW20.0 kmh SW 18.0 mph29.0 kmh 29.85 in1010.8 mb 0.00 in0.0 mm 0.00 in0.0 mm 0.00 in0.0 mm
08:29 AM 49.7°F9.8°C 39.9°F4.4°C 69% 13.9 mph SW22.4 kmh SW 18.0 mph29.0 kmh 29.85 in1010.8 mb 0.00 in0.0 mm 0.00 in0.0 mm 0.00 in0.0 mm
08:30 AM 49.7°F9.8°C 39.6°F4.2°C 68% 12.2 mph SW19.6 kmh SW 17.0 mph27.4 kmh 29.85 in1010.8 mb 0.00 in0.0 mm 0.00 in0.0 mm 0.00 in0.0 mm
08:31 AM 49.8°F9.9°C 40.0°F4.4°C 69% 12.2 mph SSW19.6 kmh SSW 16.0 mph25.7 kmh 29.85 in1010.8 mb 0.00 in0.0 mm 0.00 in0.0 mm 0.00 in0.0 mm
08:32 AM 49.9°F9.9°C 40.1°F4.5°C 69% 11.9 mph SSW19.2 kmh SSW 20.0 mph32.2 kmh 29.85 in1010.8 mb 0.00 in0.0 mm 0.00 in0.0 mm 0.00 in0.0 mm
08:33 AM 49.9°F9.9°C 39.8°F4.3°C 68% 11.5 mph SSW18.5 kmh SSW 20.0 mph32.2 kmh 29.85 in1010.8 mb 0.00 in0.0 mm 0.00 in0.0 mm 0.00 in0.0 mm
08:34 AM 50.0°F10.0°C 40.2°F4.6°C 69% 12.8 mph S20.6 kmh S 19.0 mph30.6 kmh 29.85 in1010.8 mb 0.00 in0.0 mm 0.00 in0.0 mm 0.00 in0.0 mm
08:35 AM 50.2°F10.1°C 40.4°F4.7°C 69% 14.3 mph S23.0 kmh S 20.0 mph32.2 kmh 29.85 in1010.8 mb 0.00 in0.0 mm 0.00 in0.0 mm 0.00 in0.0 mm
08:36 AM 50.3°F10.2°C 40.1°F4.5°C 68% 15.9 mph SSW25.6 kmh SSW 20.0 mph32.2 kmh 29.85 in1010.8 mb 0.00 in0.0 mm 0.00 in0.0 mm 0.00 in0.0 mm
08:37 AM 50.3°F10.2°C 40.1°F4.5°C 68% 13.0 mph S20.9 kmh S 20.0 mph32.2 kmh 29.85 in1010.8 mb 0.00 in0.0 mm 0.00 in0.0 mm 0.00 in0.0 mm
08:38 AM 50.3°F10.2°C 40.1°F4.5°C 68% 13.4 mph SSW21.6 kmh SSW 17.0 mph27.4 kmh 29.85 in1010.8 mb 0.00 in0.0 mm 0.00 in0.0 mm 0.00 in0.0 mm
08:39 AM 50.3°F10.2°C 39.8°F4.3°C 67% 13.2 mph S21.2 kmh S 17.0 mph27.4 kmh 29.85 in1010.8 mb 0.00 in0.0 mm 0.00 in0.0 mm 0.00 in0.0 mm
08:40 AM 50.3°F10.2°C 39.8°F4.3°C 67% 13.2 mph SW21.2 kmh SW 17.0 mph27.4 kmh 29.85 in1010.8 mb 0.00 in0.0 mm 0.00 in0.0 mm 0.00 in0.0 mm
08:41 AM 50.4°F10.2°C 40.2°F4.6°C 68% 14.6 mph SSW23.5 kmh SSW 18.0 mph29.0 kmh 29.85 in1010.8 mb 0.00 in0.0 mm 0.00 in0.0 mm 0.00 in0.0 mm
08:42 AM 50.3°F10.2°C 39.8°F4.3°C 67% 13.4 mph SW21.6 kmh SW 18.0 mph29.0 kmh 29.85 in1010.8 mb 0.00 in0.0 mm 0.00 in0.0 mm 0.00 in0.0 mm
08:43 AM 50.4°F10.2°C 40.2°F4.6°C 68% 11.5 mph SW18.5 kmh SW 17.0 mph27.4 kmh 29.85 in1010.8 mb 0.00 in0.0 mm 0.00 in0.0 mm 0.00 in0.0 mm
08:44 AM 50.4°F10.2°C 40.2°F4.6°C 68% 10.3 mph SW16.6 kmh SW 14.0 mph22.5 kmh 29.85 in1010.8 mb 0.00 in0.0 mm 0.00 in0.0 mm 0.00 in0.0 mm
08:45 AM 50.4°F10.2°C 39.9°F4.4°C 67% 15.8 mph SW25.4 kmh SW 20.0 mph32.2 kmh 29.85 in1010.8 mb 0.00 in0.0 mm 0.00 in0.0 mm 0.00 in0.0 mm
08:46 AM 50.4°F10.2°C 39.9°F4.4°C 67% 12.6 mph SW20.3 kmh SW 20.0 mph32.2 kmh 29.85 in1010.8 mb 0.00 in0.0 mm 0.00 in0.0 mm 0.00 in0.0 mm
08:47 AM 50.5°F10.3°C 40.3°F4.6°C 68% 10.3 mph S16.6 kmh S 15.0 mph24.1 kmh 29.86 in1011.2 mb 0.00 in0.0 mm 0.00 in0.0 mm 0.00 in0.0 mm
08:48 AM 50.6°F10.3°C 40.4°F4.7°C 68% 13.5 mph SSW21.7 kmh SSW 19.0 mph30.6 kmh 29.85 in1010.8 mb 0.00 in0.0 mm 0.00 in0.0 mm 0.00 in0.0 mm
08:49 AM 50.6°F10.3°C 40.4°F4.7°C 68% 10.7 mph SSW17.2 kmh SSW 19.0 mph30.6 kmh 29.85 in1010.8 mb 0.00 in0.0 mm 0.00 in0.0 mm 0.00 in0.0 mm
08:50 AM 50.7°F10.4°C 40.5°F4.7°C 68% 14.7 mph SW23.7 kmh SW 21.0 mph33.8 kmh 29.85 in1010.8 mb 0.00 in0.0 mm 0.00 in0.0 mm 0.00 in0.0 mm
08:51 AM 50.8°F10.4°C 39.9°F4.4°C 66% 13.0 mph SSW20.9 kmh SSW 21.0 mph33.8 kmh 29.86 in1011.2 mb 0.00 in0.0 mm 0.00 in0.0 mm 0.00 in0.0 mm
08:52 AM 50.9°F10.5°C 40.0°F4.4°C 66% 12.4 mph SW20.0 kmh SW 18.0 mph29.0 kmh 29.85 in1010.8 mb 0.00 in0.0 mm 0.00 in0.0 mm 0.00 in0.0 mm
08:53 AM 50.9°F10.5°C 40.3°F4.6°C 67% 10.5 mph SSW16.9 kmh SSW 17.0 mph27.4 kmh 29.85 in1010.8 mb 0.00 in0.0 mm 0.00 in0.0 mm 0.00 in0.0 mm
08:54 AM 51.0°F10.6°C 40.4°F4.7°C 67% 11.2 mph SSW18.0 kmh SSW 15.0 mph24.1 kmh 29.85 in1010.8 mb 0.00 in0.0 mm 0.00 in0.0 mm 0.00 in0.0 mm
08:55 AM 51.1°F10.6°C 40.5°F4.7°C 67% 10.6 mph SSW17.1 kmh SSW 15.0 mph24.1 kmh 29.85 in1010.8 mb 0.00 in0.0 mm 0.00 in0.0 mm 0.00 in0.0 mm
08:56 AM 51.2°F10.7°C 40.6°F4.8°C 67% 12.1 mph SW19.5 kmh SW 15.0 mph24.1 kmh 29.85 in1010.8 mb 0.00 in0.0 mm 0.00 in0.0 mm 0.00 in0.0 mm
08:57 AM 51.2°F10.7°C 40.6°F4.8°C 67% 9.5 mph SSW15.3 kmh SSW 15.0 mph24.1 kmh 29.85 in1010.8 mb 0.00 in0.0 mm 0.00 in0.0 mm 0.00 in0.0 mm
08:58 AM 51.3°F10.7°C 40.7°F4.8°C 67% 12.8 mph S20.6 kmh S 22.0 mph35.4 kmh 29.85 in1010.8 mb 0.00 in0.0 mm 0.00 in0.0 mm 0.00 in0.0 mm
08:59 AM 51.4°F10.8°C 40.4°F4.7°C 66% 14.7 mph S23.7 kmh S 22.0 mph35.4 kmh 29.85 in1010.8 mb 0.00 in0.0 mm 0.00 in0.0 mm 0.00 in0.0 mm
09:00 AM 51.5°F10.8°C 40.5°F4.7°C 66% 9.0 mph SSW14.5 kmh SSW 20.0 mph32.2 kmh 29.85 in1010.8 mb 0.00 in0.0 mm 0.00 in0.0 mm 0.00 in0.0 mm
09:01 AM 51.6°F10.9°C 40.6°F4.8°C 66% 8.1 mph SW13.0 kmh SW 18.0 mph29.0 kmh 29.85 in1010.8 mb 0.00 in0.0 mm 0.00 in0.0 mm 0.00 in0.0 mm
09:02 AM 51.6°F10.9°C 40.2°F4.6°C 65% 14.2 mph SSW22.9 kmh SSW 19.0 mph30.6 kmh 29.86 in1011.2 mb 0.00 in0.0 mm 0.00 in0.0 mm 0.00 in0.0 mm
09:03 AM 51.7°F10.9°C 40.3°F4.6°C 65% 13.8 mph SW22.2 kmh SW 19.0 mph30.6 kmh 29.85 in1010.8 mb 0.00 in0.0 mm 0.00 in0.0 mm 0.00 in0.0 mm
09:04 AM 51.7°F10.9°C 40.3°F4.6°C 65% 15.3 mph SW24.6 kmh SW 21.0 mph33.8 kmh 29.85 in1010.8 mb 0.00 in0.0 mm 0.00 in0.0 mm 0.00 in0.0 mm
09:05 AM 51.7°F10.9°C 39.9°F4.4°C 64% 14.7 mph SW23.7 kmh SW 21.0 mph33.8 kmh 29.85 in1010.8 mb 0.00 in0.0 mm 0.00 in0.0 mm 0.00 in0.0 mm
09:06 AM 51.8°F11.0°C 40.4°F4.7°C 65% 11.2 mph SSW18.0 kmh SSW 20.0 mph32.2 kmh 29.85 in1010.8 mb 0.00 in0.0 mm 0.00 in0.0 mm 0.00 in0.0 mm
09:07 AM 51.8°F11.0°C 40.0°F4.4°C 64% 12.4 mph SSW20.0 kmh SSW 18.0 mph29.0 kmh 29.85 in1010.8 mb 0.00 in0.0 mm 0.00 in0.0 mm 0.00 in0.0 mm
09:08 AM 51.8°F11.0°C 39.6°F4.2°C 63% 13.9 mph SSW22.4 kmh SSW 20.0 mph32.2 kmh 29.85 in1010.8 mb 0.00 in0.0 mm 0.00 in0.0 mm 0.00 in0.0 mm
09:09 AM 51.8°F11.0°C 40.0°F4.4°C 64% 12.7 mph SW20.4 kmh SW 20.0 mph32.2 kmh 29.86 in1011.2 mb 0.00 in0.0 mm 0.00 in0.0 mm 0.00 in0.0 mm
09:10 AM 51.8°F11.0°C 39.6°F4.2°C 63% 16.2 mph SSW26.1 kmh SSW 20.0 mph32.2 kmh 29.86 in1011.2 mb 0.00 in0.0 mm 0.00 in0.0 mm 0.00 in0.0 mm
09:11 AM 51.7°F10.9°C 39.5°F4.2°C 63% 14.7 mph SSW23.7 kmh SSW 20.0 mph32.2 kmh 29.86 in1011.2 mb 0.00 in0.0 mm 0.00 in0.0 mm 0.00 in0.0 mm
09:12 AM 51.7°F10.9°C 39.5°F4.2°C 63% 13.2 mph S21.2 kmh S 20.0 mph32.2 kmh 29.86 in1011.2 mb 0.00 in0.0 mm 0.00 in0.0 mm 0.00 in0.0 mm
09:13 AM 51.8°F11.0°C 40.0°F4.4°C 64% 10.8 mph SW17.4 kmh SW 19.0 mph30.6 kmh 29.86 in1011.2 mb 0.00 in0.0 mm 0.00 in0.0 mm 0.00 in0.0 mm
09:14 AM 51.8°F11.0°C 40.0°F4.4°C 64% 12.3 mph SSW19.8 kmh SSW 17.0 mph27.4 kmh 29.86 in1011.2 mb 0.00 in0.0 mm 0.00 in0.0 mm 0.00 in0.0 mm
09:15 AM 51.9°F11.1°C 40.1°F4.5°C 64% 12.7 mph SSW20.4 kmh SSW 17.0 mph27.4 kmh 29.86 in1011.2 mb 0.00 in0.0 mm 0.00 in0.0 mm 0.00 in0.0 mm
09:16 AM 51.8°F11.0°C 39.6°F4.2°C 63% 14.8 mph SSW23.8 kmh SSW 22.0 mph35.4 kmh 29.86 in1011.2 mb 0.00 in0.0 mm 0.00 in0.0 mm 0.00 in0.0 mm
09:17 AM 51.8°F11.0°C 39.6°F4.2°C 63% 14.9 mph SSW24.0 kmh SSW 22.0 mph35.4 kmh 29.86 in1011.2 mb 0.00 in0.0 mm 0.00 in0.0 mm 0.00 in0.0 mm
09:18 AM 51.9°F11.1°C 40.1°F4.5°C 64% 13.6 mph SW21.9 kmh SW 21.0 mph33.8 kmh 29.86 in1011.2 mb 0.00 in0.0 mm 0.00 in0.0 mm 0.00 in0.0 mm
09:19 AM 51.9°F11.1°C 39.7°F4.3°C 63% 18.6 mph SW29.9 kmh SW 21.0 mph33.8 kmh 29.86 in1011.2 mb 0.00 in0.0 mm 0.00 in0.0 mm 0.00 in0.0 mm
09:20 AM 51.8°F11.0°C 40.0°F4.4°C 64% 16.3 mph SW26.2 kmh SW 21.0 mph33.8 kmh 29.86 in1011.2 mb 0.00 in0.0 mm 0.00 in0.0 mm 0.00 in0.0 mm
09:21 AM 51.8°F11.0°C 40.0°F4.4°C 64% 15.4 mph SW24.8 kmh SW 20.0 mph32.2 kmh 29.86 in1011.2 mb 0.00 in0.0 mm 0.00 in0.0 mm 0.00 in0.0 mm
09:22 AM 51.8°F11.0°C 40.0°F4.4°C 64% 16.7 mph SW26.9 kmh SW 20.0 mph32.2 kmh 29.86 in1011.2 mb 0.00 in0.0 mm 0.00 in0.0 mm 0.00 in0.0 mm
09:23 AM 51.8°F11.0°C 40.0°F4.4°C 64% 13.3 mph SW21.4 kmh SW 19.0 mph30.6 kmh 29.86 in1011.2 mb 0.00 in0.0 mm 0.00 in0.0 mm 0.00 in0.0 mm
09:24 AM 51.9°F11.1°C 40.1°F4.5°C 64% 10.3 mph SW16.6 kmh SW 17.0 mph27.4 kmh 29.86 in1011.2 mb 0.00 in0.0 mm 0.00 in0.0 mm 0.00 in0.0 mm
09:25 AM 52.0°F11.1°C 40.6°F4.8°C 65% 12.7 mph SW20.4 kmh SW 15.0 mph24.1 kmh 29.86 in1011.2 mb 0.00 in0.0 mm 0.00 in0.0 mm 0.00 in0.0 mm
09:26 AM 52.1°F11.2°C 40.3°F4.6°C 64% 14.8 mph SW23.8 kmh SW 20.0 mph32.2 kmh 29.86 in1011.2 mb 0.00 in0.0 mm 0.00 in0.0 mm 0.00 in0.0 mm
09:27 AM 52.1°F11.2°C 40.7°F4.8°C 65% 12.4 mph SW20.0 kmh SW 20.0 mph32.2 kmh 29.86 in1011.2 mb 0.00 in0.0 mm 0.00 in0.0 mm 0.00 in0.0 mm
09:28 AM 52.2°F11.2°C 40.8°F4.9°C 65% 11.3 mph SW18.2 kmh SW 17.0 mph27.4 kmh 29.86 in1011.2 mb 0.00 in0.0 mm 0.00 in0.0 mm 0.00 in0.0 mm
09:29 AM 52.3°F11.3°C 40.5°F4.7°C 64% 11.3 mph SSW18.2 kmh SSW 19.0 mph30.6 kmh 29.86 in1011.2 mb 0.00 in0.0 mm 0.00 in0.0 mm 0.00 in0.0 mm
09:30 AM 52.4°F11.3°C 40.2°F4.6°C 63% 12.6 mph S20.3 kmh S 19.0 mph30.6 kmh 29.86 in1011.2 mb 0.00 in0.0 mm 0.00 in0.0 mm 0.00 in0.0 mm
09:31 AM 52.5°F11.4°C 40.7°F4.8°C 64% 9.5 mph SSW15.3 kmh SSW 17.0 mph27.4 kmh 29.86 in1011.2 mb 0.00 in0.0 mm 0.00 in0.0 mm 0.00 in0.0 mm
09:32 AM 52.5°F11.4°C 40.3°F4.6°C 63% 12.4 mph SW20.0 kmh SW 17.0 mph27.4 kmh 29.86 in1011.2 mb 0.00 in0.0 mm 0.00 in0.0 mm 0.00 in0.0 mm
09:33 AM 52.7°F11.5°C 40.9°F4.9°C 64% 11.2 mph SW18.0 kmh SW 17.0 mph27.4 kmh 29.86 in1011.2 mb 0.00 in0.0 mm 0.00 in0.0 mm 0.00 in0.0 mm
09:34 AM 52.7°F11.5°C 40.5°F4.7°C 63% 16.3 mph SSW26.2 kmh SSW 20.0 mph32.2 kmh 29.86 in1011.2 mb 0.00 in0.0 mm 0.00 in0.0 mm 0.00 in0.0 mm
09:35 AM 52.5°F11.4°C 39.9°F4.4°C 62% 14.9 mph SSW24.0 kmh SSW 20.0 mph32.2 kmh 29.86 in1011.2 mb 0.00 in0.0 mm 0.00 in0.0 mm 0.00 in0.0 mm
09:36 AM 52.6°F11.4°C 40.0°F4.4°C 62% 13.3 mph SSW21.4 kmh SSW 20.0 mph32.2 kmh 29.86 in1011.2 mb 0.00 in0.0 mm 0.00 in0.0 mm 0.00 in0.0 mm
09:37 AM 52.6°F11.4°C 40.0°F4.4°C 62% 12.7 mph SSW20.4 kmh SSW 19.0 mph30.6 kmh 29.86 in1011.2 mb 0.00 in0.0 mm 0.00 in0.0 mm 0.00 in0.0 mm
09:38 AM 52.5°F11.4°C 39.9°F4.4°C 62% 13.3 mph SSW21.4 kmh SSW 18.0 mph29.0 kmh 29.86 in1011.2 mb 0.00 in0.0 mm 0.00 in0.0 mm 0.00 in0.0 mm
09:39 AM 52.5°F11.4°C 39.9°F4.4°C 62% 12.5 mph SSW20.1 kmh SSW 16.0 mph25.7 kmh 29.86 in1011.2 mb 0.00 in0.0 mm 0.00 in0.0 mm 0.00 in0.0 mm
09:40 AM 52.5°F11.4°C 40.3°F4.6°C 63% 11.6 mph SSW18.7 kmh SSW 16.0 mph25.7 kmh 29.86 in1011.2 mb 0.00 in0.0 mm 0.00 in0.0 mm 0.00 in0.0 mm
09:41 AM 52.6°F11.4°C 40.8°F4.9°C 64% 10.2 mph S16.4 kmh S 15.0 mph24.1 kmh 29.86 in1011.2 mb 0.00 in0.0 mm 0.00 in0.0 mm 0.00 in0.0 mm
09:42 AM 52.8°F11.6°C 41.0°F5.0°C 64% 14.3 mph SSW23.0 kmh SSW 18.0 mph29.0 kmh 29.86 in1011.2 mb 0.00 in0.0 mm 0.00 in0.0 mm 0.00 in0.0 mm
09:43 AM 52.8°F11.6°C 40.1°F4.5°C 62% 14.5 mph SSW23.3 kmh SSW 21.0 mph33.8 kmh 29.86 in1011.2 mb 0.00 in0.0 mm 0.00 in0.0 mm 0.00 in0.0 mm
09:44 AM 52.8°F11.6°C 40.6°F4.8°C 63% 10.1 mph SSW16.3 kmh SSW 21.0 mph33.8 kmh 29.86 in1011.2 mb 0.00 in0.0 mm 0.00 in0.0 mm 0.00 in0.0 mm
09:45 AM 52.9°F11.6°C 40.2°F4.6°C 62% 14.3 mph SSW23.0 kmh SSW 19.0 mph30.6 kmh 29.86 in1011.2 mb 0.00 in0.0 mm 0.00 in0.0 mm 0.00 in0.0 mm
09:46 AM 52.8°F11.6°C 40.1°F4.5°C 62% 15.7 mph SSW25.3 kmh SSW 22.0 mph35.4 kmh 29.86 in1011.2 mb 0.00 in0.0 mm 0.00 in0.0 mm 0.00 in0.0 mm
09:47 AM 52.8°F11.6°C 40.1°F4.5°C 62% 12.2 mph SSW19.6 kmh SSW 22.0 mph35.4 kmh 29.86 in1011.2 mb 0.00 in0.0 mm 0.00 in0.0 mm 0.00 in0.0 mm
09:48 AM 53.0°F11.7°C 40.7°F4.8°C 63% 9.8 mph S15.8 kmh S 18.0 mph29.0 kmh 29.86 in1011.2 mb 0.00 in0.0 mm 0.00 in0.0 mm 0.00 in0.0 mm
09:49 AM 53.1°F11.7°C 40.4°F4.7°C 62% 10.9 mph SSW17.5 kmh SSW 14.0 mph22.5 kmh 29.86 in1011.2 mb 0.00 in0.0 mm 0.00 in0.0 mm 0.00 in0.0 mm
09:50 AM 53.2°F11.8°C 40.5°F4.7°C 62% 12.1 mph SSW19.5 kmh SSW 17.0 mph27.4 kmh 29.86 in1011.2 mb 0.00 in0.0 mm 0.00 in0.0 mm 0.00 in0.0 mm
09:51 AM 53.2°F11.8°C 40.1°F4.5°C 61% 15.0 mph SSW24.1 kmh SSW 19.0 mph30.6 kmh 29.86 in1011.2 mb 0.00 in0.0 mm 0.00 in0.0 mm 0.00 in0.0 mm
09:52 AM 53.2°F11.8°C 40.5°F4.7°C 62% 11.8 mph SW19.0 kmh SW 19.0 mph30.6 kmh 29.86 in1011.2 mb 0.00 in0.0 mm 0.00 in0.0 mm 0.00 in0.0 mm
09:53 AM 53.3°F11.8°C 40.2°F4.6°C 61% 9.8 mph SW15.8 kmh SW 17.0 mph27.4 kmh 29.86 in1011.2 mb 0.00 in0.0 mm 0.00 in0.0 mm 0.00 in0.0 mm
09:54 AM 53.3°F11.8°C 40.2°F4.6°C 61% 12.7 mph SW20.4 kmh SW 15.0 mph24.1 kmh 29.86 in1011.2 mb 0.00 in0.0 mm 0.00 in0.0 mm 0.00 in0.0 mm
09:55 AM 53.4°F11.9°C 40.3°F4.6°C 61% 11.7 mph SW18.8 kmh SW 18.0 mph29.0 kmh 29.86 in1011.2 mb 0.00 in0.0 mm 0.00 in0.0 mm 0.00 in0.0 mm
09:56 AM 53.5°F11.9°C 40.8°F4.9°C 62% 11.4 mph SSW18.3 kmh SSW 18.0 mph29.0 kmh 29.86 in1011.2 mb 0.00 in0.0 mm 0.00 in0.0 mm 0.00 in0.0 mm
09:57 AM 53.6°F12.0°C 40.5°F4.7°C 61% 10.2 mph SSW16.4 kmh SSW 17.0 mph27.4 kmh 29.86 in1011.2 mb 0.00 in0.0 mm 0.00 in0.0 mm 0.00 in0.0 mm
09:58 AM 53.7°F12.1°C 39.3°F4.1°C 58% 13.4 mph SSW21.6 kmh SSW 17.0 mph27.4 kmh 29.86 in1011.2 mb 0.00 in0.0 mm 0.00 in0.0 mm 0.00 in0.0 mm
09:59 AM 53.7°F12.1°C 38.8°F3.8°C 57% 11.3 mph SSW18.2 kmh SSW 16.0 mph25.7 kmh 29.86 in1011.2 mb 0.00 in0.0 mm 0.00 in0.0 mm 0.00 in0.0 mm
10:00 AM 53.8°F12.1°C 39.8°F4.3°C 59% 10.1 mph SW16.3 kmh SW 16.0 mph25.7 kmh 29.86 in1011.2 mb 0.00 in0.0 mm 0.00 in0.0 mm 0.00 in0.0 mm
10:01 AM 53.9°F12.2°C 39.5°F4.2°C 58% 11.5 mph S18.5 kmh S 18.0 mph29.0 kmh 29.86 in1011.2 mb 0.00 in0.0 mm 0.00 in0.0 mm 0.00 in0.0 mm
10:02 AM 53.9°F12.2°C 38.6°F3.7°C 56% 12.0 mph SSW19.3 kmh SSW 18.0 mph29.0 kmh 29.86 in1011.2 mb 0.00 in0.0 mm 0.00 in0.0 mm 0.00 in0.0 mm
10:03 AM 53.9°F12.2°C 39.5°F4.2°C 58% 9.5 mph SW15.3 kmh SW 17.0 mph27.4 kmh 29.86 in1011.2 mb 0.00 in0.0 mm 0.00 in0.0 mm 0.00 in0.0 mm
10:04 AM 54.0°F12.2°C 38.7°F3.7°C 56% 11.6 mph S18.7 kmh S 16.0 mph25.7 kmh 29.86 in1011.2 mb 0.00 in0.0 mm 0.00 in0.0 mm 0.00 in0.0 mm
10:05 AM 54.0°F12.2°C 38.2°F3.4°C 55% 11.1 mph SSW17.9 kmh SSW 16.0 mph25.7 kmh 29.86 in1011.2 mb 0.00 in0.0 mm 0.00 in0.0 mm 0.00 in0.0 mm
10:06 AM 54.0°F12.2°C 38.2°F3.4°C 55% 12.9 mph SSW20.8 kmh SSW 23.0 mph37.0 kmh 29.86 in1011.2 mb 0.00 in0.0 mm 0.00 in0.0 mm 0.00 in0.0 mm
10:07 AM 54.0°F12.2°C 37.7°F3.2°C 54% 12.1 mph S19.5 kmh S 23.0 mph37.0 kmh 29.86 in1011.2 mb 0.00 in0.0 mm 0.00 in0.0 mm 0.00 in0.0 mm
10:08 AM 54.0°F12.2°C 37.7°F3.2°C 54% 12.4 mph SSW20.0 kmh SSW 18.0 mph29.0 kmh 29.86 in1011.2 mb 0.00 in0.0 mm 0.00 in0.0 mm 0.00 in0.0 mm
10:09 AM 54.1°F12.3°C 37.8°F3.2°C 54% 14.0 mph SSW22.5 kmh SSW 18.0 mph29.0 kmh 29.86 in1011.2 mb 0.00 in0.0 mm 0.00 in0.0 mm 0.00 in0.0 mm
10:10 AM 54.1°F12.3°C 37.4°F3.0°C 53% 13.7 mph SW22.0 kmh SW 17.0 mph27.4 kmh 29.86 in1011.2 mb 0.00 in0.0 mm 0.00 in0.0 mm 0.00 in0.0 mm
10:11 AM 54.0°F12.2°C 37.7°F3.2°C 54% 11.7 mph SSW18.8 kmh SSW 17.0 mph27.4 kmh 29.86 in1011.2 mb 0.00 in0.0 mm 0.00 in0.0 mm 0.00 in0.0 mm
10:12 AM 54.1°F12.3°C 37.4°F3.0°C 53% 11.4 mph SSW18.3 kmh SSW 16.0 mph25.7 kmh 29.86 in1011.2 mb 0.00 in0.0 mm 0.00 in0.0 mm 0.00 in0.0 mm
10:13 AM 54.1°F12.3°C 37.8°F3.2°C 54% 13.5 mph SSW21.7 kmh SSW 21.0 mph33.8 kmh 29.86 in1011.2 mb 0.00 in0.0 mm 0.00 in0.0 mm 0.00 in0.0 mm
10:14 AM 54.1°F12.3°C 37.4°F3.0°C 53% 15.7 mph SW25.3 kmh SW 23.0 mph37.0 kmh 29.86 in1011.2 mb 0.00 in0.0 mm 0.00 in0.0 mm 0.00 in0.0 mm
10:15 AM 54.1°F12.3°C 37.4°F3.0°C 53% 11.6 mph SSW18.7 kmh SSW 23.0 mph37.0 kmh 29.86 in1011.2 mb 0.00 in0.0 mm 0.00 in0.0 mm 0.00 in0.0 mm
10:16 AM 54.2°F12.3°C 37.9°F3.3°C 54% 8.0 mph SW12.9 kmh SW 17.0 mph27.4 kmh 29.86 in1011.2 mb 0.00 in0.0 mm 0.00 in0.0 mm 0.00 in0.0 mm
10:17 AM 54.3°F12.4°C 38.0°F3.3°C 54% 10.7 mph SW17.2 kmh SW 14.0 mph22.5 kmh 29.86 in1011.2 mb 0.00 in0.0 mm 0.00 in0.0 mm 0.00 in0.0 mm
10:18 AM 54.4°F12.4°C 38.6°F3.7°C 55% 11.0 mph SW17.7 kmh SW 15.0 mph24.1 kmh 29.86 in1011.2 mb 0.00 in0.0 mm 0.00 in0.0 mm 0.00 in0.0 mm
10:19 AM 54.6°F12.6°C 39.2°F4.0°C 56% 8.3 mph SSW13.4 kmh SSW 15.0 mph24.1 kmh 29.86 in1011.2 mb 0.00 in0.0 mm 0.00 in0.0 mm 0.00 in0.0 mm
10:20 AM 54.7°F12.6°C 39.8°F4.3°C 57% 11.4 mph SSW18.3 kmh SSW 20.0 mph32.2 kmh 29.86 in1011.2 mb 0.00 in0.0 mm 0.00 in0.0 mm 0.00 in0.0 mm
10:21 AM 54.7°F12.6°C 38.9°F3.8°C 55% 13.3 mph S21.4 kmh S 20.0 mph32.2 kmh 29.86 in1011.2 mb 0.00 in0.0 mm 0.00 in0.0 mm 0.00 in0.0 mm
10:22 AM 54.8°F12.7°C 39.4°F4.1°C 56% 9.3 mph S15.0 kmh S 18.0 mph29.0 kmh 29.86 in1011.2 mb 0.00 in0.0 mm 0.00 in0.0 mm 0.00 in0.0 mm
10:23 AM 54.9°F12.7°C 39.5°F4.2°C 56% 9.9 mph S15.9 kmh S 15.0 mph24.1 kmh 29.86 in1011.2 mb 0.00 in0.0 mm 0.00 in0.0 mm 0.00 in0.0 mm
10:24 AM 54.9°F12.7°C 38.6°F3.7°C 54% 11.3 mph SSW18.2 kmh SSW 14.0 mph22.5 kmh 29.86 in1011.2 mb 0.00 in0.0 mm 0.00 in0.0 mm 0.00 in0.0 mm
10:25 AM 54.9°F12.7°C 38.6°F3.7°C 54% 13.0 mph SSW20.9 kmh SSW 18.0 mph29.0 kmh 29.85 in1010.8 mb 0.00 in0.0 mm 0.00 in0.0 mm 0.00 in0.0 mm
10:26 AM 54.8°F12.7°C 38.5°F3.6°C 54% 13.0 mph S20.9 kmh S 21.0 mph33.8 kmh 29.86 in1011.2 mb 0.00 in0.0 mm 0.00 in0.0 mm 0.00 in0.0 mm
10:27 AM 54.9°F12.7°C 39.0°F3.9°C 55% 9.9 mph SSW15.9 kmh SSW 21.0 mph33.8 kmh 29.86 in1011.2 mb 0.00 in0.0 mm 0.00 in0.0 mm 0.00 in0.0 mm
10:28 AM 54.9°F12.7°C 38.6°F3.7°C 54% 11.2 mph S18.0 kmh S 16.0 mph25.7 kmh 29.85 in1010.8 mb 0.00 in0.0 mm 0.00 in0.0 mm 0.00 in0.0 mm
10:29 AM 54.9°F12.7°C 38.6°F3.7°C 54% 13.3 mph SSW21.4 kmh SSW 16.0 mph25.7 kmh 29.86 in1011.2 mb 0.00 in0.0 mm 0.00 in0.0 mm 0.00 in0.0 mm
10:30 AM 54.9°F12.7°C 38.6°F3.7°C 54% 11.9 mph S19.2 kmh S 19.0 mph30.6 kmh 29.86 in1011.2 mb 0.00 in0.0 mm 0.00 in0.0 mm 0.00 in0.0 mm
10:31 AM 54.9°F12.7°C 39.0°F3.9°C 55% 10.2 mph S16.4 kmh S 19.0 mph30.6 kmh 29.85 in1010.8 mb 0.00 in0.0 mm 0.00 in0.0 mm 0.00 in0.0 mm
10:32 AM 54.9°F12.7°C 39.0°F3.9°C 55% 10.1 mph S16.3 kmh S 17.0 mph27.4 kmh 29.85 in1010.8 mb 0.00 in0.0 mm 0.00 in0.0 mm 0.00 in0.0 mm
10:33 AM 55.0°F12.8°C 39.1°F3.9°C 55% 11.4 mph S18.3 kmh S 18.0 mph29.0 kmh 29.86 in1011.2 mb 0.00 in0.0 mm 0.00 in0.0 mm 0.00 in0.0 mm
10:34 AM 55.1°F12.8°C 39.7°F4.3°C 56% 9.5 mph S15.3 kmh S 18.0 mph29.0 kmh 29.86 in1011.2 mb 0.00 in0.0 mm 0.00 in0.0 mm 0.00 in0.0 mm
10:35 AM 55.1°F12.8°C 39.2°F4.0°C 55% 12.2 mph S19.6 kmh S 15.0 mph24.1 kmh 29.85 in1010.8 mb 0.00 in0.0 mm 0.00 in0.0 mm 0.00 in0.0 mm
10:36 AM 55.1°F12.8°C 39.7°F4.3°C 56% 11.1 mph S17.9 kmh S 15.0 mph24.1 kmh 29.85 in1010.8 mb 0.00 in0.0 mm 0.00 in0.0 mm 0.00 in0.0 mm
10:37 AM 55.1°F12.8°C 39.2°F4.0°C 55% 11.7 mph SSW18.8 kmh SSW 16.0 mph25.7 kmh 29.85 in1010.8 mb 0.00 in0.0 mm 0.00 in0.0 mm 0.00 in0.0 mm
10:38 AM 55.1°F12.8°C 39.2°F4.0°C 55% 12.0 mph S19.3 kmh S 24.0 mph38.6 kmh 29.85 in1010.8 mb 0.00 in0.0 mm 0.00 in0.0 mm 0.00 in0.0 mm
10:39 AM 55.2°F12.9°C 39.8°F4.3°C 56% 13.6 mph SW21.9 kmh SW 24.0 mph38.6 kmh 29.85 in1010.8 mb 0.00 in0.0 mm 0.00 in0.0 mm 0.00 in0.0 mm
10:40 AM 55.2°F12.9°C 38.4°F3.6°C 53% 11.3 mph SW18.2 kmh SW 19.0 mph30.6 kmh 29.85 in1010.8 mb 0.00 in0.0 mm 0.00 in0.0 mm 0.00 in0.0 mm
10:41 AM 55.1°F12.8°C 38.8°F3.8°C 54% 16.1 mph SSW25.9 kmh SSW 22.0 mph35.4 kmh 29.86 in1011.2 mb 0.00 in0.0 mm 0.00 in0.0 mm 0.00 in0.0 mm
10:42 AM 55.1°F12.8°C 38.3°F3.5°C 53% 13.3 mph SSW21.4 kmh SSW 22.0 mph35.4 kmh 29.85 in1010.8 mb 0.00 in0.0 mm 0.00 in0.0 mm 0.00 in0.0 mm
10:43 AM 55.1°F12.8°C 38.8°F3.8°C 54% 9.5 mph SSW15.3 kmh SSW 19.0 mph30.6 kmh 29.86 in1011.2 mb 0.00 in0.0 mm 0.00 in0.0 mm 0.00 in0.0 mm
10:44 AM 55.2°F12.9°C 38.8°F3.8°C 54% 9.6 mph SSW15.4 kmh SSW 13.0 mph20.9 kmh 29.86 in1011.2 mb 0.00 in0.0 mm 0.00 in0.0 mm 0.00 in0.0 mm
10:45 AM 55.3°F12.9°C 38.9°F3.8°C 54% 11.4 mph SSW18.3 kmh SSW 15.0 mph24.1 kmh 29.86 in1011.2 mb 0.00 in0.0 mm 0.00 in0.0 mm 0.00 in0.0 mm
10:46 AM 55.4°F13.0°C 39.0°F3.9°C 54% 9.5 mph S15.3 kmh S 17.0 mph27.4 kmh 29.86 in1011.2 mb 0.00 in0.0 mm 0.00 in0.0 mm 0.00 in0.0 mm
10:47 AM 55.6°F13.1°C 40.2°F4.6°C 56% 10.7 mph SSW17.2 kmh SSW 17.0 mph27.4 kmh 29.85 in1010.8 mb 0.00 in0.0 mm 0.00 in0.0 mm 0.00 in0.0 mm
10:48 AM 55.6°F13.1°C 39.7°F4.3°C 55% 10.8 mph S17.4 kmh S 16.0 mph25.7 kmh 29.85 in1010.8 mb 0.00 in0.0 mm 0.00 in0.0 mm 0.00 in0.0 mm
10:49 AM 55.6°F13.1°C 38.7°F3.7°C 53% 10.9 mph S17.5 kmh S 16.0 mph25.7 kmh 29.86 in1011.2 mb 0.00 in0.0 mm 0.00 in0.0 mm 0.00 in0.0 mm
10:50 AM 55.6°F13.1°C 38.7°F3.7°C 53% 9.4 mph S15.1 kmh S 16.0 mph25.7 kmh 29.85 in1010.8 mb 0.00 in0.0 mm 0.00 in0.0 mm 0.00 in0.0 mm
10:51 AM 55.4°F13.0°C 38.6°F3.7°C 53% 15.8 mph S25.4 kmh S 22.0 mph35.4 kmh 29.86 in1011.2 mb 0.00 in0.0 mm 0.00 in0.0 mm 0.00 in0.0 mm
10:52 AM 55.3°F12.9°C 38.5°F3.6°C 53% 10.3 mph S16.6 kmh S 22.0 mph35.4 kmh 29.85 in1010.8 mb 0.00 in0.0 mm 0.00 in0.0 mm 0.00 in0.0 mm
10:53 AM 55.1°F12.8°C 39.2°F4.0°C 55% 10.0 mph SSW16.1 kmh SSW 15.0 mph24.1 kmh 29.85 in1010.8 mb 0.00 in0.0 mm 0.00 in0.0 mm 0.00 in0.0 mm
10:54 AM 55.1°F12.8°C 39.2°F4.0°C 55% 8.1 mph SSW13.0 kmh SSW 13.0 mph20.9 kmh 29.85 in1010.8 mb 0.00 in0.0 mm 0.00 in0.0 mm 0.00 in0.0 mm
10:55 AM 55.2°F12.9°C 39.8°F4.3°C 56% 9.8 mph S15.8 kmh S 17.0 mph27.4 kmh 29.86 in1011.2 mb 0.00 in0.0 mm 0.00 in0.0 mm 0.00 in0.0 mm
10:56 AM 55.2°F12.9°C 39.3°F4.1°C 55% 11.8 mph SSW19.0 kmh SSW 17.0 mph27.4 kmh 29.86 in1011.2 mb 0.00 in0.0 mm 0.00 in0.0 mm 0.00 in0.0 mm
10:57 AM 55.2°F12.9°C 38.8°F3.8°C 54% 12.6 mph S20.3 kmh S 18.0 mph29.0 kmh 29.85 in1010.8 mb 0.00 in0.0 mm 0.00 in0.0 mm 0.00 in0.0 mm
10:58 AM 55.1°F12.8°C 38.8°F3.8°C 54% 13.0 mph SSW20.9 kmh SSW 18.0 mph29.0 kmh 29.85 in1010.8 mb 0.00 in0.0 mm 0.00 in0.0 mm 0.00 in0.0 mm
10:59 AM 55.1°F12.8°C 38.3°F3.5°C 53% 12.9 mph SSW20.8 kmh SSW 20.0 mph32.2 kmh 29.85 in1010.8 mb 0.00 in0.0 mm 0.00 in0.0 mm 0.00 in0.0 mm
11:00 AM 55.0°F12.8°C 38.2°F3.4°C 53% 11.9 mph SSW19.2 kmh SSW 20.0 mph32.2 kmh 29.85 in1010.8 mb 0.00 in0.0 mm 0.00 in0.0 mm 0.00 in0.0 mm
11:01 AM 55.0°F12.8°C 38.7°F3.7°C 54% 13.5 mph SSW21.7 kmh SSW 18.0 mph29.0 kmh 29.85 in1010.8 mb 0.00 in0.0 mm 0.00 in0.0 mm 0.00 in0.0 mm
11:02 AM 55.0°F12.8°C 38.2°F3.4°C 53% 10.5 mph S16.9 kmh S 18.0 mph29.0 kmh 29.86 in1011.2 mb 0.00 in0.0 mm 0.00 in0.0 mm 0.00 in0.0 mm
11:03 AM 55.0°F12.8°C 39.1°F3.9°C 55% 13.2 mph S21.2 kmh S 17.0 mph27.4 kmh 29.85 in1010.8 mb 0.00 in0.0 mm 0.00 in0.0 mm 0.00 in0.0 mm
11:04 AM 54.9°F12.7°C 38.1°F3.4°C 53% 12.3 mph SSW19.8 kmh SSW 17.0 mph27.4 kmh 29.85 in1010.8 mb 0.00 in0.0 mm 0.00 in0.0 mm 0.00 in0.0 mm
11:05 AM 54.9°F12.7°C 38.6°F3.7°C 54% 9.9 mph SSW15.9 kmh SSW 16.0 mph25.7 kmh 29.85 in1010.8 mb 0.00 in0.0 mm 0.00 in0.0 mm 0.00 in0.0 mm
11:06 AM 54.9°F12.7°C 39.0°F3.9°C 55% 8.1 mph S13.0 kmh S 13.0 mph20.9 kmh 29.85 in1010.8 mb 0.00 in0.0 mm 0.00 in0.0 mm 0.00 in0.0 mm
11:07 AM 54.8°F12.7°C 38.9°F3.8°C 55% 11.0 mph S17.7 kmh S 16.0 mph25.7 kmh 29.85 in1010.8 mb 0.00 in0.0 mm 0.00 in0.0 mm 0.00 in0.0 mm
11:08 AM 54.8°F12.7°C 38.9°F3.8°C 55% 8.0 mph S12.9 kmh S 16.0 mph25.7 kmh 29.85 in1010.8 mb 0.00 in0.0 mm 0.00 in0.0 mm 0.00 in0.0 mm
11:09 AM 54.7°F12.6°C 38.9°F3.8°C 55% 10.8 mph S17.4 kmh S 15.0 mph24.1 kmh 29.85 in1010.8 mb 0.00 in0.0 mm 0.00 in0.0 mm 0.00 in0.0 mm
11:10 AM 54.6°F12.6°C 38.3°F3.5°C 54% 10.8 mph SSW17.4 kmh SSW 15.0 mph24.1 kmh 29.85 in1010.8 mb 0.00 in0.0 mm 0.00 in0.0 mm 0.00 in0.0 mm
11:11 AM 54.6°F12.6°C 38.3°F3.5°C 54% 13.2 mph SSW21.2 kmh SSW 19.0 mph30.6 kmh 29.85 in1010.8 mb 0.00 in0.0 mm 0.00 in0.0 mm 0.00 in0.0 mm
11:12 AM 54.5°F12.5°C 38.7°F3.7°C 55% 9.9 mph S15.9 kmh S 19.0 mph30.6 kmh 29.85 in1010.8 mb 0.00 in0.0 mm 0.00 in0.0 mm 0.00 in0.0 mm
11:13 AM 54.6°F12.6°C 38.8°F3.8°C 55% 8.8 mph S14.2 kmh S 16.0 mph25.7 kmh 29.85 in1010.8 mb 0.00 in0.0 mm 0.00 in0.0 mm 0.00 in0.0 mm
11:14 AM 54.7°F12.6°C 38.9°F3.8°C 55% 10.3 mph S16.6 kmh S 14.0 mph22.5 kmh 29.85 in1010.8 mb 0.00 in0.0 mm 0.00 in0.0 mm 0.00 in0.0 mm
11:15 AM 54.8°F12.7°C 38.9°F3.8°C 55% 12.4 mph S20.0 kmh S 17.0 mph27.4 kmh 29.85 in1010.8 mb 0.00 in0.0 mm 0.00 in0.0 mm 0.00 in0.0 mm
11:16 AM 54.9°F12.7°C 38.6°F3.7°C 54% 11.2 mph S18.0 kmh S 17.0 mph27.4 kmh 29.85 in1010.8 mb 0.00 in0.0 mm 0.00 in0.0 mm 0.00 in0.0 mm
11:17 AM 54.9°F12.7°C 38.1°F3.4°C 53% 11.6 mph S18.7 kmh S 16.0 mph25.7 kmh 29.85 in1010.8 mb 0.00 in0.0 mm 0.00 in0.0 mm 0.00 in0.0 mm
11:18 AM 54.8°F12.7°C 38.0°F3.3°C 53% 10.4 mph S16.7 kmh S 16.0 mph25.7 kmh 29.85 in1010.8 mb 0.00 in0.0 mm 0.00 in0.0 mm 0.00 in0.0 mm
11:19 AM 54.8°F12.7°C 38.5°F3.6°C 54% 14.7 mph S23.7 kmh S 19.0 mph30.6 kmh 29.85 in1010.8 mb 0.00 in0.0 mm 0.00 in0.0 mm 0.00 in0.0 mm
11:20 AM 54.8°F12.7°C 38.5°F3.6°C 54% 13.6 mph S21.9 kmh S 19.0 mph30.6 kmh 29.85 in1010.8 mb 0.00 in0.0 mm 0.00 in0.0 mm 0.00 in0.0 mm
11:21 AM 54.8°F12.7°C 38.5°F3.6°C 54% 12.2 mph S19.6 kmh S 17.0 mph27.4 kmh 29.85 in1010.8 mb 0.00 in0.0 mm 0.00 in0.0 mm 0.00 in0.0 mm
11:22 AM 54.8°F12.7°C 38.5°F3.6°C 54% 12.2 mph S19.6 kmh S 18.0 mph29.0 kmh 29.85 in1010.8 mb 0.00 in0.0 mm 0.00 in0.0 mm 0.00 in0.0 mm
11:23 AM 54.9°F12.7°C 39.0°F3.9°C 55% 10.6 mph S17.1 kmh S 18.0 mph29.0 kmh 29.85 in1010.8 mb 0.00 in0.0 mm 0.00 in0.0 mm 0.00 in0.0 mm
11:24 AM 55.1°F12.8°C 39.2°F4.0°C 55% 10.1 mph S16.3 kmh S 16.0 mph25.7 kmh 29.85 in1010.8 mb 0.00 in0.0 mm 0.00 in0.0 mm 0.00 in0.0 mm
11:25 AM 55.3°F12.9°C 39.4°F4.1°C 55% 11.7 mph S18.8 kmh S 17.0 mph27.4 kmh 29.85 in1010.8 mb 0.00 in0.0 mm 0.00 in0.0 mm 0.00 in0.0 mm
11:26 AM 55.3°F12.9°C 38.5°F3.6°C 53% 12.4 mph S20.0 kmh S 17.0 mph27.4 kmh 29.85 in1010.8 mb 0.00 in0.0 mm 0.00 in0.0 mm 0.00 in0.0 mm
11:27 AM 55.5°F13.1°C 39.1°F3.9°C 54% 10.9 mph SSW17.5 kmh SSW 17.0 mph27.4 kmh 29.85 in1010.8 mb 0.00 in0.0 mm 0.00 in0.0 mm 0.00 in0.0 mm
11:28 AM 55.5°F13.1°C 38.6°F3.7°C 53% 11.0 mph SW17.7 kmh SW 15.0 mph24.1 kmh 29.85 in1010.8 mb 0.00 in0.0 mm 0.00 in0.0 mm 0.00 in0.0 mm
11:29 AM 55.5°F13.1°C 38.6°F3.7°C 53% 10.6 mph S17.1 kmh S 19.0 mph30.6 kmh 29.85 in1010.8 mb 0.00 in0.0 mm 0.00 in0.0 mm 0.00 in0.0 mm
11:30 AM 55.6°F13.1°C 38.7°F3.7°C 53% 9.4 mph S15.1 kmh S 19.0 mph30.6 kmh 29.85 in1010.8 mb 0.00 in0.0 mm 0.00 in0.0 mm 0.00 in0.0 mm
11:31 AM 55.6°F13.1°C 39.2°F4.0°C 54% 9.2 mph S14.8 kmh S 16.0 mph25.7 kmh 29.85 in1010.8 mb 0.00 in0.0 mm 0.00 in0.0 mm 0.00 in0.0 mm
11:32 AM 55.7°F13.2°C 38.8°F3.8°C 53% 12.2 mph S19.6 kmh S 18.0 mph29.0 kmh 29.85 in1010.8 mb 0.00 in0.0 mm 0.00 in0.0 mm 0.00 in0.0 mm
11:33 AM 55.7°F13.2°C 38.8°F3.8°C 53% 10.7 mph S17.2 kmh S 18.0 mph29.0 kmh 29.85 in1010.8 mb 0.00 in0.0 mm 0.00 in0.0 mm 0.00 in0.0 mm
11:34 AM 55.8°F13.2°C 38.9°F3.8°C 53% 7.8 mph S12.6 kmh S 18.0 mph29.0 kmh 29.85 in1010.8 mb 0.00 in0.0 mm 0.00 in0.0 mm 0.00 in0.0 mm
11:35 AM 55.9°F13.3°C 39.0°F3.9°C 53% 11.1 mph S17.9 kmh S 15.0 mph24.1 kmh 29.85 in1010.8 mb 0.00 in0.0 mm 0.00 in0.0 mm 0.00 in0.0 mm
11:36 AM 56.0°F13.3°C 39.1°F3.9°C 53% 10.2 mph S16.4 kmh S 17.0 mph27.4 kmh 29.85 in1010.8 mb 0.00 in0.0 mm 0.00 in0.0 mm 0.00 in0.0 mm
11:37 AM 56.0°F13.3°C 38.6°F3.7°C 52% 11.7 mph SSW18.8 kmh SSW 17.0 mph27.4 kmh 29.85 in1010.8 mb 0.00 in0.0 mm 0.00 in0.0 mm 0.00 in0.0 mm
11:38 AM 56.1°F13.4°C 37.7°F3.2°C 50% 13.3 mph S21.4 kmh S 20.0 mph32.2 kmh 29.85 in1010.8 mb 0.00 in0.0 mm 0.00 in0.0 mm 0.00 in0.0 mm
11:39 AM 56.2°F13.4°C 38.3°F3.5°C 51% 18.1 mph S29.1 kmh S 25.0 mph40.2 kmh 29.85 in1010.8 mb 0.00 in0.0 mm 0.00 in0.0 mm 0.00 in0.0 mm
11:40 AM 56.0°F13.3°C 38.6°F3.7°C 52% 13.7 mph S22.0 kmh S 25.0 mph40.2 kmh 29.85 in1010.8 mb 0.00 in0.0 mm 0.00 in0.0 mm 0.00 in0.0 mm
11:41 AM 56.0°F13.3°C 37.6°F3.1°C 50% 15.4 mph SSW24.8 kmh SSW 20.0 mph32.2 kmh 29.85 in1010.8 mb 0.00 in0.0 mm 0.00 in0.0 mm 0.00 in0.0 mm
11:42 AM 56.0°F13.3°C 38.6°F3.7°C 52% 10.9 mph S17.5 kmh S 20.0 mph32.2 kmh 29.85 in1010.8 mb 0.00 in0.0 mm 0.00 in0.0 mm 0.00 in0.0 mm
11:43 AM 56.0°F13.3°C 38.1°F3.4°C 51% 11.3 mph SSW18.2 kmh SSW 17.0 mph27.4 kmh 29.85 in1010.8 mb 0.00 in0.0 mm 0.00 in0.0 mm 0.00 in0.0 mm
11:44 AM 56.0°F13.3°C 38.1°F3.4°C 51% 11.7 mph S18.8 kmh S 18.0 mph29.0 kmh 29.85 in1010.8 mb 0.00 in0.0 mm 0.00 in0.0 mm 0.00 in0.0 mm
11:45 AM 56.0°F13.3°C 37.6°F3.1°C 50% 12.6 mph S20.3 kmh S 18.0 mph29.0 kmh 29.85 in1010.8 mb 0.00 in0.0 mm 0.00 in0.0 mm 0.00 in0.0 mm
11:46 AM 56.0°F13.3°C 38.1°F3.4°C 51% 11.0 mph S17.7 kmh S 18.0 mph29.0 kmh 29.85 in1010.8 mb 0.00 in0.0 mm 0.00 in0.0 mm 0.00 in0.0 mm
11:47 AM 56.1°F13.4°C 38.2°F3.4°C 51% 11.0 mph S17.7 kmh S 18.0 mph29.0 kmh 29.85 in1010.8 mb 0.00 in0.0 mm 0.00 in0.0 mm 0.00 in0.0 mm
11:48 AM 56.2°F13.4°C 38.3°F3.5°C 51% 11.0 mph S17.7 kmh S 17.0 mph27.4 kmh 29.85 in1010.8 mb 0.00 in0.0 mm 0.00 in0.0 mm 0.00 in0.0 mm
11:49 AM 56.2°F13.4°C 39.3°F4.1°C 53% 8.0 mph S12.9 kmh S 17.0 mph27.4 kmh 29.85 in1010.8 mb 0.00 in0.0 mm 0.00 in0.0 mm 0.00 in0.0 mm
11:50 AM 56.2°F13.4°C 38.8°F3.8°C 52% 11.6 mph S18.7 kmh S 15.0 mph24.1 kmh 29.85 in1010.8 mb 0.00 in0.0 mm 0.00 in0.0 mm 0.00 in0.0 mm
11:51 AM 56.2°F13.4°C 38.8°F3.8°C 52% 9.0 mph S14.5 kmh S 15.0 mph24.1 kmh 29.85 in1010.8 mb 0.00 in0.0 mm 0.00 in0.0 mm 0.00 in0.0 mm
11:52 AM 56.2°F13.4°C 39.3°F4.1°C 53% 6.5 mph SSE10.5 kmh SSE 12.0 mph19.3 kmh 29.85 in1010.8 mb 0.00 in0.0 mm 0.00 in0.0 mm 0.00 in0.0 mm
11:53 AM 56.1°F13.4°C 37.7°F3.2°C 50% 13.4 mph S21.6 kmh S 17.0 mph27.4 kmh 29.85 in1010.8 mb 0.00 in0.0 mm 0.00 in0.0 mm 0.00 in0.0 mm
11:54 AM 56.1°F13.4°C 38.2°F3.4°C 51% 11.2 mph S18.0 kmh S 17.0 mph27.4 kmh 29.85 in1010.8 mb 0.00 in0.0 mm 0.00 in0.0 mm 0.00 in0.0 mm
11:55 AM 56.0°F13.3°C 38.6°F3.7°C 52% 12.9 mph SSE20.8 kmh SSE 16.0 mph25.7 kmh 29.85 in1010.8 mb 0.00 in0.0 mm 0.00 in0.0 mm 0.00 in0.0 mm
11:56 AM 56.0°F13.3°C 38.1°F3.4°C 51% 10.1 mph S16.3 kmh S 16.0 mph25.7 kmh 29.85 in1010.8 mb 0.00 in0.0 mm 0.00 in0.0 mm 0.00 in0.0 mm
11:57 AM 55.9°F13.3°C 38.5°F3.6°C 52% 12.8 mph S20.6 kmh S 17.0 mph27.4 kmh 29.85 in1010.8 mb 0.00 in0.0 mm 0.00 in0.0 mm 0.00 in0.0 mm
11:58 AM 55.9°F13.3°C 38.5°F3.6°C 52% 9.0 mph S14.5 kmh S 17.0 mph27.4 kmh 29.85 in1010.8 mb 0.00 in0.0 mm 0.00 in0.0 mm 0.00 in0.0 mm
11:59 AM 56.0°F13.3°C 39.1°F3.9°C 53% 8.2 mph SSW13.2 kmh SSW 13.0 mph20.9 kmh 29.85 in1010.8 mb 0.00 in0.0 mm 0.00 in0.0 mm 0.00 in0.0 mm
12:00 PM 55.9°F13.3°C 39.5°F4.2°C 54% 7.4 mph S11.9 kmh S 11.0 mph17.7 kmh 29.85 in1010.8 mb 0.00 in0.0 mm 0.00 in0.0 mm 0.00 in0.0 mm
12:01 PM 56.0°F13.3°C 40.1°F4.5°C 55% 9.5 mph S15.3 kmh S 13.0 mph20.9 kmh 29.85 in1010.8 mb 0.00 in0.0 mm 0.00 in0.0 mm 0.00 in0.0 mm
12:02 PM 56.1°F13.4°C 39.2°F4.0°C 53% 16.8 mph S27.0 kmh S 23.0 mph37.0 kmh 29.85 in1010.8 mb 0.00 in0.0 mm 0.00 in0.0 mm 0.00 in0.0 mm
12:03 PM 55.9°F13.3°C 38.0°F3.3°C 51% 12.8 mph S20.6 kmh S 23.0 mph37.0 kmh 29.85 in1010.8 mb 0.00 in0.0 mm 0.00 in0.0 mm 0.00 in0.0 mm
12:04 PM 55.9°F13.3°C 38.0°F3.3°C 51% 14.5 mph S23.3 kmh S 20.0 mph32.2 kmh 29.85 in1010.8 mb 0.00 in0.0 mm 0.00 in0.0 mm 0.00 in0.0 mm
12:05 PM 55.7°F13.2°C 37.9°F3.3°C 51% 13.0 mph S20.9 kmh S 18.0 mph29.0 kmh 29.85 in1010.8 mb 0.00 in0.0 mm 0.00 in0.0 mm 0.00 in0.0 mm
12:06 PM 55.6°F13.1°C 38.3°F3.5°C 52% 8.1 mph S13.0 kmh S 18.0 mph29.0 kmh 29.85 in1010.8 mb 0.00 in0.0 mm 0.00 in0.0 mm 0.00 in0.0 mm
12:07 PM 55.7°F13.2°C 38.3°F3.5°C 52% 12.4 mph S20.0 kmh S 17.0 mph27.4 kmh 29.85 in1010.8 mb 0.00 in0.0 mm 0.00 in0.0 mm 0.00 in0.0 mm
12:08 PM 55.7°F13.2°C 38.3°F3.5°C 52% 8.6 mph S13.8 kmh S 17.0 mph27.4 kmh 29.85 in1010.8 mb 0.00 in0.0 mm 0.00 in0.0 mm 0.00 in0.0 mm
12:09 PM 55.7°F13.2°C 38.8°F3.8°C 53% 9.0 mph S14.5 kmh S 14.0 mph22.5 kmh 29.85 in1010.8 mb 0.00 in0.0 mm 0.00 in0.0 mm 0.00 in0.0 mm
12:10 PM 55.7°F13.2°C 37.9°F3.3°C 51% 14.0 mph S22.5 kmh S 19.0 mph30.6 kmh 29.85 in1010.8 mb 0.00 in0.0 mm 0.00 in0.0 mm 0.00 in0.0 mm
12:11 PM 55.7°F13.2°C 38.3°F3.5°C 52% 13.3 mph S21.4 kmh S 19.0 mph30.6 kmh 29.85 in1010.8 mb 0.00 in0.0 mm 0.00 in0.0 mm 0.00 in0.0 mm
12:12 PM 55.7°F13.2°C 38.3°F3.5°C 52% 10.3 mph S16.6 kmh S 17.0 mph27.4 kmh 29.85 in1010.8 mb 0.00 in0.0 mm 0.00 in0.0 mm 0.00 in0.0 mm
12:13 PM 55.7°F13.2°C 38.3°F3.5°C 52% 10.3 mph S16.6 kmh S 14.0 mph22.5 kmh 29.85 in1010.8 mb 0.00 in0.0 mm 0.00 in0.0 mm 0.00 in0.0 mm
12:14 PM 55.7°F13.2°C 38.3°F3.5°C 52% 8.2 mph S13.2 kmh S 14.0 mph22.5 kmh 29.85 in1010.8 mb 0.00 in0.0 mm 0.00 in0.0 mm 0.00 in0.0 mm
12:15 PM 55.7°F13.2°C 38.3°F3.5°C 52% 9.7 mph S15.6 kmh S 15.0 mph24.1 kmh 29.85 in1010.8 mb 0.00 in0.0 mm 0.00 in0.0 mm 0.00 in0.0 mm
12:16 PM 55.6°F13.1°C 39.2°F4.0°C 54% 11.7 mph SSW18.8 kmh SSW 17.0 mph27.4 kmh 29.85 in1010.8 mb 0.00 in0.0 mm 0.00 in0.0 mm 0.00 in0.0 mm
12:17 PM 55.6°F13.1°C 39.2°F4.0°C 54% 8.9 mph S14.3 kmh S 17.0 mph27.4 kmh 29.85 in1010.8 mb 0.00 in0.0 mm 0.00 in0.0 mm 0.00 in0.0 mm
12:18 PM 55.6°F13.1°C 39.2°F4.0°C 54% 8.6 mph SSW13.8 kmh SSW 13.0 mph20.9 kmh 29.85 in1010.8 mb 0.00 in0.0 mm 0.00 in0.0 mm 0.00 in0.0 mm
12:19 PM 55.5°F13.1°C 39.1°F3.9°C 54% 8.0 mph SSW12.9 kmh SSW 12.0 mph19.3 kmh 29.85 in1010.8 mb 0.00 in0.0 mm 0.00 in0.0 mm 0.00 in0.0 mm
12:20 PM 55.5°F13.1°C 39.6°F4.2°C 55% 6.5 mph SSW10.5 kmh SSW 11.0 mph17.7 kmh 29.85 in1010.8 mb 0.00 in0.0 mm 0.00 in0.0 mm 0.00 in0.0 mm
12:21 PM 55.5°F13.1°C 39.6°F4.2°C 55% 8.8 mph SSW14.2 kmh SSW 14.0 mph22.5 kmh 29.85 in1010.8 mb 0.00 in0.0 mm 0.00 in0.0 mm 0.00 in0.0 mm
12:22 PM 55.5°F13.1°C 40.1°F4.5°C 56% 8.1 mph S13.0 kmh S 14.0 mph22.5 kmh 29.85 in1010.8 mb 0.00 in0.0 mm 0.00 in0.0 mm 0.00 in0.0 mm
12:23 PM 55.5°F13.1°C 40.1°F4.5°C 56% 10.4 mph S16.7 kmh S 14.0 mph22.5 kmh 29.85 in1010.8 mb 0.00 in0.0 mm 0.00 in0.0 mm 0.00 in0.0 mm
12:24 PM 55.4°F13.0°C 40.0°F4.4°C 56% 10.2 mph S16.4 kmh S 14.0 mph22.5 kmh 29.85 in1010.8 mb 0.00 in0.0 mm 0.00 in0.0 mm 0.00 in0.0 mm
12:25 PM 55.4°F13.0°C 40.0°F4.4°C 56% 11.7 mph S18.8 kmh S 17.0 mph27.4 kmh 29.85 in1010.8 mb 0.00 in0.0 mm 0.00 in0.0 mm 0.00 in0.0 mm
12:26 PM 55.4°F13.0°C 40.4°F4.7°C 57% 7.1 mph S11.4 kmh S 17.0 mph27.4 kmh 29.85 in1010.8 mb 0.00 in0.0 mm 0.00 in0.0 mm 0.00 in0.0 mm
12:27 PM 55.5°F13.1°C 39.6°F4.2°C 55% 11.9 mph S19.2 kmh S 16.0 mph25.7 kmh 29.85 in1010.8 mb 0.00 in0.0 mm 0.00 in0.0 mm 0.00 in0.0 mm
12:28 PM 55.5°F13.1°C 39.6°F4.2°C 55% 12.5 mph S20.1 kmh S 21.0 mph33.8 kmh 29.85 in1010.8 mb 0.00 in0.0 mm 0.00 in0.0 mm 0.00 in0.0 mm
12:29 PM 55.5°F13.1°C 39.6°F4.2°C 55% 12.4 mph S20.0 kmh S 21.0 mph33.8 kmh 29.85 in1010.8 mb 0.00 in0.0 mm 0.00 in0.0 mm 0.00 in0.0 mm
12:30 PM 55.7°F13.2°C 40.2°F4.6°C 56% 8.6 mph S13.8 kmh S 17.0 mph27.4 kmh 29.85 in1010.8 mb 0.00 in0.0 mm 0.00 in0.0 mm 0.00 in0.0 mm
12:31 PM 55.8°F13.2°C 40.3°F4.6°C 56% 7.9 mph SSW12.7 kmh SSW 13.0 mph20.9 kmh 29.85 in1010.8 mb 0.00 in0.0 mm 0.00 in0.0 mm 0.00 in0.0 mm
12:32 PM 55.9°F13.3°C 40.4°F4.7°C 56% 11.9 mph S19.2 kmh S 16.0 mph25.7 kmh 29.85 in1010.8 mb 0.00 in0.0 mm 0.00 in0.0 mm 0.00 in0.0 mm
12:33 PM 56.0°F13.3°C 40.1°F4.5°C 55% 14.0 mph SSW22.5 kmh SSW 19.0 mph30.6 kmh 29.85 in1010.8 mb 0.00 in0.0 mm 0.00 in0.0 mm 0.00 in0.0 mm
12:34 PM 56.0°F13.3°C 39.6°F4.2°C 54% 10.5 mph SSW16.9 kmh SSW 19.0 mph30.6 kmh 29.85 in1010.8 mb 0.00 in0.0 mm 0.00 in0.0 mm 0.00 in0.0 mm
12:35 PM 56.0°F13.3°C 40.1°F4.5°C 55% 11.1 mph S17.9 kmh S 17.0 mph27.4 kmh 29.85 in1010.8 mb 0.00 in0.0 mm 0.00 in0.0 mm 0.00 in0.0 mm
12:36 PM 56.0°F13.3°C 39.6°F4.2°C 54% 11.7 mph SSW18.8 kmh SSW 17.0 mph27.4 kmh 29.85 in1010.8 mb 0.00 in0.0 mm 0.00 in0.0 mm 0.00 in0.0 mm
12:37 PM 55.9°F13.3°C 39.5°F4.2°C 54% 11.6 mph S18.7 kmh S 17.0 mph27.4 kmh 29.85 in1010.8 mb 0.00 in0.0 mm 0.00 in0.0 mm 0.00 in0.0 mm
12:38 PM 55.8°F13.2°C 39.9°F4.4°C 55% 10.0 mph SSW16.1 kmh SSW 17.0 mph27.4 kmh 29.85 in1010.8 mb 0.00 in0.0 mm 0.00 in0.0 mm 0.00 in0.0 mm
12:39 PM 55.9°F13.3°C 40.4°F4.7°C 56% 9.0 mph S14.5 kmh S 17.0 mph27.4 kmh 29.85 in1010.8 mb 0.00 in0.0 mm 0.00 in0.0 mm 0.00 in0.0 mm
12:40 PM 56.0°F13.3°C 41.0°F5.0°C 57% 7.4 mph S11.9 kmh S 14.0 mph22.5 kmh 29.85 in1010.8 mb 0.00 in0.0 mm 0.00 in0.0 mm 0.00 in0.0 mm
12:41 PM 56.2°F13.4°C 40.2°F4.6°C 55% 12.4 mph S20.0 kmh S 18.0 mph29.0 kmh 29.85 in1010.8 mb 0.00 in0.0 mm 0.00 in0.0 mm 0.00 in0.0 mm
12:42 PM 56.4°F13.6°C 40.4°F4.7°C 55% 10.4 mph S16.7 kmh S 18.0 mph29.0 kmh 29.85 in1010.8 mb 0.00 in0.0 mm 0.00 in0.0 mm 0.00 in0.0 mm
12:43 PM 56.6°F13.7°C 40.6°F4.8°C 55% 14.6 mph S23.5 kmh S 18.0 mph29.0 kmh 29.85 in1010.8 mb 0.00 in0.0 mm 0.00 in0.0 mm 0.00 in0.0 mm
12:44 PM 56.8°F13.8°C 40.3°F4.6°C 54% 11.9 mph S19.2 kmh S 19.0 mph30.6 kmh 29.85 in1010.8 mb 0.00 in0.0 mm 0.00 in0.0 mm 0.00 in0.0 mm
12:45 PM 57.0°F13.9°C 41.0°F5.0°C 55% 10.2 mph S16.4 kmh S 16.0 mph25.7 kmh 29.85 in1010.8 mb 0.00 in0.0 mm 0.00 in0.0 mm 0.00 in0.0 mm
12:46 PM 57.2°F14.0°C 40.7°F4.8°C 54% 16.2 mph S26.1 kmh S 21.0 mph33.8 kmh 29.85 in1010.8 mb 0.00 in0.0 mm 0.00 in0.0 mm 0.00 in0.0 mm
12:47 PM 57.2°F14.0°C 40.7°F4.8°C 54% 15.6 mph S25.1 kmh S 21.0 mph33.8 kmh 29.85 in1010.8 mb 0.00 in0.0 mm 0.00 in0.0 mm 0.00 in0.0 mm
12:48 PM 57.2°F14.0°C 41.2°F5.1°C 55% 13.1 mph S21.1 kmh S 22.0 mph35.4 kmh 29.85 in1010.8 mb 0.00 in0.0 mm 0.00 in0.0 mm 0.00 in0.0 mm
12:49 PM 57.2°F14.0°C 40.2°F4.6°C 53% 11.9 mph S19.2 kmh S 22.0 mph35.4 kmh 29.85 in1010.8 mb 0.00 in0.0 mm 0.00 in0.0 mm 0.00 in0.0 mm
12:50 PM 57.2°F14.0°C 40.7°F4.8°C 54% 13.2 mph S21.2 kmh S 22.0 mph35.4 kmh 29.85 in1010.8 mb 0.00 in0.0 mm 0.00 in0.0 mm 0.00 in0.0 mm
12:51 PM 57.3°F14.1°C 41.3°F5.2°C 55% 12.2 mph S19.6 kmh S 22.0 mph35.4 kmh 29.85 in1010.8 mb 0.00 in0.0 mm 0.00 in0.0 mm 0.00 in0.0 mm
12:52 PM 57.2°F14.0°C 41.2°F5.1°C 55% 13.5 mph S21.7 kmh S 18.0 mph29.0 kmh 29.85 in1010.8 mb 0.00 in0.0 mm 0.00 in0.0 mm 0.00 in0.0 mm
12:53 PM 57.2°F14.0°C 41.2°F5.1°C 55% 12.4 mph S20.0 kmh S 18.0 mph29.0 kmh 29.85 in1010.8 mb 0.00 in0.0 mm 0.00 in0.0 mm 0.00 in0.0 mm
12:54 PM 57.1°F13.9°C 41.6°F5.3°C 56% 10.8 mph S17.4 kmh S 16.0 mph25.7 kmh 29.85 in1010.8 mb 0.00 in0.0 mm 0.00 in0.0 mm 0.00 in0.0 mm
12:55 PM 57.0°F13.9°C 41.0°F5.0°C 55% 16.5 mph S26.6 kmh S 22.0 mph35.4 kmh 29.85 in1010.8 mb 0.00 in0.0 mm 0.00 in0.0 mm 0.00 in0.0 mm
12:56 PM 56.8°F13.8°C 40.8°F4.9°C 55% 9.6 mph S15.4 kmh S 22.0 mph35.4 kmh 29.85 in1010.8 mb 0.00 in0.0 mm 0.00 in0.0 mm 0.00 in0.0 mm
12:57 PM 56.7°F13.7°C 40.2°F4.6°C 54% 15.3 mph S24.6 kmh S 20.0 mph32.2 kmh 29.85 in1010.8 mb 0.00 in0.0 mm 0.00 in0.0 mm 0.00 in0.0 mm
12:58 PM 56.5°F13.6°C 39.6°F4.2°C 53% 13.0 mph S20.9 kmh S 20.0 mph32.2 kmh 29.85 in1010.8 mb 0.00 in0.0 mm 0.00 in0.0 mm 0.00 in0.0 mm
12:59 PM 56.4°F13.6°C 39.5°F4.2°C 53% 14.4 mph S23.2 kmh S 20.0 mph32.2 kmh 29.85 in1010.8 mb 0.00 in0.0 mm 0.00 in0.0 mm 0.00 in0.0 mm
01:00 PM 56.3°F13.5°C 39.9°F4.4°C 54% 14.7 mph S23.7 kmh S 21.0 mph33.8 kmh 29.85 in1010.8 mb 0.00 in0.0 mm 0.00 in0.0 mm 0.00 in0.0 mm
01:01 PM 56.3°F13.5°C 39.4°F4.1°C 53% 9.8 mph S15.8 kmh S 21.0 mph33.8 kmh 29.85 in1010.8 mb 0.00 in0.0 mm 0.00 in0.0 mm 0.00 in0.0 mm
01:02 PM 56.3°F13.5°C 40.3°F4.6°C 55% 10.8 mph S17.4 kmh S 14.0 mph22.5 kmh 29.85 in1010.8 mb 0.00 in0.0 mm 0.00 in0.0 mm 0.00 in0.0 mm
01:03 PM 56.5°F13.6°C 41.5°F5.3°C 57% 9.8 mph S15.8 kmh S 17.0 mph27.4 kmh 29.85 in1010.8 mb 0.00 in0.0 mm 0.00 in0.0 mm 0.00 in0.0 mm
01:04 PM 56.7°F13.7°C 40.7°F4.8°C 55% 12.9 mph S20.8 kmh S 18.0 mph29.0 kmh 29.85 in1010.8 mb 0.00 in0.0 mm 0.00 in0.0 mm 0.00 in0.0 mm
01:05 PM 56.8°F13.8°C 41.3°F5.2°C 56% 9.2 mph S14.8 kmh S 18.0 mph29.0 kmh 29.85 in1010.8 mb 0.00 in0.0 mm 0.00 in0.0 mm 0.00 in0.0 mm
01:06 PM 57.0°F13.9°C 41.0°F5.0°C 55% 11.9 mph SSW19.2 kmh SSW 17.0 mph27.4 kmh 29.85 in1010.8 mb 0.00 in0.0 mm 0.00 in0.0 mm 0.00 in0.0 mm
01:07 PM 57.1°F13.9°C 41.1°F5.1°C 55% 12.2 mph S19.6 kmh S 19.0 mph30.6 kmh 29.85 in1010.8 mb 0.00 in0.0 mm 0.00 in0.0 mm 0.00 in0.0 mm
01:08 PM 57.0°F13.9°C 40.0°F4.4°C 53% 12.0 mph S19.3 kmh S 19.0 mph30.6 kmh 29.85 in1010.8 mb 0.00 in0.0 mm 0.00 in0.0 mm 0.00 in0.0 mm
01:09 PM 56.9°F13.8°C 39.9°F4.4°C 53% 10.0 mph SSW16.1 kmh SSW 15.0 mph24.1 kmh 29.85 in1010.8 mb 0.00 in0.0 mm 0.00 in0.0 mm 0.00 in0.0 mm
01:10 PM 56.8°F13.8°C 40.3°F4.6°C 54% 7.9 mph SSW12.7 kmh SSW 13.0 mph20.9 kmh 29.85 in1010.8 mb 0.00 in0.0 mm 0.00 in0.0 mm 0.00 in0.0 mm
01:11 PM 56.8°F13.8°C 40.8°F4.9°C 55% 7.8 mph S12.6 kmh S 12.0 mph19.3 kmh 29.85 in1010.8 mb 0.00 in0.0 mm 0.00 in0.0 mm 0.00 in0.0 mm
01:12 PM 56.9°F13.8°C 40.9°F4.9°C 55% 10.0 mph SSW16.1 kmh SSW 15.0 mph24.1 kmh 29.85 in1010.8 mb 0.00 in0.0 mm 0.00 in0.0 mm 0.00 in0.0 mm
01:13 PM 57.0°F13.9°C 41.5°F5.3°C 56% 14.0 mph SSW22.5 kmh SSW 21.0 mph33.8 kmh 29.85 in1010.8 mb 0.00 in0.0 mm 0.00 in0.0 mm 0.00 in0.0 mm
01:14 PM 57.2°F14.0°C 39.7°F4.3°C 52% 14.4 mph S23.2 kmh S 21.0 mph33.8 kmh 29.85 in1010.8 mb 0.00 in0.0 mm 0.00 in0.0 mm 0.00 in0.0 mm
01:15 PM 57.3°F14.1°C 40.8°F4.9°C 54% 10.5 mph S16.9 kmh S 21.0 mph33.8 kmh 29.85 in1010.8 mb 0.00 in0.0 mm 0.00 in0.0 mm 0.00 in0.0 mm
01:16 PM 57.3°F14.1°C 40.3°F4.6°C 53% 11.0 mph S17.7 kmh S 17.0 mph27.4 kmh 29.85 in1010.8 mb 0.00 in0.0 mm 0.00 in0.0 mm 0.00 in0.0 mm
01:17 PM 57.3°F14.1°C 40.8°F4.9°C 54% 9.6 mph SSW15.4 kmh SSW 15.0 mph24.1 kmh 29.85 in1010.8 mb 0.00 in0.0 mm 0.00 in0.0 mm 0.00 in0.0 mm
01:18 PM 57.3°F14.1°C 40.3°F4.6°C 53% 11.9 mph S19.2 kmh S 18.0 mph29.0 kmh 29.85 in1010.8 mb 0.00 in0.0 mm 0.00 in0.0 mm 0.00 in0.0 mm
01:19 PM 57.1°F13.9°C 40.1°F4.5°C 53% 14.3 mph S23.0 kmh S 20.0 mph32.2 kmh 29.85 in1010.8 mb 0.00 in0.0 mm 0.00 in0.0 mm 0.00 in0.0 mm
01:20 PM 56.9°F13.8°C 40.4°F4.7°C 54% 9.8 mph SSW15.8 kmh SSW 20.0 mph32.2 kmh 29.85 in1010.8 mb 0.00 in0.0 mm 0.00 in0.0 mm 0.00 in0.0 mm
01:21 PM 56.8°F13.8°C 40.8°F4.9°C 55% 12.3 mph S19.8 kmh S 18.0 mph29.0 kmh 29.85 in1010.8 mb 0.00 in0.0 mm 0.00 in0.0 mm 0.00 in0.0 mm
01:22 PM 56.8°F13.8°C 40.8°F4.9°C 55% 9.6 mph S15.4 kmh S 18.0 mph29.0 kmh 29.85 in1010.8 mb 0.00 in0.0 mm 0.00 in0.0 mm 0.00 in0.0 mm
01:23 PM 56.7°F13.7°C 40.2°F4.6°C 54% 10.5 mph SSW16.9 kmh SSW 16.0 mph25.7 kmh 29.85 in1010.8 mb 0.00 in0.0 mm 0.00 in0.0 mm 0.00 in0.0 mm
01:24 PM 56.7°F13.7°C 40.2°F4.6°C 54% 10.1 mph SSW16.3 kmh SSW 16.0 mph25.7 kmh 29.85 in1010.8 mb 0.00 in0.0 mm 0.00 in0.0 mm 0.00 in0.0 mm
01:25 PM 56.8°F13.8°C 40.8°F4.9°C 55% 8.6 mph SSW13.8 kmh SSW 16.0 mph25.7 kmh 29.85 in1010.8 mb 0.00 in0.0 mm 0.00 in0.0 mm 0.00 in0.0 mm
01:26 PM 56.8°F13.8°C 40.3°F4.6°C 54% 10.8 mph SSW17.4 kmh SSW 15.0 mph24.1 kmh 29.85 in1010.8 mb 0.00 in0.0 mm 0.00 in0.0 mm 0.00 in0.0 mm
01:27 PM 56.8°F13.8°C 40.8°F4.9°C 55% 9.0 mph SSW14.5 kmh SSW 17.0 mph27.4 kmh 29.85 in1010.8 mb 0.00 in0.0 mm 0.00 in0.0 mm 0.00 in0.0 mm
01:28 PM 56.7°F13.7°C 40.2°F4.6°C 54% 12.1 mph S19.5 kmh S 19.0 mph30.6 kmh 29.85 in1010.8 mb 0.00 in0.0 mm 0.00 in0.0 mm 0.00 in0.0 mm
01:29 PM 56.7°F13.7°C 40.7°F4.8°C 55% 10.0 mph S16.1 kmh S 19.0 mph30.6 kmh 29.85 in1010.8 mb 0.00 in0.0 mm 0.00 in0.0 mm 0.00 in0.0 mm
01:30 PM 56.7°F13.7°C 40.7°F4.8°C 55% 12.4 mph S20.0 kmh S 18.0 mph29.0 kmh 29.85 in1010.8 mb 0.00 in0.0 mm 0.00 in0.0 mm 0.00 in0.0 mm
01:31 PM 56.6°F13.7°C 40.6°F4.8°C 55% 13.6 mph S21.9 kmh S 23.0 mph37.0 kmh 29.85 in1010.8 mb 0.00 in0.0 mm 0.00 in0.0 mm 0.00 in0.0 mm
01:32 PM 56.6°F13.7°C 40.1°F4.5°C 54% 11.5 mph S18.5 kmh S 23.0 mph37.0 kmh 29.85 in1010.8 mb 0.00 in0.0 mm 0.00 in0.0 mm 0.00 in0.0 mm
01:33 PM 56.6°F13.7°C 38.7°F3.7°C 51% 13.5 mph S21.7 kmh S 19.0 mph30.6 kmh 29.85 in1010.8 mb 0.00 in0.0 mm 0.00 in0.0 mm 0.00 in0.0 mm
01:34 PM 56.5°F13.6°C 39.1°F3.9°C 52% 10.4 mph SSW16.7 kmh SSW 19.0 mph30.6 kmh 29.85 in1010.8 mb 0.00 in0.0 mm 0.00 in0.0 mm 0.00 in0.0 mm
01:35 PM 56.5°F13.6°C 38.6°F3.7°C 51% 14.8 mph SSW23.8 kmh SSW 18.0 mph29.0 kmh 29.85 in1010.8 mb 0.00 in0.0 mm 0.00 in0.0 mm 0.00 in0.0 mm
01:36 PM 56.4°F13.6°C 38.0°F3.3°C 50% 16.6 mph S26.7 kmh S 21.0 mph33.8 kmh 29.85 in1010.8 mb 0.00 in0.0 mm 0.00 in0.0 mm 0.00 in0.0 mm
01:37 PM 56.4°F13.6°C 38.5°F3.6°C 51% 16.2 mph S26.1 kmh S 21.0 mph33.8 kmh 29.85 in1010.8 mb 0.00 in0.0 mm 0.00 in0.0 mm 0.00 in0.0 mm
01:38 PM 56.6°F13.7°C 40.1°F4.5°C 54% 11.5 mph S18.5 kmh S 20.0 mph32.2 kmh 29.85 in1010.8 mb 0.00 in0.0 mm 0.00 in0.0 mm 0.00 in0.0 mm
01:39 PM 56.7°F13.7°C 40.2°F4.6°C 54% 11.2 mph S18.0 kmh S 17.0 mph27.4 kmh 29.85 in1010.8 mb 0.00 in0.0 mm 0.00 in0.0 mm 0.00 in0.0 mm
01:40 PM 56.9°F13.8°C 40.4°F4.7°C 54% 11.6 mph S18.7 kmh S 17.0 mph27.4 kmh 29.85 in1010.8 mb 0.00 in0.0 mm 0.00 in0.0 mm 0.00 in0.0 mm
01:41 PM 57.1°F13.9°C 41.1°F5.1°C 55% 14.0 mph SSW22.5 kmh SSW 20.0 mph32.2 kmh 29.85 in1010.8 mb 0.00 in0.0 mm 0.00 in0.0 mm 0.00 in0.0 mm
01:42 PM 57.2°F14.0°C 39.7°F4.3°C 52% 13.1 mph S21.1 kmh S 20.0 mph32.2 kmh 29.85 in1010.8 mb 0.00 in0.0 mm 0.00 in0.0 mm 0.00 in0.0 mm
01:43 PM 57.3°F14.1°C 40.3°F4.6°C 53% 12.9 mph S20.8 kmh S 20.0 mph32.2 kmh 29.85 in1010.8 mb 0.00 in0.0 mm 0.00 in0.0 mm 0.00 in0.0 mm
01:44 PM 57.2°F14.0°C 40.2°F4.6°C 53% 13.8 mph S22.2 kmh S 19.0 mph30.6 kmh 29.85 in1010.8 mb 0.00 in0.0 mm 0.00 in0.0 mm 0.00 in0.0 mm
01:45 PM 57.1°F13.9°C 40.6°F4.8°C 54% 10.4 mph SSW16.7 kmh SSW 19.0 mph30.6 kmh 29.85 in1010.8 mb 0.00 in0.0 mm 0.00 in0.0 mm 0.00 in0.0 mm
01:46 PM 57.0°F13.9°C 40.5°F4.7°C 54% 9.6 mph SSW15.4 kmh SSW 14.0 mph22.5 kmh 29.85 in1010.8 mb 0.00 in0.0 mm 0.00 in0.0 mm 0.00 in0.0 mm
01:47 PM 57.0°F13.9°C 41.0°F5.0°C 55% 11.5 mph SSW18.5 kmh SSW 14.0 mph22.5 kmh 29.85 in1010.8 mb 0.00 in0.0 mm 0.00 in0.0 mm 0.00 in0.0 mm
01:48 PM 56.9°F13.8°C 40.9°F4.9°C 55% 8.6 mph S13.8 kmh S 14.0 mph22.5 kmh 29.85 in1010.8 mb 0.00 in0.0 mm 0.00 in0.0 mm 0.00 in0.0 mm
01:49 PM 56.9°F13.8°C 40.4°F4.7°C 54% 11.8 mph S19.0 kmh S 17.0 mph27.4 kmh 29.85 in1010.8 mb 0.00 in0.0 mm 0.00 in0.0 mm 0.00 in0.0 mm
01:50 PM 56.8°F13.8°C 40.3°F4.6°C 54% 12.6 mph SSW20.3 kmh SSW 19.0 mph30.6 kmh 29.85 in1010.8 mb 0.00 in0.0 mm 0.00 in0.0 mm 0.00 in0.0 mm
01:51 PM 56.8°F13.8°C 40.3°F4.6°C 54% 12.0 mph SSW19.3 kmh SSW 19.0 mph30.6 kmh 29.85 in1010.8 mb 0.00 in0.0 mm 0.00 in0.0 mm 0.00 in0.0 mm
01:52 PM 56.6°F13.7°C 40.6°F4.8°C 55% 9.2 mph S14.8 kmh S 15.0 mph24.1 kmh 29.85 in1010.8 mb 0.00 in0.0 mm 0.00 in0.0 mm 0.00 in0.0 mm
01:53 PM 56.7°F13.7°C 40.7°F4.8°C 55% 8.1 mph SSW13.0 kmh SSW 13.0 mph20.9 kmh 29.85 in1010.8 mb 0.00 in0.0 mm 0.00 in0.0 mm 0.00 in0.0 mm
01:54 PM 56.7°F13.7°C 40.7°F4.8°C 55% 8.4 mph SSW13.5 kmh SSW 10.0 mph16.1 kmh 29.85 in1010.8 mb 0.00 in0.0 mm 0.00 in0.0 mm 0.00 in0.0 mm
01:55 PM 56.7°F13.7°C 39.3°F4.1°C 52% 11.9 mph SSW19.2 kmh SSW 17.0 mph27.4 kmh 29.85 in1010.8 mb 0.00 in0.0 mm 0.00 in0.0 mm 0.00 in0.0 mm
01:56 PM 56.7°F13.7°C 39.8°F4.3°C 53% 10.7 mph SSW17.2 kmh SSW 17.0 mph27.4 kmh 29.85 in1010.8 mb 0.00 in0.0 mm 0.00 in0.0 mm 0.00 in0.0 mm
01:57 PM 56.7°F13.7°C 39.8°F4.3°C 53% 10.4 mph SW16.7 kmh SW 16.0 mph25.7 kmh 29.85 in1010.8 mb 0.00 in0.0 mm 0.00 in0.0 mm 0.00 in0.0 mm
01:58 PM 56.7°F13.7°C 39.8°F4.3°C 53% 10.3 mph SW16.6 kmh SW 18.0 mph29.0 kmh 29.85 in1010.8 mb 0.00 in0.0 mm 0.00 in0.0 mm 0.00 in0.0 mm
01:59 PM 56.7°F13.7°C 40.2°F4.6°C 54% 8.0 mph SSW12.9 kmh SSW 18.0 mph29.0 kmh 29.85 in1010.8 mb 0.00 in0.0 mm 0.00 in0.0 mm 0.00 in0.0 mm
02:00 PM 56.8°F13.8°C 40.8°F4.9°C 55% 7.8 mph SSW12.6 kmh SSW 12.0 mph19.3 kmh 29.85 in1010.8 mb 0.00 in0.0 mm 0.00 in0.0 mm 0.00 in0.0 mm
02:01 PM 57.0°F13.9°C 41.0°F5.0°C 55% 8.4 mph SSW13.5 kmh SSW 12.0 mph19.3 kmh 29.85 in1010.8 mb 0.00 in0.0 mm 0.00 in0.0 mm 0.00 in0.0 mm
02:02 PM 57.1°F13.9°C 40.1°F4.5°C 53% 9.3 mph SSW15.0 kmh SSW 12.0 mph19.3 kmh 29.85 in1010.8 mb 0.00 in0.0 mm 0.00 in0.0 mm 0.00 in0.0 mm
02:03 PM 57.3°F14.1°C 39.8°F4.3°C 52% 12.2 mph SW19.6 kmh SW 17.0 mph27.4 kmh 29.85 in1010.8 mb 0.00 in0.0 mm 0.00 in0.0 mm 0.00 in0.0 mm
02:04 PM 57.4°F14.1°C 39.9°F4.4°C 52% 10.2 mph SSW16.4 kmh SSW 17.0 mph27.4 kmh 29.85 in1010.8 mb 0.00 in0.0 mm 0.00 in0.0 mm 0.00 in0.0 mm
02:05 PM 57.5°F14.2°C 39.5°F4.2°C 51% 11.8 mph SSW19.0 kmh SSW 19.0 mph30.6 kmh 29.85 in1010.8 mb 0.00 in0.0 mm 0.00 in0.0 mm 0.00 in0.0 mm
02:06 PM 57.6°F14.2°C 39.6°F4.2°C 51% 14.8 mph SSW23.8 kmh SSW 19.0 mph30.6 kmh 29.85 in1010.8 mb 0.00 in0.0 mm 0.00 in0.0 mm 0.00 in0.0 mm
02:07 PM 57.6°F14.2°C 40.1°F4.5°C 52% 10.3 mph SSW16.6 kmh SSW 18.0 mph29.0 kmh 29.85 in1010.8 mb 0.00 in0.0 mm 0.00 in0.0 mm 0.00 in0.0 mm
02:08 PM 57.7°F14.3°C 40.7°F4.8°C 53% 10.1 mph SW16.3 kmh SW 16.0 mph25.7 kmh 29.85 in1010.8 mb 0.00 in0.0 mm 0.00 in0.0 mm 0.00 in0.0 mm
02:09 PM 57.7°F14.3°C 41.2°F5.1°C 54% 11.1 mph SW17.9 kmh SW 14.0 mph22.5 kmh 29.85 in1010.8 mb 0.00 in0.0 mm 0.00 in0.0 mm 0.00 in0.0 mm
02:10 PM 57.8°F14.3°C 41.7°F5.4°C 55% 10.6 mph SW17.1 kmh SW 15.0 mph24.1 kmh 29.85 in1010.8 mb 0.00 in0.0 mm 0.00 in0.0 mm 0.00 in0.0 mm
02:11 PM 57.7°F14.3°C 41.6°F5.3°C 55% 10.4 mph SW16.7 kmh SW 15.0 mph24.1 kmh 29.85 in1010.8 mb 0.00 in0.0 mm 0.00 in0.0 mm 0.00 in0.0 mm
02:12 PM 57.8°F14.3°C 42.2°F5.7°C 56% 11.0 mph SW17.7 kmh SW 14.0 mph22.5 kmh 29.84 in1010.5 mb 0.00 in0.0 mm 0.00 in0.0 mm 0.00 in0.0 mm
02:13 PM 57.8°F14.3°C 42.7°F5.9°C 57% 15.4 mph SW24.8 kmh SW 21.0 mph33.8 kmh 29.85 in1010.8 mb 0.00 in0.0 mm 0.00 in0.0 mm 0.00 in0.0 mm
02:14 PM 57.6°F14.2°C 42.0°F5.6°C 56% 16.2 mph SW26.1 kmh SW 21.0 mph33.8 kmh 29.84 in1010.5 mb 0.00 in0.0 mm 0.00 in0.0 mm 0.00 in0.0 mm
02:15 PM 57.3°F14.1°C 41.7°F5.4°C 56% 14.6 mph SW23.5 kmh SW 18.0 mph29.0 kmh 29.84 in1010.5 mb 0.00 in0.0 mm 0.00 in0.0 mm 0.00 in0.0 mm
02:16 PM 57.2°F14.0°C 42.1°F5.6°C 57% 14.4 mph SW23.2 kmh SW 18.0 mph29.0 kmh 29.84 in1010.5 mb 0.00 in0.0 mm 0.00 in0.0 mm 0.00 in0.0 mm
02:17 PM 57.1°F13.9°C 41.6°F5.3°C 56% 12.0 mph SW19.3 kmh SW 17.0 mph27.4 kmh 29.85 in1010.8 mb 0.00 in0.0 mm 0.00 in0.0 mm 0.00 in0.0 mm
02:18 PM 57.1°F13.9°C 42.0°F5.6°C 57% 15.0 mph SW24.1 kmh SW 18.0 mph29.0 kmh 29.85 in1010.8 mb 0.00 in0.0 mm 0.00 in0.0 mm 0.00 in0.0 mm
02:19 PM 57.0°F13.9°C 41.9°F5.5°C 57% 16.0 mph SW25.7 kmh SW 19.0 mph30.6 kmh 29.84 in1010.5 mb 0.00 in0.0 mm 0.00 in0.0 mm 0.00 in0.0 mm
02:20 PM 56.8°F13.8°C 41.7°F5.4°C 57% 16.5 mph SW26.6 kmh SW 19.0 mph30.6 kmh 29.85 in1010.8 mb 0.00 in0.0 mm 0.00 in0.0 mm 0.00 in0.0 mm
02:21 PM 56.6°F13.7°C 41.5°F5.3°C 57% 14.6 mph SW23.5 kmh SW 19.0 mph30.6 kmh 29.85 in1010.8 mb 0.00 in0.0 mm 0.00 in0.0 mm 0.00 in0.0 mm
02:22 PM 56.6°F13.7°C 41.5°F5.3°C 57% 14.7 mph SW23.7 kmh SW 19.0 mph30.6 kmh 29.85 in1010.8 mb 0.00 in0.0 mm 0.00 in0.0 mm 0.00 in0.0 mm
02:23 PM 56.6°F13.7°C 40.6°F4.8°C 55% 13.1 mph SW21.1 kmh SW 17.0 mph27.4 kmh 29.85 in1010.8 mb 0.00 in0.0 mm 0.00 in0.0 mm 0.00 in0.0 mm
02:24 PM 56.7°F13.7°C 42.1°F5.6°C 58% 10.5 mph SW16.9 kmh SW 17.0 mph27.4 kmh 29.84 in1010.5 mb 0.00 in0.0 mm 0.00 in0.0 mm 0.00 in0.0 mm
02:25 PM 56.8°F13.8°C 40.8°F4.9°C 55% 13.0 mph SW20.9 kmh SW 19.0 mph30.6 kmh 29.84 in1010.5 mb 0.00 in0.0 mm 0.00 in0.0 mm 0.00 in0.0 mm
02:26 PM 57.0°F13.9°C 40.5°F4.7°C 54% 12.3 mph SW19.8 kmh SW 19.0 mph30.6 kmh 29.85 in1010.8 mb 0.00 in0.0 mm 0.00 in0.0 mm 0.00 in0.0 mm
02:27 PM 57.1°F13.9°C 40.6°F4.8°C 54% 15.5 mph SW24.9 kmh SW 19.0 mph30.6 kmh 29.85 in1010.8 mb 0.00 in0.0 mm 0.00 in0.0 mm 0.00 in0.0 mm
02:28 PM 57.1°F13.9°C 40.1°F4.5°C 53% 13.8 mph SW22.2 kmh SW 19.0 mph30.6 kmh 29.84 in1010.5 mb 0.00 in0.0 mm 0.00 in0.0 mm 0.00 in0.0 mm
02:29 PM 57.1°F13.9°C 40.1°F4.5°C 53% 14.3 mph SW23.0 kmh SW 18.0 mph29.0 kmh 29.85 in1010.8 mb 0.00 in0.0 mm 0.00 in0.0 mm 0.00 in0.0 mm
02:30 PM 57.1°F13.9°C 40.1°F4.5°C 53% 15.7 mph SW25.3 kmh SW 20.0 mph32.2 kmh 29.84 in1010.5 mb 0.00 in0.0 mm 0.00 in0.0 mm 0.00 in0.0 mm
02:31 PM 57.1°F13.9°C 40.6°F4.8°C 54% 13.7 mph SW22.0 kmh SW 20.0 mph32.2 kmh 29.84 in1010.5 mb 0.00 in0.0 mm 0.00 in0.0 mm 0.00 in0.0 mm
02:32 PM 57.0°F13.9°C 40.0°F4.4°C 53% 18.6 mph SW29.9 kmh SW 24.0 mph38.6 kmh 29.84 in1010.5 mb 0.00 in0.0 mm 0.00 in0.0 mm 0.00 in0.0 mm
02:33 PM 56.9°F13.8°C 40.4°F4.7°C 54% 14.3 mph SW23.0 kmh SW 24.0 mph38.6 kmh 29.84 in1010.5 mb 0.00 in0.0 mm 0.00 in0.0 mm 0.00 in0.0 mm
02:34 PM 56.9°F13.8°C 40.4°F4.7°C 54% 11.5 mph SW18.5 kmh SW 19.0 mph30.6 kmh 29.84 in1010.5 mb 0.00 in0.0 mm 0.00 in0.0 mm 0.00 in0.0 mm
02:35 PM 56.9°F13.8°C 40.9°F4.9°C 55% 15.1 mph SW24.3 kmh SW 20.0 mph32.2 kmh 29.84 in1010.5 mb 0.00 in0.0 mm 0.00 in0.0 mm 0.00 in0.0 mm
02:36 PM 56.8°F13.8°C 39.9°F4.4°C 53% 14.6 mph SW23.5 kmh SW 20.0 mph32.2 kmh 29.84 in1010.5 mb 0.00 in0.0 mm 0.00 in0.0 mm 0.00 in0.0 mm
02:37 PM 56.7°F13.7°C 40.2°F4.6°C 54% 13.2 mph SW21.2 kmh SW 20.0 mph32.2 kmh 29.84 in1010.5 mb 0.00 in0.0 mm 0.00 in0.0 mm 0.00 in0.0 mm
02:38 PM 56.7°F13.7°C 39.8°F4.3°C 53% 15.7 mph SW25.3 kmh SW 18.0 mph29.0 kmh 29.84 in1010.5 mb 0.00 in0.0 mm 0.00 in0.0 mm 0.00 in0.0 mm
02:39 PM 56.5°F13.6°C 40.1°F4.5°C 54% 10.3 mph SW16.6 kmh SW 18.0 mph29.0 kmh 29.84 in1010.5 mb 0.00 in0.0 mm 0.00 in0.0 mm 0.00 in0.0 mm
02:40 PM 56.5°F13.6°C 40.1°F4.5°C 54% 14.0 mph SW22.5 kmh SW 17.0 mph27.4 kmh 29.84 in1010.5 mb 0.00 in0.0 mm 0.00 in0.0 mm 0.00 in0.0 mm
02:41 PM 56.4°F13.6°C 40.4°F4.7°C 55% 11.8 mph SW19.0 kmh SW 17.0 mph27.4 kmh 29.84 in1010.5 mb 0.00 in0.0 mm 0.00 in0.0 mm 0.00 in0.0 mm
02:42 PM 56.5°F13.6°C 39.6°F4.2°C 53% 14.5 mph SW23.3 kmh SW 18.0 mph29.0 kmh 29.84 in1010.5 mb 0.00 in0.0 mm 0.00 in0.0 mm 0.00 in0.0 mm
02:43 PM 56.5°F13.6°C 39.6°F4.2°C 53% 12.1 mph SW19.5 kmh SW 18.0 mph29.0 kmh 29.84 in1010.5 mb 0.00 in0.0 mm 0.00 in0.0 mm 0.00 in0.0 mm
02:44 PM 56.5°F13.6°C 40.1°F4.5°C 54% 10.5 mph SSW16.9 kmh SSW 16.0 mph25.7 kmh 29.84 in1010.5 mb 0.00 in0.0 mm 0.00 in0.0 mm 0.00 in0.0 mm
02:45 PM 56.7°F13.7°C 40.2°F4.6°C 54% 11.5 mph SSW18.5 kmh SSW 15.0 mph24.1 kmh 29.84 in1010.5 mb 0.00 in0.0 mm 0.00 in0.0 mm 0.00 in0.0 mm
02:46 PM 56.8°F13.8°C 40.3°F4.6°C 54% 9.5 mph SW15.3 kmh SW 14.0 mph22.5 kmh 29.84 in1010.5 mb 0.00 in0.0 mm 0.00 in0.0 mm 0.00 in0.0 mm
02:47 PM 57.0°F13.9°C 40.5°F4.7°C 54% 9.7 mph SW15.6 kmh SW 14.0 mph22.5 kmh 29.84 in1010.5 mb 0.00 in0.0 mm 0.00 in0.0 mm 0.00 in0.0 mm
02:48 PM 57.1°F13.9°C 40.1°F4.5°C 53% 8.8 mph SSW14.2 kmh SSW 12.0 mph19.3 kmh 29.84 in1010.5 mb 0.00 in0.0 mm 0.00 in0.0 mm 0.00 in0.0 mm
02:49 PM 57.2°F14.0°C 39.7°F4.3°C 52% 12.4 mph SW20.0 kmh SW 17.0 mph27.4 kmh 29.84 in1010.5 mb 0.00 in0.0 mm 0.00 in0.0 mm 0.00 in0.0 mm
02:50 PM 57.2°F14.0°C 40.2°F4.6°C 53% 12.0 mph SW19.3 kmh SW 17.0 mph27.4 kmh 29.84 in1010.5 mb 0.00 in0.0 mm 0.00 in0.0 mm 0.00 in0.0 mm
02:51 PM 57.1°F13.9°C 40.1°F4.5°C 53% 9.7 mph S15.6 kmh S 16.0 mph25.7 kmh 29.84 in1010.5 mb 0.00 in0.0 mm 0.00 in0.0 mm 0.00 in0.0 mm
02:52 PM 57.1°F13.9°C 39.6°F4.2°C 52% 12.8 mph SSW20.6 kmh SSW 19.0 mph30.6 kmh 29.84 in1010.5 mb 0.00 in0.0 mm 0.00 in0.0 mm 0.00 in0.0 mm
02:53 PM 57.2°F14.0°C 40.2°F4.6°C 53% 10.6 mph SW17.1 kmh SW 19.0 mph30.6 kmh 29.84 in1010.5 mb 0.00 in0.0 mm 0.00 in0.0 mm 0.00 in0.0 mm
02:54 PM 57.3°F14.1°C 40.3°F4.6°C 53% 13.4 mph SW21.6 kmh SW 18.0 mph29.0 kmh 29.84 in1010.5 mb 0.00 in0.0 mm 0.00 in0.0 mm 0.00 in0.0 mm
02:55 PM 57.4°F14.1°C 40.4°F4.7°C 53% 16.2 mph SW26.1 kmh SW 20.0 mph32.2 kmh 29.84 in1010.5 mb 0.00 in0.0 mm 0.00 in0.0 mm 0.00 in0.0 mm
02:56 PM 57.4°F14.1°C 39.9°F4.4°C 52% 14.6 mph SW23.5 kmh SW 20.0 mph32.2 kmh 29.84 in1010.5 mb 0.00 in0.0 mm 0.00 in0.0 mm 0.00 in0.0 mm
02:57 PM 57.5°F14.2°C 40.0°F4.4°C 52% 15.0 mph SW24.1 kmh SW 20.0 mph32.2 kmh 29.84 in1010.5 mb 0.00 in0.0 mm 0.00 in0.0 mm 0.00 in0.0 mm
02:58 PM 57.5°F14.2°C 40.0°F4.4°C 52% 12.6 mph SW20.3 kmh SW 18.0 mph29.0 kmh 29.84 in1010.5 mb 0.00 in0.0 mm 0.00 in0.0 mm 0.00 in0.0 mm
02:59 PM 57.5°F14.2°C 40.0°F4.4°C 52% 11.4 mph SW18.3 kmh SW 17.0 mph27.4 kmh 29.84 in1010.5 mb 0.00 in0.0 mm 0.00 in0.0 mm 0.00 in0.0 mm
03:00 PM 57.6°F14.2°C 40.1°F4.5°C 52% 11.6 mph SW18.7 kmh SW 18.0 mph29.0 kmh 29.84 in1010.5 mb 0.00 in0.0 mm 0.00 in0.0 mm 0.00 in0.0 mm
03:01 PM 57.6°F14.2°C 40.1°F4.5°C 52% 11.8 mph SSW19.0 kmh SSW 18.0 mph29.0 kmh 29.84 in1010.5 mb 0.00 in0.0 mm 0.00 in0.0 mm 0.00 in0.0 mm
03:02 PM 57.6°F14.2°C 40.6°F4.8°C 53% 12.4 mph SSW20.0 kmh SSW 18.0 mph29.0 kmh 29.84 in1010.5 mb 0.00 in0.0 mm 0.00 in0.0 mm 0.00 in0.0 mm
03:03 PM 57.6°F14.2°C 40.1°F4.5°C 52% 14.1 mph S22.7 kmh S 18.0 mph29.0 kmh 29.84 in1010.5 mb 0.00 in0.0 mm 0.00 in0.0 mm 0.00 in0.0 mm
03:04 PM 57.6°F14.2°C 40.6°F4.8°C 53% 12.9 mph SW20.8 kmh SW 18.0 mph29.0 kmh 29.84 in1010.5 mb 0.00 in0.0 mm 0.00 in0.0 mm 0.00 in0.0 mm
03:05 PM 57.8°F14.3°C 40.3°F4.6°C 52% 15.5 mph SW24.9 kmh SW 21.0 mph33.8 kmh 29.84 in1010.5 mb 0.00 in0.0 mm 0.00 in0.0 mm 0.00 in0.0 mm
03:06 PM 58.0°F14.4°C 40.0°F4.4°C 51% 13.5 mph SW21.7 kmh SW 21.0 mph33.8 kmh 29.84 in1010.5 mb 0.00 in0.0 mm 0.00 in0.0 mm 0.00 in0.0 mm
03:07 PM 57.9°F14.4°C 39.4°F4.1°C 50% 13.2 mph SSW21.2 kmh SSW 18.0 mph29.0 kmh 29.84 in1010.5 mb 0.00 in0.0 mm 0.00 in0.0 mm 0.00 in0.0 mm
03:08 PM 57.8°F14.3°C 39.8°F4.3°C 51% 14.9 mph SW24.0 kmh SW 20.0 mph32.2 kmh 29.84 in1010.5 mb 0.00 in0.0 mm 0.00 in0.0 mm 0.00 in0.0 mm
03:09 PM 57.6°F14.2°C 39.1°F3.9°C 50% 16.6 mph SSW26.7 kmh SSW 25.0 mph40.2 kmh 29.83 in1010.2 mb 0.00 in0.0 mm 0.00 in0.0 mm 0.00 in0.0 mm
03:10 PM 57.3°F14.1°C 38.8°F3.8°C 50% 12.7 mph S20.4 kmh S 25.0 mph40.2 kmh 29.83 in1010.2 mb 0.00 in0.0 mm 0.00 in0.0 mm 0.00 in0.0 mm
03:11 PM 57.3°F14.1°C 39.3°F4.1°C 51% 13.6 mph SSW21.9 kmh SSW 20.0 mph32.2 kmh 29.84 in1010.5 mb 0.00 in0.0 mm 0.00 in0.0 mm 0.00 in0.0 mm
03:12 PM 57.1°F13.9°C 38.1°F3.4°C 49% 14.6 mph S23.5 kmh S 20.0 mph32.2 kmh 29.84 in1010.5 mb 0.00 in0.0 mm 0.00 in0.0 mm 0.00 in0.0 mm
03:13 PM 57.0°F13.9°C 38.5°F3.6°C 50% 12.9 mph SSW20.8 kmh SSW 20.0 mph32.2 kmh 29.84 in1010.5 mb 0.00 in0.0 mm 0.00 in0.0 mm 0.00 in0.0 mm
03:14 PM 56.9°F13.8°C 39.0°F3.9°C 51% 14.8 mph SW23.8 kmh SW 17.0 mph27.4 kmh 29.84 in1010.5 mb 0.00 in0.0 mm 0.00 in0.0 mm 0.00 in0.0 mm
03:15 PM 56.8°F13.8°C 38.9°F3.8°C 51% 13.3 mph SSW21.4 kmh SSW 17.0 mph27.4 kmh 29.84 in1010.5 mb 0.00 in0.0 mm 0.00 in0.0 mm 0.00 in0.0 mm
03:16 PM 56.8°F13.8°C 39.4°F4.1°C 52% 11.2 mph SSW18.0 kmh SSW 17.0 mph27.4 kmh 29.84 in1010.5 mb 0.00 in0.0 mm 0.00 in0.0 mm 0.00 in0.0 mm
03:17 PM 56.8°F13.8°C 39.9°F4.4°C 53% 13.5 mph SW21.7 kmh SW 18.0 mph29.0 kmh 29.84 in1010.5 mb 0.00 in0.0 mm 0.00 in0.0 mm 0.00 in0.0 mm
03:18 PM 56.8°F13.8°C 40.3°F4.6°C 54% 9.8 mph SW15.8 kmh SW 18.0 mph29.0 kmh 29.84 in1010.5 mb 0.00 in0.0 mm 0.00 in0.0 mm 0.00 in0.0 mm
03:19 PM 56.9°F13.8°C 40.9°F4.9°C 55% 9.6 mph SW15.4 kmh SW 14.0 mph22.5 kmh 29.84 in1010.5 mb 0.00 in0.0 mm 0.00 in0.0 mm 0.00 in0.0 mm
03:20 PM 57.0°F13.9°C 41.0°F5.0°C 55% 11.4 mph SW18.3 kmh SW 18.0 mph29.0 kmh 29.84 in1010.5 mb 0.00 in0.0 mm 0.00 in0.0 mm 0.00 in0.0 mm
03:21 PM 57.1°F13.9°C 40.1°F4.5°C 53% 15.1 mph SW24.3 kmh SW 21.0 mph33.8 kmh 29.84 in1010.5 mb 0.00 in0.0 mm 0.00 in0.0 mm 0.00 in0.0 mm
03:22 PM 57.0°F13.9°C 40.0°F4.4°C 53% 18.4 mph SW29.6 kmh SW 21.0 mph33.8 kmh 29.84 in1010.5 mb 0.00 in0.0 mm 0.00 in0.0 mm 0.00 in0.0 mm
03:23 PM 57.0°F13.9°C 40.5°F4.7°C 54% 13.2 mph SW21.2 kmh SW 21.0 mph33.8 kmh 29.84 in1010.5 mb 0.00 in0.0 mm 0.00 in0.0 mm 0.00 in0.0 mm
03:24 PM 57.0°F13.9°C 40.5°F4.7°C 54% 11.0 mph SSW17.7 kmh SSW 16.0 mph25.7 kmh 29.84 in1010.5 mb 0.00 in0.0 mm 0.00 in0.0 mm 0.00 in0.0 mm
03:25 PM 57.1°F13.9°C 40.1°F4.5°C 53% 14.6 mph SW23.5 kmh SW 18.0 mph29.0 kmh 29.84 in1010.5 mb 0.00 in0.0 mm 0.00 in0.0 mm 0.00 in0.0 mm
03:26 PM 57.1°F13.9°C 40.1°F4.5°C 53% 15.1 mph SW24.3 kmh SW 19.0 mph30.6 kmh 29.84 in1010.5 mb 0.00 in0.0 mm 0.00 in0.0 mm 0.00 in0.0 mm
03:27 PM 57.0°F13.9°C 40.0°F4.4°C 53% 14.2 mph SW22.9 kmh SW 19.0 mph30.6 kmh 29.83 in1010.2 mb 0.00 in0.0 mm 0.00 in0.0 mm 0.00 in0.0 mm
03:28 PM 57.0°F13.9°C 40.5°F4.7°C 54% 12.7 mph SW20.4 kmh SW 18.0 mph29.0 kmh 29.84 in1010.5 mb 0.00 in0.0 mm 0.00 in0.0 mm 0.00 in0.0 mm
03:29 PM 56.9°F13.8°C 40.4°F4.7°C 54% 11.6 mph SW18.7 kmh SW 16.0 mph25.7 kmh 29.84 in1010.5 mb 0.00 in0.0 mm 0.00 in0.0 mm 0.00 in0.0 mm
03:30 PM 56.8°F13.8°C 40.3°F4.6°C 54% 12.5 mph SW20.1 kmh SW 15.0 mph24.1 kmh 29.83 in1010.2 mb 0.00 in0.0 mm 0.00 in0.0 mm 0.00 in0.0 mm
03:31 PM 56.8°F13.8°C 40.3°F4.6°C 54% 10.7 mph SW17.2 kmh SW 15.0 mph24.1 kmh 29.84 in1010.5 mb 0.00 in0.0 mm 0.00 in0.0 mm 0.00 in0.0 mm
03:32 PM 56.8°F13.8°C 40.3°F4.6°C 54% 11.7 mph SW18.8 kmh SW 15.0 mph24.1 kmh 29.84 in1010.5 mb 0.00 in0.0 mm 0.00 in0.0 mm 0.00 in0.0 mm
03:33 PM 56.7°F13.7°C 40.2°F4.6°C 54% 10.8 mph SW17.4 kmh SW 16.0 mph25.7 kmh 29.83 in1010.2 mb 0.00 in0.0 mm 0.00 in0.0 mm 0.00 in0.0 mm
03:34 PM 56.6°F13.7°C 40.1°F4.5°C 54% 11.4 mph SW18.3 kmh SW 16.0 mph25.7 kmh 29.83 in1010.2 mb 0.00 in0.0 mm 0.00 in0.0 mm 0.00 in0.0 mm
03:35 PM 56.6°F13.7°C 41.1°F5.1°C 56% 10.6 mph SW17.1 kmh SW 16.0 mph25.7 kmh 29.83 in1010.2 mb 0.00 in0.0 mm 0.00 in0.0 mm 0.00 in0.0 mm
03:36 PM 56.5°F13.6°C 39.6°F4.2°C 53% 13.6 mph SW21.9 kmh SW 19.0 mph30.6 kmh 29.83 in1010.2 mb 0.00 in0.0 mm 0.00 in0.0 mm 0.00 in0.0 mm
03:37 PM 56.5°F13.6°C 40.1°F4.5°C 54% 10.0 mph SW16.1 kmh SW 19.0 mph30.6 kmh 29.83 in1010.2 mb 0.00 in0.0 mm 0.00 in0.0 mm 0.00 in0.0 mm
03:38 PM 56.5°F13.6°C 39.6°F4.2°C 53% 11.6 mph SW18.7 kmh SW 13.0 mph20.9 kmh 29.83 in1010.2 mb 0.00 in0.0 mm 0.00 in0.0 mm 0.00 in0.0 mm
03:39 PM 56.6°F13.7°C 39.2°F4.0°C 52% 11.1 mph SSW17.9 kmh SSW 14.0 mph22.5 kmh 29.83 in1010.2 mb 0.00 in0.0 mm 0.00 in0.0 mm 0.00 in0.0 mm
03:40 PM 56.6°F13.7°C 39.7°F4.3°C 53% 9.9 mph SW15.9 kmh SW 14.0 mph22.5 kmh 29.83 in1010.2 mb 0.00 in0.0 mm 0.00 in0.0 mm 0.00 in0.0 mm
03:41 PM 56.6°F13.7°C 39.2°F4.0°C 52% 11.8 mph SW19.0 kmh SW 15.0 mph24.1 kmh 29.83 in1010.2 mb 0.00 in0.0 mm 0.00 in0.0 mm 0.00 in0.0 mm
03:42 PM 56.7°F13.7°C 39.3°F4.1°C 52% 12.2 mph SSW19.6 kmh SSW 16.0 mph25.7 kmh 29.83 in1010.2 mb 0.00 in0.0 mm 0.00 in0.0 mm 0.00 in0.0 mm
03:43 PM 56.6°F13.7°C 39.2°F4.0°C 52% 11.1 mph SW17.9 kmh SW 16.0 mph25.7 kmh 29.83 in1010.2 mb 0.00 in0.0 mm 0.00 in0.0 mm 0.00 in0.0 mm
03:44 PM 56.5°F13.6°C 39.1°F3.9°C 52% 16.3 mph SW26.2 kmh SW 20.0 mph32.2 kmh 29.83 in1010.2 mb 0.00 in0.0 mm 0.00 in0.0 mm 0.00 in0.0 mm
03:45 PM 56.5°F13.6°C 38.6°F3.7°C 51% 18.0 mph SW29.0 kmh SW 21.0 mph33.8 kmh 29.83 in1010.2 mb 0.00 in0.0 mm 0.00 in0.0 mm 0.00 in0.0 mm
03:46 PM 56.5°F13.6°C 39.1°F3.9°C 52% 11.2 mph SW18.0 kmh SW 21.0 mph33.8 kmh 29.83 in1010.2 mb 0.00 in0.0 mm 0.00 in0.0 mm 0.00 in0.0 mm
03:47 PM 56.5°F13.6°C 39.1°F3.9°C 52% 10.6 mph SW17.1 kmh SW 15.0 mph24.1 kmh 29.83 in1010.2 mb 0.00 in0.0 mm 0.00 in0.0 mm 0.00 in0.0 mm
03:48 PM 56.5°F13.6°C 39.1°F3.9°C 52% 10.2 mph SW16.4 kmh SW 14.0 mph22.5 kmh 29.83 in1010.2 mb 0.00 in0.0 mm 0.00 in0.0 mm 0.00 in0.0 mm
03:49 PM 56.5°F13.6°C 39.1°F3.9°C 52% 11.1 mph SW17.9 kmh SW 19.0 mph30.6 kmh 29.83 in1010.2 mb 0.00 in0.0 mm 0.00 in0.0 mm 0.00 in0.0 mm
03:50 PM 56.5°F13.6°C 39.1°F3.9°C 52% 14.5 mph SW23.3 kmh SW 20.0 mph32.2 kmh 29.83 in1010.2 mb 0.00 in0.0 mm 0.00 in0.0 mm 0.00 in0.0 mm
03:51 PM 56.4°F13.6°C 39.5°F4.2°C 53% 15.1 mph SW24.3 kmh SW 20.0 mph32.2 kmh 29.83 in1010.2 mb 0.00 in0.0 mm 0.00 in0.0 mm 0.00 in0.0 mm
03:52 PM 56.4°F13.6°C 39.5°F4.2°C 53% 10.5 mph SW16.9 kmh SW 19.0 mph30.6 kmh 29.83 in1010.2 mb 0.00 in0.0 mm 0.00 in0.0 mm 0.00 in0.0 mm
03:53 PM 56.4°F13.6°C 39.5°F4.2°C 53% 13.1 mph SW21.1 kmh SW 15.0 mph24.1 kmh 29.83 in1010.2 mb 0.00 in0.0 mm 0.00 in0.0 mm 0.00 in0.0 mm
03:54 PM 56.3°F13.5°C 39.4°F4.1°C 53% 14.9 mph SSW24.0 kmh SSW 19.0 mph30.6 kmh 29.83 in1010.2 mb 0.00 in0.0 mm 0.00 in0.0 mm 0.00 in0.0 mm
03:55 PM 56.3°F13.5°C 39.4°F4.1°C 53% 10.6 mph SW17.1 kmh SW 19.0 mph30.6 kmh 29.83 in1010.2 mb 0.00 in0.0 mm 0.00 in0.0 mm 0.00 in0.0 mm
03:56 PM 56.3°F13.5°C 39.4°F4.1°C 53% 10.3 mph SW16.6 kmh SW 14.0 mph22.5 kmh 29.83 in1010.2 mb 0.00 in0.0 mm 0.00 in0.0 mm 0.00 in0.0 mm
03:57 PM 56.5°F13.6°C 39.6°F4.2°C 53% 12.3 mph SW19.8 kmh SW 15.0 mph24.1 kmh 29.83 in1010.2 mb 0.00 in0.0 mm 0.00 in0.0 mm 0.00 in0.0 mm
03:58 PM 56.6°F13.7°C 39.2°F4.0°C 52% 12.5 mph SW20.1 kmh SW 15.0 mph24.1 kmh 29.83 in1010.2 mb 0.00 in0.0 mm 0.00 in0.0 mm 0.00 in0.0 mm
03:59 PM 56.7°F13.7°C 39.3°F4.1°C 52% 12.2 mph SW19.6 kmh SW 15.0 mph24.1 kmh 29.83 in1010.2 mb 0.00 in0.0 mm 0.00 in0.0 mm 0.00 in0.0 mm
04:00 PM 56.8°F13.8°C 38.9°F3.8°C 51% 13.4 mph SW21.6 kmh SW 17.0 mph27.4 kmh 29.83 in1010.2 mb 0.00 in0.0 mm 0.00 in0.0 mm 0.00 in0.0 mm
04:01 PM 56.9°F13.8°C 39.0°F3.9°C 51% 12.7 mph SW20.4 kmh SW 17.0 mph27.4 kmh 29.83 in1010.2 mb 0.00 in0.0 mm 0.00 in0.0 mm 0.00 in0.0 mm
04:02 PM 57.0°F13.9°C 39.1°F3.9°C 51% 13.5 mph SW21.7 kmh SW 16.0 mph25.7 kmh 29.83 in1010.2 mb 0.00 in0.0 mm 0.00 in0.0 mm 0.00 in0.0 mm
04:03 PM 57.0°F13.9°C 39.5°F4.2°C 52% 10.3 mph SW16.6 kmh SW 16.0 mph25.7 kmh 29.83 in1010.2 mb 0.00 in0.0 mm 0.00 in0.0 mm 0.00 in0.0 mm
04:04 PM 57.0°F13.9°C 39.5°F4.2°C 52% 10.6 mph SW17.1 kmh SW 14.0 mph22.5 kmh 29.83 in1010.2 mb 0.00 in0.0 mm 0.00 in0.0 mm 0.00 in0.0 mm
04:05 PM 57.0°F13.9°C 39.5°F4.2°C 52% 10.4 mph SW16.7 kmh SW 13.0 mph20.9 kmh 29.83 in1010.2 mb 0.00 in0.0 mm 0.00 in0.0 mm 0.00 in0.0 mm
04:06 PM 56.9°F13.8°C 39.9°F4.4°C 53% 8.4 mph SW13.5 kmh SW 13.0 mph20.9 kmh 29.83 in1010.2 mb 0.00 in0.0 mm 0.00 in0.0 mm 0.00 in0.0 mm
04:07 PM 56.9°F13.8°C 39.9°F4.4°C 53% 7.5 mph SW12.1 kmh SW 12.0 mph19.3 kmh 29.83 in1010.2 mb 0.00 in0.0 mm 0.00 in0.0 mm 0.00 in0.0 mm
04:08 PM 56.9°F13.8°C 39.9°F4.4°C 53% 11.0 mph SW17.7 kmh SW 14.0 mph22.5 kmh 29.83 in1010.2 mb 0.00 in0.0 mm 0.00 in0.0 mm 0.00 in0.0 mm
04:09 PM 56.8°F13.8°C 39.4°F4.1°C 52% 9.3 mph SSW15.0 kmh SSW 14.0 mph22.5 kmh 29.83 in1010.2 mb 0.00 in0.0 mm 0.00 in0.0 mm 0.00 in0.0 mm
04:10 PM 56.9°F13.8°C 39.5°F4.2°C 52% 9.4 mph SSW15.1 kmh SSW 12.0 mph19.3 kmh 29.83 in1010.2 mb 0.00 in0.0 mm 0.00 in0.0 mm 0.00 in0.0 mm
04:11 PM 56.9°F13.8°C 39.0°F3.9°C 51% 9.1 mph SW14.6 kmh SW 12.0 mph19.3 kmh 29.83 in1010.2 mb 0.00 in0.0 mm 0.00 in0.0 mm 0.00 in0.0 mm
04:12 PM 57.0°F13.9°C 39.5°F4.2°C 52% 9.7 mph SW15.6 kmh SW 13.0 mph20.9 kmh 29.83 in1010.2 mb 0.00 in0.0 mm 0.00 in0.0 mm 0.00 in0.0 mm
04:13 PM 57.2°F14.0°C 38.7°F3.7°C 50% 11.7 mph SW18.8 kmh SW 15.0 mph24.1 kmh 29.83 in1010.2 mb 0.00 in0.0 mm 0.00 in0.0 mm 0.00 in0.0 mm
04:14 PM 57.3°F14.1°C 38.8°F3.8°C 50% 13.3 mph SW21.4 kmh SW 15.0 mph24.1 kmh 29.83 in1010.2 mb 0.00 in0.0 mm 0.00 in0.0 mm 0.00 in0.0 mm
04:15 PM 57.5°F14.2°C 39.0°F3.9°C 50% 11.3 mph SW18.2 kmh SW 15.0 mph24.1 kmh 29.83 in1010.2 mb 0.00 in0.0 mm 0.00 in0.0 mm 0.00 in0.0 mm
04:16 PM 57.7°F14.3°C 39.2°F4.0°C 50% 12.4 mph SW20.0 kmh SW 15.0 mph24.1 kmh 29.83 in1010.2 mb 0.00 in0.0 mm 0.00 in0.0 mm 0.00 in0.0 mm
04:17 PM 57.7°F14.3°C 38.7°F3.7°C 49% 12.0 mph SW19.3 kmh SW 15.0 mph24.1 kmh 29.83 in1010.2 mb 0.00 in0.0 mm 0.00 in0.0 mm 0.00 in0.0 mm
04:18 PM 57.9°F14.4°C 39.4°F4.1°C 50% 11.1 mph SW17.9 kmh SW 14.0 mph22.5 kmh 29.83 in1010.2 mb 0.00 in0.0 mm 0.00 in0.0 mm 0.00 in0.0 mm
04:19 PM 57.9°F14.4°C 39.9°F4.4°C 51% 10.1 mph SW16.3 kmh SW 14.0 mph22.5 kmh 29.83 in1010.2 mb 0.00 in0.0 mm 0.00 in0.0 mm 0.00 in0.0 mm
04:20 PM 58.0°F14.4°C 40.5°F4.7°C 52% 10.5 mph SW16.9 kmh SW 14.0 mph22.5 kmh 29.83 in1010.2 mb 0.00 in0.0 mm 0.00 in0.0 mm 0.00 in0.0 mm
04:21 PM 58.1°F14.5°C 39.6°F4.2°C 50% 13.5 mph SW21.7 kmh SW 18.0 mph29.0 kmh 29.83 in1010.2 mb 0.00 in0.0 mm 0.00 in0.0 mm 0.00 in0.0 mm
04:22 PM 58.1°F14.5°C 38.5°F3.6°C 48% 14.0 mph SW22.5 kmh SW 18.0 mph29.0 kmh 29.83 in1010.2 mb 0.00 in0.0 mm 0.00 in0.0 mm 0.00 in0.0 mm
04:23 PM 57.8°F14.3°C 38.2°F3.4°C 48% 17.0 mph WSW27.4 kmh WSW 19.0 mph30.6 kmh 29.83 in1010.2 mb 0.00 in0.0 mm 0.00 in0.0 mm 0.00 in0.0 mm
04:24 PM 57.6°F14.2°C 39.1°F3.9°C 50% 16.2 mph WSW26.1 kmh WSW 18.0 mph29.0 kmh 29.83 in1010.2 mb 0.00 in0.0 mm 0.00 in0.0 mm 0.00 in0.0 mm
04:25 PM 57.4°F14.1°C 39.4°F4.1°C 51% 15.2 mph WSW24.5 kmh WSW 18.0 mph29.0 kmh 29.82 in1009.8 mb 0.00 in0.0 mm 0.00 in0.0 mm 0.00 in0.0 mm
04:26 PM 57.3°F14.1°C 39.3°F4.1°C 51% 14.5 mph SW23.3 kmh SW 18.0 mph29.0 kmh 29.82 in1009.8 mb 0.00 in0.0 mm 0.00 in0.0 mm 0.00 in0.0 mm
04:27 PM 57.2°F14.0°C 39.7°F4.3°C 52% 11.3 mph SW18.2 kmh SW 16.0 mph25.7 kmh 29.82 in1009.8 mb 0.00 in0.0 mm 0.00 in0.0 mm 0.00 in0.0 mm
04:28 PM 57.2°F14.0°C 38.7°F3.7°C 50% 10.7 mph SW17.2 kmh SW 14.0 mph22.5 kmh 29.82 in1009.8 mb 0.00 in0.0 mm 0.00 in0.0 mm 0.00 in0.0 mm
04:29 PM 57.3°F14.1°C 38.8°F3.8°C 50% 11.8 mph SW19.0 kmh SW 18.0 mph29.0 kmh 29.83 in1010.2 mb 0.00 in0.0 mm 0.00 in0.0 mm 0.00 in0.0 mm
04:30 PM 57.3°F14.1°C 38.3°F3.5°C 49% 14.4 mph SW23.2 kmh SW 18.0 mph29.0 kmh 29.82 in1009.8 mb 0.00 in0.0 mm 0.00 in0.0 mm 0.00 in0.0 mm
04:31 PM 57.4°F14.1°C 38.9°F3.8°C 50% 12.3 mph SW19.8 kmh SW 18.0 mph29.0 kmh 29.82 in1009.8 mb 0.00 in0.0 mm 0.00 in0.0 mm 0.00 in0.0 mm
04:32 PM 57.5°F14.2°C 39.0°F3.9°C 50% 10.0 mph SW16.1 kmh SW 15.0 mph24.1 kmh 29.82 in1009.8 mb 0.00 in0.0 mm 0.00 in0.0 mm 0.00 in0.0 mm
04:33 PM 57.5°F14.2°C 38.5°F3.6°C 49% 9.4 mph SSW15.1 kmh SSW 14.0 mph22.5 kmh 29.82 in1009.8 mb 0.00 in0.0 mm 0.00 in0.0 mm 0.00 in0.0 mm
04:34 PM 57.5°F14.2°C 38.0°F3.3°C 48% 15.1 mph SW24.3 kmh SW 20.0 mph32.2 kmh 29.82 in1009.8 mb 0.00 in0.0 mm 0.00 in0.0 mm 0.00 in0.0 mm
04:35 PM 57.5°F14.2°C 38.0°F3.3°C 48% 14.6 mph SW23.5 kmh SW 20.0 mph32.2 kmh 29.82 in1009.8 mb 0.00 in0.0 mm 0.00 in0.0 mm 0.00 in0.0 mm
04:36 PM 57.4°F14.1°C 37.9°F3.3°C 48% 14.3 mph SW23.0 kmh SW 17.0 mph27.4 kmh 29.82 in1009.8 mb 0.00 in0.0 mm 0.00 in0.0 mm 0.00 in0.0 mm
04:37 PM 57.3°F14.1°C 38.3°F3.5°C 49% 12.4 mph SW20.0 kmh SW 17.0 mph27.4 kmh 29.82 in1009.8 mb 0.00 in0.0 mm 0.00 in0.0 mm 0.00 in0.0 mm
04:38 PM 57.3°F14.1°C 37.8°F3.2°C 48% 9.4 mph SW15.1 kmh SW 16.0 mph25.7 kmh 29.82 in1009.8 mb 0.00 in0.0 mm 0.00 in0.0 mm 0.00 in0.0 mm
04:39 PM 57.4°F14.1°C 38.4°F3.6°C 49% 10.8 mph SW17.4 kmh SW 15.0 mph24.1 kmh 29.82 in1009.8 mb 0.00 in0.0 mm 0.00 in0.0 mm 0.00 in0.0 mm
04:40 PM 57.5°F14.2°C 38.0°F3.3°C 48% 10.2 mph SW16.4 kmh SW 15.0 mph24.1 kmh 29.82 in1009.8 mb 0.00 in0.0 mm 0.00 in0.0 mm 0.00 in0.0 mm
04:41 PM 57.4°F14.1°C 38.4°F3.6°C 49% 8.8 mph SW14.2 kmh SW 13.0 mph20.9 kmh 29.82 in1009.8 mb 0.00 in0.0 mm 0.00 in0.0 mm 0.00 in0.0 mm
04:42 PM 57.4°F14.1°C 38.4°F3.6°C 49% 8.2 mph SSW13.2 kmh SSW 11.0 mph17.7 kmh 29.82 in1009.8 mb 0.00 in0.0 mm 0.00 in0.0 mm 0.00 in0.0 mm
04:43 PM 57.5°F14.2°C 38.5°F3.6°C 49% 10.5 mph SW16.9 kmh SW 13.0 mph20.9 kmh 29.82 in1009.8 mb 0.00 in0.0 mm 0.00 in0.0 mm 0.00 in0.0 mm
04:44 PM 57.5°F14.2°C 38.5°F3.6°C 49% 14.0 mph SW22.5 kmh SW 17.0 mph27.4 kmh 29.82 in1009.8 mb 0.00 in0.0 mm 0.00 in0.0 mm 0.00 in0.0 mm
04:45 PM 57.5°F14.2°C 38.5°F3.6°C 49% 9.3 mph SSW15.0 kmh SSW 17.0 mph27.4 kmh 29.82 in1009.8 mb 0.00 in0.0 mm 0.00 in0.0 mm 0.00 in0.0 mm
04:46 PM 57.4°F14.1°C 38.4°F3.6°C 49% 12.5 mph S20.1 kmh S 16.0 mph25.7 kmh 29.82 in1009.8 mb 0.00 in0.0 mm 0.00 in0.0 mm 0.00 in0.0 mm
04:47 PM 57.5°F14.2°C 38.5°F3.6°C 49% 12.1 mph S19.5 kmh S 17.0 mph27.4 kmh 29.82 in1009.8 mb 0.00 in0.0 mm 0.00 in0.0 mm 0.00 in0.0 mm
04:48 PM 57.4°F14.1°C 38.4°F3.6°C 49% 8.4 mph SSW13.5 kmh SSW 17.0 mph27.4 kmh 29.82 in1009.8 mb 0.00 in0.0 mm 0.00 in0.0 mm 0.00 in0.0 mm
04:49 PM 57.5°F14.2°C 39.0°F3.9°C 50% 8.8 mph SW14.2 kmh SW 13.0 mph20.9 kmh 29.82 in1009.8 mb 0.00 in0.0 mm 0.00 in0.0 mm 0.00 in0.0 mm
04:50 PM 57.5°F14.2°C 39.0°F3.9°C 50% 8.5 mph SSW13.7 kmh SSW 13.0 mph20.9 kmh 29.82 in1009.8 mb 0.00 in0.0 mm 0.00 in0.0 mm 0.00 in0.0 mm
04:51 PM 57.6°F14.2°C 39.1°F3.9°C 50% 8.5 mph SSW13.7 kmh SSW 12.0 mph19.3 kmh 29.82 in1009.8 mb 0.00 in0.0 mm 0.00 in0.0 mm 0.00 in0.0 mm
04:52 PM 57.7°F14.3°C 38.7°F3.7°C 49% 12.1 mph S19.5 kmh S 15.0 mph24.1 kmh 29.82 in1009.8 mb 0.00 in0.0 mm 0.00 in0.0 mm 0.00 in0.0 mm
04:53 PM 57.8°F14.3°C 38.8°F3.8°C 49% 11.2 mph SSW18.0 kmh SSW 15.0 mph24.1 kmh 29.82 in1009.8 mb 0.00 in0.0 mm 0.00 in0.0 mm 0.00 in0.0 mm
04:54 PM 57.7°F14.3°C 38.1°F3.4°C 48% 11.8 mph SSW19.0 kmh SSW 15.0 mph24.1 kmh 29.82 in1009.8 mb 0.00 in0.0 mm 0.00 in0.0 mm 0.00 in0.0 mm
04:55 PM 57.7°F14.3°C 38.1°F3.4°C 48% 11.0 mph S17.7 kmh S 14.0 mph22.5 kmh 29.82 in1009.8 mb 0.00 in0.0 mm 0.00 in0.0 mm 0.00 in0.0 mm
04:56 PM 57.6°F14.2°C 38.6°F3.7°C 49% 10.2 mph S16.4 kmh S 14.0 mph22.5 kmh 29.82 in1009.8 mb 0.00 in0.0 mm 0.00 in0.0 mm 0.00 in0.0 mm
04:57 PM 57.6°F14.2°C 38.6°F3.7°C 49% 10.4 mph SSW16.7 kmh SSW 13.0 mph20.9 kmh 29.82 in1009.8 mb 0.00 in0.0 mm 0.00 in0.0 mm 0.00 in0.0 mm
04:58 PM 57.5°F14.2°C 39.0°F3.9°C 50% 9.3 mph S15.0 kmh S 13.0 mph20.9 kmh 29.82 in1009.8 mb 0.00 in0.0 mm 0.00 in0.0 mm 0.00 in0.0 mm
04:59 PM 57.5°F14.2°C 39.5°F4.2°C 51% 8.1 mph S13.0 kmh S 12.0 mph19.3 kmh 29.82 in1009.8 mb 0.00 in0.0 mm 0.00 in0.0 mm 0.00 in0.0 mm
05:00 PM 57.5°F14.2°C 39.0°F3.9°C 50% 10.8 mph S17.4 kmh S 13.0 mph20.9 kmh 29.82 in1009.8 mb 0.00 in0.0 mm 0.00 in0.0 mm 0.00 in0.0 mm
05:01 PM 57.3°F14.1°C 38.3°F3.5°C 49% 7.8 mph S12.6 kmh S 13.0 mph20.9 kmh 29.82 in1009.8 mb 0.00 in0.0 mm 0.00 in0.0 mm 0.00 in0.0 mm
05:02 PM 57.3°F14.1°C 38.8°F3.8°C 50% 8.5 mph S13.7 kmh S 12.0 mph19.3 kmh 29.82 in1009.8 mb 0.00 in0.0 mm 0.00 in0.0 mm 0.00 in0.0 mm
05:03 PM 57.2°F14.0°C 38.7°F3.7°C 50% 8.1 mph SSW13.0 kmh SSW 12.0 mph19.3 kmh 29.82 in1009.8 mb 0.00 in0.0 mm 0.00 in0.0 mm 0.00 in0.0 mm
05:04 PM 57.2°F14.0°C 39.2°F4.0°C 51% 8.5 mph S13.7 kmh S 11.0 mph17.7 kmh 29.82 in1009.8 mb 0.00 in0.0 mm 0.00 in0.0 mm 0.00 in0.0 mm
05:05 PM 57.2°F14.0°C 39.7°F4.3°C 52% 8.3 mph S13.4 kmh S 11.0 mph17.7 kmh 29.82 in1009.8 mb 0.00 in0.0 mm 0.00 in0.0 mm 0.00 in0.0 mm
05:06 PM 57.1°F13.9°C 39.6°F4.2°C 52% 7.1 mph S11.4 kmh S 11.0 mph17.7 kmh 29.82 in1009.8 mb 0.00 in0.0 mm 0.00 in0.0 mm 0.00 in0.0 mm
05:07 PM 57.1°F13.9°C 39.6°F4.2°C 52% 8.8 mph SSE14.2 kmh SSE 14.0 mph22.5 kmh 29.82 in1009.8 mb 0.00 in0.0 mm 0.00 in0.0 mm 0.00 in0.0 mm
05:08 PM 57.0°F13.9°C 40.5°F4.7°C 54% 6.1 mph SSE9.8 kmh SSE 14.0 mph22.5 kmh 29.82 in1009.8 mb 0.00 in0.0 mm 0.00 in0.0 mm 0.00 in0.0 mm
05:09 PM 57.0°F13.9°C 41.0°F5.0°C 55% 6.3 mph SSE10.1 kmh SSE 9.0 mph14.5 kmh 29.82 in1009.8 mb 0.00 in0.0 mm 0.00 in0.0 mm 0.00 in0.0 mm
05:10 PM 56.9°F13.8°C 40.9°F4.9°C 55% 7.1 mph S11.4 kmh S 11.0 mph17.7 kmh 29.82 in1009.8 mb 0.00 in0.0 mm 0.00 in0.0 mm 0.00 in0.0 mm
05:11 PM 56.8°F13.8°C 40.8°F4.9°C 55% 6.7 mph S10.8 kmh S 11.0 mph17.7 kmh 29.82 in1009.8 mb 0.00 in0.0 mm 0.00 in0.0 mm 0.00 in0.0 mm
05:12 PM 56.8°F13.8°C 41.3°F5.2°C 56% 5.0 mph SSE8.0 kmh SSE 9.0 mph14.5 kmh 29.82 in1009.8 mb 0.00 in0.0 mm 0.00 in0.0 mm 0.00 in0.0 mm
05:13 PM 56.7°F13.7°C 41.6°F5.3°C 57% 4.0 mph SE6.4 kmh SE 8.0 mph12.9 kmh 29.82 in1009.8 mb 0.00 in0.0 mm 0.00 in0.0 mm 0.00 in0.0 mm
05:14 PM 56.6°F13.7°C 42.4°F5.8°C 59% 6.4 mph SE10.3 kmh SE 13.0 mph20.9 kmh 29.82 in1009.8 mb 0.00 in0.0 mm 0.00 in0.0 mm 0.00 in0.0 mm
05:15 PM 56.6°F13.7°C 42.9°F6.1°C 60% 9.4 mph SE15.1 kmh SE 13.0 mph20.9 kmh 29.82 in1009.8 mb 0.00 in0.0 mm 0.00 in0.0 mm 0.00 in0.0 mm
05:16 PM 56.5°F13.6°C 42.8°F6.0°C 60% 7.0 mph SE11.3 kmh SE 13.0 mph20.9 kmh 29.82 in1009.8 mb 0.00 in0.0 mm 0.00 in0.0 mm 0.00 in0.0 mm
05:17 PM 56.4°F13.6°C 43.1°F6.2°C 61% 6.1 mph SSE9.8 kmh SSE 10.0 mph16.1 kmh 29.82 in1009.8 mb 0.00 in0.0 mm 0.00 in0.0 mm 0.00 in0.0 mm
05:18 PM 56.3°F13.5°C 43.0°F6.1°C 61% 5.5 mph SE8.9 kmh SE 9.0 mph14.5 kmh 29.82 in1009.8 mb 0.00 in0.0 mm 0.00 in0.0 mm 0.00 in0.0 mm
05:19 PM 56.2°F13.4°C 43.4°F6.3°C 62% 4.0 mph SE6.4 kmh SE 8.0 mph12.9 kmh 29.82 in1009.8 mb 0.00 in0.0 mm 0.00 in0.0 mm 0.00 in0.0 mm
05:20 PM 56.2°F13.4°C 43.4°F6.3°C 62% 5.0 mph SE8.0 kmh SE 7.0 mph11.3 kmh 29.82 in1009.8 mb 0.00 in0.0 mm 0.00 in0.0 mm 0.00 in0.0 mm
05:21 PM 56.2°F13.4°C 43.4°F6.3°C 62% 4.6 mph S7.4 kmh S 5.0 mph8.0 kmh 29.82 in1009.8 mb 0.00 in0.0 mm 0.00 in0.0 mm 0.00 in0.0 mm
05:22 PM 56.2°F13.4°C 42.9°F6.1°C 61% 9.6 mph SSE15.4 kmh SSE 13.0 mph20.9 kmh 29.82 in1009.8 mb 0.00 in0.0 mm 0.00 in0.0 mm 0.00 in0.0 mm
05:23 PM 56.1°F13.4°C 42.8°F6.0°C 61% 7.3 mph SSE11.7 kmh SSE 13.0 mph20.9 kmh 29.82 in1009.8 mb 0.00 in0.0 mm 0.00 in0.0 mm 0.00 in0.0 mm
05:24 PM 56.1°F13.4°C 42.8°F6.0°C 61% 8.4 mph S13.5 kmh S 12.0 mph19.3 kmh 29.82 in1009.8 mb 0.00 in0.0 mm 0.00 in0.0 mm 0.00 in0.0 mm
05:25 PM 56.0°F13.3°C 42.7°F5.9°C 61% 5.7 mph S9.2 kmh S 12.0 mph19.3 kmh 29.82 in1009.8 mb 0.00 in0.0 mm 0.00 in0.0 mm 0.00 in0.0 mm
05:26 PM 56.0°F13.3°C 42.7°F5.9°C 61% 5.0 mph SSE8.0 kmh SSE 9.0 mph14.5 kmh 29.82 in1009.8 mb 0.00 in0.0 mm 0.00 in0.0 mm 0.00 in0.0 mm
05:27 PM 56.1°F13.4°C 42.8°F6.0°C 61% 6.8 mph SE10.9 kmh SE 10.0 mph16.1 kmh 29.82 in1009.8 mb 0.00 in0.0 mm 0.00 in0.0 mm 0.00 in0.0 mm
05:28 PM 56.0°F13.3°C 42.7°F5.9°C 61% 6.5 mph S10.5 kmh S 10.0 mph16.1 kmh 29.82 in1009.8 mb 0.00 in0.0 mm 0.00 in0.0 mm 0.00 in0.0 mm
05:29 PM 56.0°F13.3°C 42.7°F5.9°C 61% 4.7 mph S7.6 kmh S 9.0 mph14.5 kmh 29.82 in1009.8 mb 0.00 in0.0 mm 0.00 in0.0 mm 0.00 in0.0 mm
05:30 PM 56.0°F13.3°C 42.7°F5.9°C 61% 6.7 mph S10.8 kmh S 12.0 mph19.3 kmh 29.82 in1009.8 mb 0.00 in0.0 mm 0.00 in0.0 mm 0.00 in0.0 mm
05:31 PM 56.0°F13.3°C 42.7°F5.9°C 61% 8.5 mph S13.7 kmh S 12.0 mph19.3 kmh 29.82 in1009.8 mb 0.00 in0.0 mm 0.00 in0.0 mm 0.00 in0.0 mm
05:32 PM 56.0°F13.3°C 42.7°F5.9°C 61% 8.9 mph SSE14.3 kmh SSE 13.0 mph20.9 kmh 29.82 in1009.8 mb 0.00 in0.0 mm 0.00 in0.0 mm 0.00 in0.0 mm
05:33 PM 55.9°F13.3°C 42.6°F5.9°C 61% 9.4 mph SSE15.1 kmh SSE 13.0 mph20.9 kmh 29.82 in1009.8 mb 0.00 in0.0 mm 0.00 in0.0 mm 0.00 in0.0 mm
05:34 PM 55.9°F13.3°C 42.6°F5.9°C 61% 7.0 mph S11.3 kmh S 13.0 mph20.9 kmh 29.82 in1009.8 mb 0.00 in0.0 mm 0.00 in0.0 mm 0.00 in0.0 mm
05:35 PM 55.9°F13.3°C 42.6°F5.9°C 61% 8.7 mph SE14.0 kmh SE 12.0 mph19.3 kmh 29.82 in1009.8 mb 0.00 in0.0 mm 0.00 in0.0 mm 0.00 in0.0 mm
05:36 PM 55.9°F13.3°C 42.6°F5.9°C 61% 8.0 mph SE12.9 kmh SE 12.0 mph19.3 kmh 29.82 in1009.8 mb 0.00 in0.0 mm 0.00 in0.0 mm 0.00 in0.0 mm
05:37 PM 55.8°F13.2°C 42.6°F5.9°C 61% 8.6 mph SE13.8 kmh SE 11.0 mph17.7 kmh 29.82 in1009.8 mb 0.00 in0.0 mm 0.00 in0.0 mm 0.00 in0.0 mm
05:38 PM 55.7°F13.2°C 42.5°F5.8°C 61% 8.3 mph SSE13.4 kmh SSE 13.0 mph20.9 kmh 29.82 in1009.8 mb 0.00 in0.0 mm 0.00 in0.0 mm 0.00 in0.0 mm
05:39 PM 55.7°F13.2°C 42.9°F6.1°C 62% 6.2 mph SSE10.0 kmh SSE 13.0 mph20.9 kmh 29.82 in1009.8 mb 0.00 in0.0 mm 0.00 in0.0 mm 0.00 in0.0 mm
05:40 PM 55.7°F13.2°C 42.9°F6.1°C 62% 9.0 mph SE14.5 kmh SE 11.0 mph17.7 kmh 29.82 in1009.8 mb 0.00 in0.0 mm 0.00 in0.0 mm 0.00 in0.0 mm
05:41 PM 55.7°F13.2°C 42.9°F6.1°C 62% 10.0 mph SE16.1 kmh SE 13.0 mph20.9 kmh 29.82 in1009.8 mb 0.00 in0.0 mm 0.00 in0.0 mm 0.00 in0.0 mm
05:42 PM 55.6°F13.1°C 42.8°F6.0°C 62% 10.9 mph SSE17.5 kmh SSE 13.0 mph20.9 kmh 29.82 in1009.8 mb 0.00 in0.0 mm 0.00 in0.0 mm 0.00 in0.0 mm
05:43 PM 55.6°F13.1°C 42.8°F6.0°C 62% 6.3 mph SSE10.1 kmh SSE 13.0 mph20.9 kmh 29.82 in1009.8 mb 0.00 in0.0 mm 0.00 in0.0 mm 0.00 in0.0 mm
05:44 PM 55.6°F13.1°C 43.2°F6.2°C 63% 7.6 mph SE12.2 kmh SE 12.0 mph19.3 kmh 29.82 in1009.8 mb 0.00 in0.0 mm 0.00 in0.0 mm 0.00 in0.0 mm
05:45 PM 55.6°F13.1°C 43.2°F6.2°C 63% 9.3 mph SSE15.0 kmh SSE 12.0 mph19.3 kmh 29.82 in1009.8 mb 0.00 in0.0 mm 0.00 in0.0 mm 0.00 in0.0 mm
05:46 PM 55.5°F13.1°C 43.1°F6.2°C 63% 4.5 mph SE7.2 kmh SE 12.0 mph19.3 kmh 29.82 in1009.8 mb 0.00 in0.0 mm 0.00 in0.0 mm 0.00 in0.0 mm
05:47 PM 55.5°F13.1°C 43.1°F6.2°C 63% 5.2 mph SE8.4 kmh SE 8.0 mph12.9 kmh 29.82 in1009.8 mb 0.00 in0.0 mm 0.00 in0.0 mm 0.00 in0.0 mm
05:48 PM 55.5°F13.1°C 43.1°F6.2°C 63% 6.0 mph SSE9.7 kmh SSE 9.0 mph14.5 kmh 29.82 in1009.8 mb 0.00 in0.0 mm 0.00 in0.0 mm 0.00 in0.0 mm
05:49 PM 55.5°F13.1°C 43.1°F6.2°C 63% 3.5 mph SE5.6 kmh SE 9.0 mph14.5 kmh 29.82 in1009.8 mb 0.00 in0.0 mm 0.00 in0.0 mm 0.00 in0.0 mm
05:50 PM 55.5°F13.1°C 43.1°F6.2°C 63% 4.5 mph SSE7.2 kmh SSE 7.0 mph11.3 kmh 29.82 in1009.8 mb 0.00 in0.0 mm 0.00 in0.0 mm 0.00 in0.0 mm
05:51 PM 55.5°F13.1°C 43.1°F6.2°C 63% 6.0 mph SE9.7 kmh SE 10.0 mph16.1 kmh 29.82 in1009.8 mb 0.00 in0.0 mm 0.00 in0.0 mm 0.00 in0.0 mm
05:52 PM 55.4°F13.0°C 43.4°F6.3°C 64% 7.0 mph SE11.3 kmh SE 11.0 mph17.7 kmh 29.82 in1009.8 mb 0.00 in0.0 mm 0.00 in0.0 mm 0.00 in0.0 mm
05:53 PM 55.4°F13.0°C 43.0°F6.1°C 63% 6.0 mph SSE9.7 kmh SSE 9.0 mph14.5 kmh 29.82 in1009.8 mb 0.00 in0.0 mm 0.00 in0.0 mm 0.00 in0.0 mm
05:54 PM 55.4°F13.0°C 43.4°F6.3°C 64% 7.4 mph SSE11.9 kmh SSE 9.0 mph14.5 kmh 29.82 in1009.8 mb 0.00 in0.0 mm 0.00 in0.0 mm 0.00 in0.0 mm
05:55 PM 55.4°F13.0°C 43.4°F6.3°C 64% 6.1 mph SE9.8 kmh SE 9.0 mph14.5 kmh 29.82 in1009.8 mb 0.00 in0.0 mm 0.00 in0.0 mm 0.00 in0.0 mm
05:56 PM 55.4°F13.0°C 43.4°F6.3°C 64% 5.6 mph SSE9.0 kmh SSE 9.0 mph14.5 kmh 29.82 in1009.8 mb 0.00 in0.0 mm 0.00 in0.0 mm 0.00 in0.0 mm
05:57 PM 55.4°F13.0°C 43.4°F6.3°C 64% 4.2 mph SSE6.8 kmh SSE 8.0 mph12.9 kmh 29.82 in1009.8 mb 0.00 in0.0 mm 0.00 in0.0 mm 0.00 in0.0 mm
05:58 PM 55.3°F12.9°C 43.3°F6.3°C 64% 8.2 mph SSE13.2 kmh SSE 12.0 mph19.3 kmh 29.82 in1009.8 mb 0.00 in0.0 mm 0.00 in0.0 mm 0.00 in0.0 mm
05:59 PM 55.3°F12.9°C 42.9°F6.1°C 63% 6.9 mph SSE11.1 kmh SSE 12.0 mph19.3 kmh 29.82 in1009.8 mb 0.00 in0.0 mm 0.00 in0.0 mm 0.00 in0.0 mm
06:00 PM 55.3°F12.9°C 43.3°F6.3°C 64% 5.5 mph SSE8.9 kmh SSE 11.0 mph17.7 kmh 29.81 in1009.5 mb 0.00 in0.0 mm 0.00 in0.0 mm 0.00 in0.0 mm
06:01 PM 55.3°F12.9°C 42.9°F6.1°C 63% 8.3 mph SSE13.4 kmh SSE 12.0 mph19.3 kmh 29.81 in1009.5 mb 0.00 in0.0 mm 0.00 in0.0 mm 0.00 in0.0 mm
06:02 PM 55.3°F12.9°C 42.9°F6.1°C 63% 10.0 mph SSE16.1 kmh SSE 14.0 mph22.5 kmh 29.81 in1009.5 mb 0.00 in0.0 mm 0.00 in0.0 mm 0.00 in0.0 mm
06:03 PM 55.3°F12.9°C 42.9°F6.1°C 63% 7.5 mph SSE12.1 kmh SSE 14.0 mph22.5 kmh 29.82 in1009.8 mb 0.00 in0.0 mm 0.00 in0.0 mm 0.00 in0.0 mm
06:04 PM 55.3°F12.9°C 42.9°F6.1°C 63% 5.8 mph SSE9.3 kmh SSE 10.0 mph16.1 kmh 29.81 in1009.5 mb 0.00 in0.0 mm 0.00 in0.0 mm 0.00 in0.0 mm
06:05 PM 55.3°F12.9°C 42.9°F6.1°C 63% 6.6 mph SSE10.6 kmh SSE 9.0 mph14.5 kmh 29.82 in1009.8 mb 0.00 in0.0 mm 0.00 in0.0 mm 0.00 in0.0 mm
06:06 PM 55.3°F12.9°C 42.9°F6.1°C 63% 9.9 mph S15.9 kmh S 15.0 mph24.1 kmh 29.82 in1009.8 mb 0.00 in0.0 mm 0.00 in0.0 mm 0.00 in0.0 mm
06:07 PM 55.3°F12.9°C 42.5°F5.8°C 62% 9.4 mph SSE15.1 kmh SSE 15.0 mph24.1 kmh 29.82 in1009.8 mb 0.00 in0.0 mm 0.00 in0.0 mm 0.00 in0.0 mm
06:08 PM 55.3°F12.9°C 42.5°F5.8°C 62% 9.0 mph SSE14.5 kmh SSE 15.0 mph24.1 kmh 29.82 in1009.8 mb 0.00 in0.0 mm 0.00 in0.0 mm 0.00 in0.0 mm
06:09 PM 55.2°F12.9°C 42.8°F6.0°C 63% 6.0 mph S9.7 kmh S 9.0 mph14.5 kmh 29.82 in1009.8 mb 0.00 in0.0 mm 0.00 in0.0 mm 0.00 in0.0 mm
06:10 PM 55.2°F12.9°C 42.8°F6.0°C 63% 7.0 mph SSE11.3 kmh SSE 11.0 mph17.7 kmh 29.82 in1009.8 mb 0.00 in0.0 mm 0.00 in0.0 mm 0.00 in0.0 mm
06:11 PM 55.3°F12.9°C 42.9°F6.1°C 63% 9.3 mph SSE15.0 kmh SSE 12.0 mph19.3 kmh 29.82 in1009.8 mb 0.00 in0.0 mm 0.00 in0.0 mm 0.00 in0.0 mm
06:12 PM 55.2°F12.9°C 42.8°F6.0°C 63% 8.8 mph SSE14.2 kmh SSE 12.0 mph19.3 kmh 29.82 in1009.8 mb 0.00 in0.0 mm 0.00 in0.0 mm 0.00 in0.0 mm
06:13 PM 55.2°F12.9°C 42.8°F6.0°C 63% 6.9 mph SSE11.1 kmh SSE 12.0 mph19.3 kmh 29.82 in1009.8 mb 0.00 in0.0 mm 0.00 in0.0 mm 0.00 in0.0 mm
06:14 PM 55.2°F12.9°C 42.8°F6.0°C 63% 5.5 mph SSE8.9 kmh SSE 10.0 mph16.1 kmh 29.82 in1009.8 mb 0.00 in0.0 mm 0.00 in0.0 mm 0.00 in0.0 mm
06:15 PM 55.2°F12.9°C 42.8°F6.0°C 63% 8.4 mph SSE13.5 kmh SSE 11.0 mph17.7 kmh 29.82 in1009.8 mb 0.00 in0.0 mm 0.00 in0.0 mm 0.00 in0.0 mm
06:16 PM 55.2°F12.9°C 42.8°F6.0°C 63% 7.1 mph SSE11.4 kmh SSE 12.0 mph19.3 kmh 29.81 in1009.5 mb 0.00 in0.0 mm 0.00 in0.0 mm 0.00 in0.0 mm
06:17 PM 55.1°F12.8°C 42.7°F5.9°C 63% 5.5 mph SSE8.9 kmh SSE 12.0 mph19.3 kmh 29.82 in1009.8 mb 0.00 in0.0 mm 0.00 in0.0 mm 0.00 in0.0 mm
06:18 PM 55.2°F12.9°C 42.8°F6.0°C 63% 5.2 mph SSE8.4 kmh SSE 7.0 mph11.3 kmh 29.81 in1009.5 mb 0.00 in0.0 mm 0.00 in0.0 mm 0.00 in0.0 mm
06:19 PM 55.1°F12.8°C 43.1°F6.2°C 64% 7.7 mph SSE12.4 kmh SSE 12.0 mph19.3 kmh 29.81 in1009.5 mb 0.00 in0.0 mm 0.00 in0.0 mm 0.00 in0.0 mm
06:20 PM 55.1°F12.8°C 43.1°F6.2°C 64% 6.5 mph SSE10.5 kmh SSE 12.0 mph19.3 kmh 29.82 in1009.8 mb 0.00 in0.0 mm 0.00 in0.0 mm 0.00 in0.0 mm
06:21 PM 55.1°F12.8°C 43.1°F6.2°C 64% 6.0 mph S9.7 kmh S 11.0 mph17.7 kmh 29.82 in1009.8 mb 0.00 in0.0 mm 0.00 in0.0 mm 0.00 in0.0 mm
06:22 PM 55.1°F12.8°C 42.7°F5.9°C 63% 6.7 mph SE10.8 kmh SE 11.0 mph17.7 kmh 29.82 in1009.8 mb 0.00 in0.0 mm 0.00 in0.0 mm 0.00 in0.0 mm
06:23 PM 55.1°F12.8°C 43.1°F6.2°C 64% 6.0 mph SSE9.7 kmh SSE 10.0 mph16.1 kmh 29.82 in1009.8 mb 0.00 in0.0 mm 0.00 in0.0 mm 0.00 in0.0 mm
06:24 PM 55.0°F12.8°C 42.6°F5.9°C 63% 5.9 mph S9.5 kmh S 12.0 mph19.3 kmh 29.82 in1009.8 mb 0.00 in0.0 mm 0.00 in0.0 mm 0.00 in0.0 mm
06:25 PM 55.0°F12.8°C 42.6°F5.9°C 63% 6.9 mph SSE11.1 kmh SSE 12.0 mph19.3 kmh 29.82 in1009.8 mb 0.00 in0.0 mm 0.00 in0.0 mm 0.00 in0.0 mm
06:26 PM 55.0°F12.8°C 42.6°F5.9°C 63% 6.5 mph SSE10.5 kmh SSE 10.0 mph16.1 kmh 29.82 in1009.8 mb 0.00 in0.0 mm 0.00 in0.0 mm 0.00 in0.0 mm
06:27 PM 55.0°F12.8°C 42.6°F5.9°C 63% 4.2 mph SSE6.8 kmh SSE 9.0 mph14.5 kmh 29.82 in1009.8 mb 0.00 in0.0 mm 0.00 in0.0 mm 0.00 in0.0 mm
06:28 PM 55.0°F12.8°C 42.6°F5.9°C 63% 3.5 mph S5.6 kmh S 6.0 mph9.7 kmh 29.82 in1009.8 mb 0.00 in0.0 mm 0.00 in0.0 mm 0.00 in0.0 mm
06:29 PM 55.0°F12.8°C 42.6°F5.9°C 63% 7.0 mph S11.3 kmh S 11.0 mph17.7 kmh 29.82 in1009.8 mb 0.00 in0.0 mm 0.00 in0.0 mm 0.00 in0.0 mm
06:30 PM 55.0°F12.8°C 42.6°F5.9°C 63% 8.0 mph S12.9 kmh S 11.0 mph17.7 kmh 29.82 in1009.8 mb 0.00 in0.0 mm 0.00 in0.0 mm 0.00 in0.0 mm
06:31 PM 55.0°F12.8°C 42.6°F5.9°C 63% 6.0 mph S9.7 kmh S 9.0 mph14.5 kmh 29.82 in1009.8 mb 0.00 in0.0 mm 0.00 in0.0 mm 0.00 in0.0 mm
06:32 PM 55.0°F12.8°C 42.6°F5.9°C 63% 5.4 mph S8.7 kmh S 8.0 mph12.9 kmh 29.82 in1009.8 mb 0.00 in0.0 mm 0.00 in0.0 mm 0.00 in0.0 mm
06:33 PM 55.0°F12.8°C 42.6°F5.9°C 63% 5.8 mph S9.3 kmh S 8.0 mph12.9 kmh 29.82 in1009.8 mb 0.00 in0.0 mm 0.00 in0.0 mm 0.00 in0.0 mm
06:34 PM 55.0°F12.8°C 42.6°F5.9°C 63% 5.5 mph S8.9 kmh S 8.0 mph12.9 kmh 29.82 in1009.8 mb 0.00 in0.0 mm 0.00 in0.0 mm 0.00 in0.0 mm
06:35 PM 55.0°F12.8°C 42.6°F5.9°C 63% 5.3 mph S8.5 kmh S 8.0 mph12.9 kmh 29.82 in1009.8 mb 0.00 in0.0 mm 0.00 in0.0 mm 0.00 in0.0 mm
06:36 PM 55.0°F12.8°C 42.6°F5.9°C 63% 7.5 mph S12.1 kmh S 11.0 mph17.7 kmh 29.82 in1009.8 mb 0.00 in0.0 mm 0.00 in0.0 mm 0.00 in0.0 mm
06:37 PM 55.0°F12.8°C 42.6°F5.9°C 63% 7.3 mph S11.7 kmh S 11.0 mph17.7 kmh 29.82 in1009.8 mb 0.00 in0.0 mm 0.00 in0.0 mm 0.00 in0.0 mm
06:38 PM 54.9°F12.7°C 42.5°F5.8°C 63% 8.2 mph SSE13.2 kmh SSE 12.0 mph19.3 kmh 29.82 in1009.8 mb 0.00 in0.0 mm 0.00 in0.0 mm 0.00 in0.0 mm
06:39 PM 55.0°F12.8°C 42.6°F5.9°C 63% 5.9 mph SSE9.5 kmh SSE 12.0 mph19.3 kmh 29.82 in1009.8 mb 0.00 in0.0 mm 0.00 in0.0 mm 0.00 in0.0 mm
06:40 PM 54.9°F12.7°C 42.5°F5.8°C 63% 5.8 mph S9.3 kmh S 9.0 mph14.5 kmh 29.82 in1009.8 mb 0.00 in0.0 mm 0.00 in0.0 mm 0.00 in0.0 mm
06:41 PM 54.9°F12.7°C 42.5°F5.8°C 63% 6.0 mph SSE9.7 kmh SSE 9.0 mph14.5 kmh 29.82 in1009.8 mb 0.00 in0.0 mm 0.00 in0.0 mm 0.00 in0.0 mm
06:42 PM 54.9°F12.7°C 42.5°F5.8°C 63% 5.3 mph S8.5 kmh S 8.0 mph12.9 kmh 29.82 in1009.8 mb 0.00 in0.0 mm 0.00 in0.0 mm 0.00 in0.0 mm
06:43 PM 54.8°F12.7°C 42.4°F5.8°C 63% 6.0 mph SSE9.7 kmh SSE 8.0 mph12.9 kmh 29.82 in1009.8 mb 0.00 in0.0 mm 0.00 in0.0 mm 0.00 in0.0 mm
06:44 PM 54.8°F12.7°C 42.4°F5.8°C 63% 5.6 mph S9.0 kmh S 9.0 mph14.5 kmh 29.82 in1009.8 mb 0.00 in0.0 mm 0.00 in0.0 mm 0.00 in0.0 mm
06:45 PM 54.8°F12.7°C 42.4°F5.8°C 63% 6.9 mph S11.1 kmh S 10.0 mph16.1 kmh 29.82 in1009.8 mb 0.00 in0.0 mm 0.00 in0.0 mm 0.00 in0.0 mm
06:46 PM 54.8°F12.7°C 42.4°F5.8°C 63% 5.4 mph S8.7 kmh S 10.0 mph16.1 kmh 29.82 in1009.8 mb 0.00 in0.0 mm 0.00 in0.0 mm 0.00 in0.0 mm
06:47 PM 54.8°F12.7°C 42.4°F5.8°C 63% 4.6 mph S7.4 kmh S 10.0 mph16.1 kmh 29.82 in1009.8 mb 0.00 in0.0 mm 0.00 in0.0 mm 0.00 in0.0 mm
06:48 PM 54.7°F12.6°C 42.4°F5.8°C 63% 5.4 mph SSE8.7 kmh SSE 8.0 mph12.9 kmh 29.82 in1009.8 mb 0.00 in0.0 mm 0.00 in0.0 mm 0.00 in0.0 mm
06:49 PM 54.8°F12.7°C 42.4°F5.8°C 63% 4.3 mph S6.9 kmh S 8.0 mph12.9 kmh 29.82 in1009.8 mb 0.00 in0.0 mm 0.00 in0.0 mm 0.00 in0.0 mm
06:50 PM 54.7°F12.6°C 42.8°F6.0°C 64% 3.9 mph SSE6.3 kmh SSE 7.0 mph11.3 kmh 29.82 in1009.8 mb 0.00 in0.0 mm 0.00 in0.0 mm 0.00 in0.0 mm
06:51 PM 54.7°F12.6°C 42.4°F5.8°C 63% 3.8 mph S6.1 kmh S 7.0 mph11.3 kmh 29.82 in1009.8 mb 0.00 in0.0 mm 0.00 in0.0 mm 0.00 in0.0 mm
06:52 PM 54.7°F12.6°C 42.8°F6.0°C 64% 4.2 mph SSE6.8 kmh SSE 7.0 mph11.3 kmh 29.82 in1009.8 mb 0.00 in0.0 mm 0.00 in0.0 mm 0.00 in0.0 mm
06:53 PM 54.7°F12.6°C 42.4°F5.8°C 63% 6.0 mph S9.7 kmh S 9.0 mph14.5 kmh 29.82 in1009.8 mb 0.00 in0.0 mm 0.00 in0.0 mm 0.00 in0.0 mm
06:54 PM 54.6°F12.6°C 42.7°F5.9°C 64% 5.5 mph SSE8.9 kmh SSE 10.0 mph16.1 kmh 29.82 in1009.8 mb 0.00 in0.0 mm 0.00 in0.0 mm 0.00 in0.0 mm
06:55 PM 54.6°F12.6°C 42.7°F5.9°C 64% 5.6 mph SSE9.0 kmh SSE 10.0 mph16.1 kmh 29.82 in1009.8 mb 0.00 in0.0 mm 0.00 in0.0 mm 0.00 in0.0 mm
06:56 PM 54.6°F12.6°C 42.7°F5.9°C 64% 4.4 mph SSE7.1 kmh SSE 9.0 mph14.5 kmh 29.82 in1009.8 mb 0.00 in0.0 mm 0.00 in0.0 mm 0.00 in0.0 mm
06:57 PM 54.6°F12.6°C 42.7°F5.9°C 64% 6.9 mph SSE11.1 kmh SSE 10.0 mph16.1 kmh 29.82 in1009.8 mb 0.00 in0.0 mm 0.00 in0.0 mm 0.00 in0.0 mm
06:58 PM 54.6°F12.6°C 42.7°F5.9°C 64% 4.7 mph SSE7.6 kmh SSE 10.0 mph16.1 kmh 29.82 in1009.8 mb 0.00 in0.0 mm 0.00 in0.0 mm 0.00 in0.0 mm
06:59 PM 54.5°F12.5°C 42.6°F5.9°C 64% 3.6 mph S5.8 kmh S 7.0 mph11.3 kmh 29.82 in1009.8 mb 0.00 in0.0 mm 0.00 in0.0 mm 0.00 in0.0 mm
07:00 PM 54.5°F12.5°C 42.6°F5.9°C 64% 3.4 mph SSE5.5 kmh SSE 6.0 mph9.7 kmh 29.82 in1009.8 mb 0.00 in0.0 mm 0.00 in0.0 mm 0.00 in0.0 mm
07:01 PM 54.5°F12.5°C 42.6°F5.9°C 64% 3.1 mph SSE5.0 kmh SSE 6.0 mph9.7 kmh 29.82 in1009.8 mb 0.00 in0.0 mm 0.00 in0.0 mm 0.00 in0.0 mm
07:02 PM 54.4°F12.4°C 42.5°F5.8°C 64% 4.1 mph SSE6.6 kmh SSE 8.0 mph12.9 kmh 29.82 in1009.8 mb 0.00 in0.0 mm 0.00 in0.0 mm 0.00 in0.0 mm
07:03 PM 54.4°F12.4°C 42.5°F5.8°C 64% 4.4 mph SSE7.1 kmh SSE 8.0 mph12.9 kmh 29.82 in1009.8 mb 0.00 in0.0 mm 0.00 in0.0 mm 0.00 in0.0 mm
07:04 PM 54.4°F12.4°C 42.9°F6.1°C 65% 4.0 mph SSE6.4 kmh SSE 6.0 mph9.7 kmh 29.82 in1009.8 mb 0.00 in0.0 mm 0.00 in0.0 mm 0.00 in0.0 mm
07:05 PM 54.4°F12.4°C 42.9°F6.1°C 65% 4.2 mph SSE6.8 kmh SSE 6.0 mph9.7 kmh 29.82 in1009.8 mb 0.00 in0.0 mm 0.00 in0.0 mm 0.00 in0.0 mm
07:06 PM 54.4°F12.4°C 42.9°F6.1°C 65% 5.1 mph SSE8.2 kmh SSE 7.0 mph11.3 kmh 29.82 in1009.8 mb 0.00 in0.0 mm 0.00 in0.0 mm 0.00 in0.0 mm
07:07 PM 54.3°F12.4°C 42.8°F6.0°C 65% 4.5 mph SSE7.2 kmh SSE 7.0 mph11.3 kmh 29.82 in1009.8 mb 0.00 in0.0 mm 0.00 in0.0 mm 0.00 in0.0 mm
07:08 PM 54.2°F12.3°C 42.7°F5.9°C 65% 5.1 mph S8.2 kmh S 9.0 mph14.5 kmh 29.82 in1009.8 mb 0.00 in0.0 mm 0.00 in0.0 mm 0.00 in0.0 mm
07:09 PM 54.3°F12.4°C 42.8°F6.0°C 65% 5.3 mph SSE8.5 kmh SSE 9.0 mph14.5 kmh 29.82 in1009.8 mb 0.00 in0.0 mm 0.00 in0.0 mm 0.00 in0.0 mm
07:10 PM 54.2°F12.3°C 43.1°F6.2°C 66% 4.2 mph SSE6.8 kmh SSE 7.0 mph11.3 kmh 29.82 in1009.8 mb 0.00 in0.0 mm 0.00 in0.0 mm 0.00 in0.0 mm
07:11 PM 54.2°F12.3°C 43.1°F6.2°C 66% 4.1 mph SSE6.6 kmh SSE 7.0 mph11.3 kmh 29.82 in1009.8 mb 0.00 in0.0 mm 0.00 in0.0 mm 0.00 in0.0 mm
07:12 PM 54.1°F12.3°C 43.0°F6.1°C 66% 4.9 mph SSE7.9 kmh SSE 7.0 mph11.3 kmh 29.82 in1009.8 mb 0.00 in0.0 mm 0.00 in0.0 mm 0.00 in0.0 mm
07:13 PM 54.1°F12.3°C 43.0°F6.1°C 66% 3.1 mph SSE5.0 kmh SSE 6.0 mph9.7 kmh 29.82 in1009.8 mb 0.00 in0.0 mm 0.00 in0.0 mm 0.00 in0.0 mm
07:14 PM 54.1°F12.3°C 43.4°F6.3°C 67% 2.5 mph SE4.0 kmh SE 5.0 mph8.0 kmh 29.82 in1009.8 mb 0.00 in0.0 mm 0.00 in0.0 mm 0.00 in0.0 mm
07:15 PM 54.1°F12.3°C 43.4°F6.3°C 67% 3.5 mph S5.6 kmh S 6.0 mph9.7 kmh 29.82 in1009.8 mb 0.00 in0.0 mm 0.00 in0.0 mm 0.00 in0.0 mm
07:16 PM 54.1°F12.3°C 43.4°F6.3°C 67% 4.2 mph SSE6.8 kmh SSE 7.0 mph11.3 kmh 29.82 in1009.8 mb 0.00 in0.0 mm 0.00 in0.0 mm 0.00 in0.0 mm
07:17 PM 54.1°F12.3°C 43.4°F6.3°C 67% 5.4 mph SSE8.7 kmh SSE 9.0 mph14.5 kmh 29.82 in1009.8 mb 0.00 in0.0 mm 0.00 in0.0 mm 0.00 in0.0 mm
07:18 PM 54.0°F12.2°C 43.3°F6.3°C 67% 6.5 mph SSE10.5 kmh SSE 10.0 mph16.1 kmh 29.82 in1009.8 mb 0.00 in0.0 mm 0.00 in0.0 mm 0.00 in0.0 mm
07:19 PM 54.0°F12.2°C 43.3°F6.3°C 67% 3.7 mph S6.0 kmh S 10.0 mph16.1 kmh 29.82 in1009.8 mb 0.00 in0.0 mm 0.00 in0.0 mm 0.00 in0.0 mm
07:20 PM 54.0°F12.2°C 43.3°F6.3°C 67% 5.1 mph S8.2 kmh S 8.0 mph12.9 kmh 29.82 in1009.8 mb 0.00 in0.0 mm 0.00 in0.0 mm 0.00 in0.0 mm
07:21 PM 54.0°F12.2°C 43.3°F6.3°C 67% 6.3 mph S10.1 kmh S 10.0 mph16.1 kmh 29.82 in1009.8 mb 0.00 in0.0 mm 0.00 in0.0 mm 0.00 in0.0 mm
07:22 PM 54.0°F12.2°C 42.9°F6.1°C 66% 6.2 mph S10.0 kmh S 10.0 mph16.1 kmh 29.82 in1009.8 mb 0.00 in0.0 mm 0.00 in0.0 mm 0.00 in0.0 mm
07:23 PM 54.1°F12.3°C 43.0°F6.1°C 66% 5.5 mph SSE8.9 kmh SSE 10.0 mph16.1 kmh 29.82 in1009.8 mb 0.00 in0.0 mm 0.00 in0.0 mm 0.00 in0.0 mm
07:24 PM 54.1°F12.3°C 42.6°F5.9°C 65% 5.9 mph S9.5 kmh S 9.0 mph14.5 kmh 29.82 in1009.8 mb 0.00 in0.0 mm 0.00 in0.0 mm 0.00 in0.0 mm
07:25 PM 54.1°F12.3°C 42.6°F5.9°C 65% 6.4 mph S10.3 kmh S 9.0 mph14.5 kmh 29.82 in1009.8 mb 0.00 in0.0 mm 0.00 in0.0 mm 0.00 in0.0 mm
07:26 PM 54.1°F12.3°C 42.6°F5.9°C 65% 5.5 mph S8.9 kmh S 9.0 mph14.5 kmh 29.82 in1009.8 mb 0.00 in0.0 mm 0.00 in0.0 mm 0.00 in0.0 mm
07:27 PM 54.2°F12.3°C 42.7°F5.9°C 65% 5.1 mph S8.2 kmh S 7.0 mph11.3 kmh 29.82 in1009.8 mb 0.00 in0.0 mm 0.00 in0.0 mm 0.00 in0.0 mm
07:28 PM 54.2°F12.3°C 42.7°F5.9°C 65% 3.7 mph S6.0 kmh S 7.0 mph11.3 kmh 29.82 in1009.8 mb 0.00 in0.0 mm 0.00 in0.0 mm 0.00 in0.0 mm
07:29 PM 54.2°F12.3°C 42.7°F5.9°C 65% 5.1 mph S8.2 kmh S 6.0 mph9.7 kmh 29.82 in1009.8 mb 0.00 in0.0 mm 0.00 in0.0 mm 0.00 in0.0 mm
07:30 PM 54.2°F12.3°C 42.7°F5.9°C 65% 5.2 mph S8.4 kmh S 11.0 mph17.7 kmh 29.82 in1009.8 mb 0.00 in0.0 mm 0.00 in0.0 mm 0.00 in0.0 mm
07:31 PM 54.2°F12.3°C 42.7°F5.9°C 65% 6.1 mph S9.8 kmh S 11.0 mph17.7 kmh 29.82 in1009.8 mb 0.00 in0.0 mm 0.00 in0.0 mm 0.00 in0.0 mm
07:32 PM 54.2°F12.3°C 42.7°F5.9°C 65% 3.9 mph S6.3 kmh S 8.0 mph12.9 kmh 29.82 in1009.8 mb 0.00 in0.0 mm 0.00 in0.0 mm 0.00 in0.0 mm
07:33 PM 54.2°F12.3°C 42.7°F5.9°C